<?xml version='1.0' encoding='UTF-8'?><gpx version="1.1" creator="JPX - https://github.com/jenetics/jpx" xmlns="http://www.topografix.com/GPX/1/1"><trk><trkseg><trkpt lat="42.0982213" lon="13.532494"><ele>908.0</ele><time>2026-04-18T05:52:05.977Z</time></trkpt><trkpt lat="42.0982623" lon="13.5324247"><ele>910.9999999999999</ele><time>2026-04-18T05:52:10.977Z</time></trkpt><trkpt lat="42.098305" lon="13.5323405"><ele>914.0</ele><time>2026-04-18T05:52:16.977Z</time></trkpt><trkpt lat="42.0983645" lon="13.5322982"><ele>917.0</ele><time>2026-04-18T05:52:23.977Z</time></trkpt><trkpt lat="42.0984062" lon="13.5322191"><ele>919.9999999999999</ele><time>2026-04-18T05:52:30.978Z</time></trkpt><trkpt lat="42.0984474" lon="13.5321472"><ele>923.0</ele><time>2026-04-18T05:52:36.978Z</time></trkpt><trkpt lat="42.0984873" lon="13.5320768"><ele>926.0</ele><time>2026-04-18T05:52:43.976Z</time></trkpt><trkpt lat="42.0985324" lon="13.5320032"><ele>926.0</ele><time>2026-04-18T05:52:50.975Z</time></trkpt><trkpt lat="42.0985764" lon="13.5319267"><ele>925.9999999999999</ele><time>2026-04-18T05:52:56.975Z</time></trkpt><trkpt lat="42.0986147" lon="13.5318518"><ele>926.0</ele><time>2026-04-18T05:53:01.978Z</time></trkpt><trkpt lat="42.0986506" lon="13.5317773"><ele>926.0</ele><time>2026-04-18T05:53:07.052Z</time></trkpt><trkpt lat="42.0986947" lon="13.5317023"><ele>925.9999999999999</ele><time>2026-04-18T05:53:12.979Z</time></trkpt><trkpt lat="42.0987397" lon="13.5316395"><ele>926.0</ele><time>2026-04-18T05:53:18.977Z</time></trkpt><trkpt lat="42.0987921" lon="13.5315741"><ele>926.0</ele><time>2026-04-18T05:53:24.996Z</time></trkpt><trkpt lat="42.0988515" lon="13.5315102"><ele>926.0</ele><time>2026-04-18T05:53:31.04Z</time></trkpt><trkpt lat="42.0988927" lon="13.5314379"><ele>925.9999999999999</ele><time>2026-04-18T05:53:36.976Z</time></trkpt><trkpt lat="42.0989303" lon="13.5313636"><ele>926.0</ele><time>2026-04-18T05:53:42.975Z</time></trkpt><trkpt lat="42.0989687" lon="13.5312875"><ele>926.0</ele><time>2026-04-18T05:53:48.975Z</time></trkpt><trkpt lat="42.0989899" lon="13.5311926"><ele>925.9999999999999</ele><time>2026-04-18T05:53:54.979Z</time></trkpt><trkpt lat="42.0990227" lon="13.5311173"><ele>926.0</ele><time>2026-04-18T05:54:00.98Z</time></trkpt><trkpt lat="42.0990691" lon="13.5310502"><ele>926.0</ele><time>2026-04-18T05:54:06.976Z</time></trkpt><trkpt lat="42.0991096" lon="13.5309659"><ele>927.2857142857142</ele><time>2026-04-18T05:54:11.979Z</time></trkpt><trkpt lat="42.0991609" lon="13.530896"><ele>928.5714285714284</ele><time>2026-04-18T05:54:16.979Z</time></trkpt><trkpt lat="42.0992226" lon="13.5308647"><ele>929.8571428571429</ele><time>2026-04-18T05:54:22.979Z</time></trkpt><trkpt lat="42.0992858" lon="13.530874"><ele>931.1428571428571</ele><time>2026-04-18T05:54:27.982Z</time></trkpt><trkpt lat="42.0993414" lon="13.5309318"><ele>932.4285714285714</ele><time>2026-04-18T05:54:34.977Z</time></trkpt><trkpt lat="42.0994034" lon="13.5309775"><ele>933.7142857142858</ele><time>2026-04-18T05:54:41.98Z</time></trkpt><trkpt lat="42.0994576" lon="13.5310366"><ele>935.0000000000001</ele><time>2026-04-18T05:54:48.979Z</time></trkpt><trkpt lat="42.0995236" lon="13.5310367"><ele>935.0000000000001</ele><time>2026-04-18T05:54:56.979Z</time></trkpt><trkpt lat="42.0995945" lon="13.5310264"><ele>935.0</ele><time>2026-04-18T05:55:02.978Z</time></trkpt><trkpt lat="42.099661" lon="13.5310383"><ele>935.0000000000001</ele><time>2026-04-18T05:55:10.98Z</time></trkpt><trkpt lat="42.0997248" lon="13.5310435"><ele>935.0000000000001</ele><time>2026-04-18T05:55:16.99Z</time></trkpt><trkpt lat="42.0997798" lon="13.5310903"><ele>935.0</ele><time>2026-04-18T05:55:23.909Z</time></trkpt><trkpt lat="42.0998429" lon="13.5311173"><ele>935.0000000000001</ele><time>2026-04-18T05:55:30.98Z</time></trkpt><trkpt lat="42.0999089" lon="13.531135"><ele>935.0000000000001</ele><time>2026-04-18T05:55:37.976Z</time></trkpt><trkpt lat="42.099979" lon="13.5311322"><ele>937.4285714285716</ele><time>2026-04-18T05:55:45.035Z</time></trkpt><trkpt lat="42.1000466" lon="13.5311221"><ele>939.8571428571429</ele><time>2026-04-18T05:55:52.979Z</time></trkpt><trkpt lat="42.1001158" lon="13.5311186"><ele>942.2857142857143</ele><time>2026-04-18T05:56:01.007Z</time></trkpt><trkpt lat="42.1001816" lon="13.5311128"><ele>944.7142857142858</ele><time>2026-04-18T05:56:08.98Z</time></trkpt><trkpt lat="42.1002483" lon="13.5311085"><ele>947.1428571428571</ele><time>2026-04-18T05:56:15.993Z</time></trkpt><trkpt lat="42.1003194" lon="13.5311305"><ele>949.5714285714286</ele><time>2026-04-18T05:56:24.036Z</time></trkpt><trkpt lat="42.1003418" lon="13.5312113"><ele>952.0</ele><time>2026-04-18T05:56:29.977Z</time></trkpt><trkpt lat="42.1003975" lon="13.5311709"><ele>953.8571428571429</ele><time>2026-04-18T05:57:35.978Z</time></trkpt><trkpt lat="42.1003808" lon="13.5312643"><ele>955.7142857142858</ele><time>2026-04-18T05:57:47.017Z</time></trkpt><trkpt lat="42.1004143" lon="13.5313485"><ele>957.5714285714286</ele><time>2026-04-18T05:57:52.951Z</time></trkpt><trkpt lat="42.1004779" lon="13.5313941"><ele>959.4285714285714</ele><time>2026-04-18T05:57:59.991Z</time></trkpt><trkpt lat="42.1005354" lon="13.5314381"><ele>961.2857142857143</ele><time>2026-04-18T05:58:07.977Z</time></trkpt><trkpt lat="42.1005794" lon="13.5315213"><ele>963.1428571428571</ele><time>2026-04-18T05:58:15.983Z</time></trkpt><trkpt lat="42.1006309" lon="13.5315791"><ele>965.0</ele><time>2026-04-18T05:58:25.035Z</time></trkpt><trkpt lat="42.1006858" lon="13.5315298"><ele>965.0</ele><time>2026-04-18T05:58:32.982Z</time></trkpt><trkpt lat="42.1007162" lon="13.5314483"><ele>965.0</ele><time>2026-04-18T05:58:42.978Z</time></trkpt><trkpt lat="42.100773" lon="13.531398"><ele>965.0</ele><time>2026-04-18T05:58:52.955Z</time></trkpt><trkpt lat="42.1008409" lon="13.5313918"><ele>965.0</ele><time>2026-04-18T05:59:03.978Z</time></trkpt><trkpt lat="42.100904" lon="13.5313759"><ele>965.0</ele><time>2026-04-18T05:59:11.904Z</time></trkpt><trkpt lat="42.1009632" lon="13.5314061"><ele>965.0</ele><time>2026-04-18T05:59:20.981Z</time></trkpt><trkpt lat="42.1010209" lon="13.5314526"><ele>965.0</ele><time>2026-04-18T05:59:54.982Z</time></trkpt><trkpt lat="42.1010863" lon="13.5314436"><ele>966.4285714285713</ele><time>2026-04-18T06:00:01.999Z</time></trkpt><trkpt lat="42.1011439" lon="13.5313891"><ele>967.8571428571429</ele><time>2026-04-18T06:00:11.978Z</time></trkpt><trkpt lat="42.1011983" lon="13.5313359"><ele>969.2857142857142</ele><time>2026-04-18T06:00:17.992Z</time></trkpt><trkpt lat="42.101254" lon="13.53128"><ele>970.7142857142857</ele><time>2026-04-18T06:00:25.023Z</time></trkpt><trkpt lat="42.101305" lon="13.5312256"><ele>972.1428571428571</ele><time>2026-04-18T06:00:31.982Z</time></trkpt><trkpt lat="42.1013541" lon="13.5311685"><ele>973.5714285714286</ele><time>2026-04-18T06:00:40.009Z</time></trkpt><trkpt lat="42.1014172" lon="13.5311408"><ele>975.0</ele><time>2026-04-18T06:00:46.98Z</time></trkpt><trkpt lat="42.1014695" lon="13.5310735"><ele>975.0</ele><time>2026-04-18T06:00:53.989Z</time></trkpt><trkpt lat="42.1015308" lon="13.5310288"><ele>974.9999999999999</ele><time>2026-04-18T06:01:01.977Z</time></trkpt><trkpt lat="42.1015887" lon="13.5309784"><ele>975.0</ele><time>2026-04-18T06:01:08.872Z</time></trkpt><trkpt lat="42.1016394" lon="13.5309211"><ele>975.0</ele><time>2026-04-18T06:02:05.896Z</time></trkpt><trkpt lat="42.1016973" lon="13.5308778"><ele>974.9999999999999</ele><time>2026-04-18T06:02:10.938Z</time></trkpt><trkpt lat="42.1017628" lon="13.5308454"><ele>975.0</ele><time>2026-04-18T06:02:17.978Z</time></trkpt><trkpt lat="42.1018224" lon="13.5308113"><ele>975.0</ele><time>2026-04-18T06:02:23.995Z</time></trkpt><trkpt lat="42.1018411" lon="13.5307239"><ele>977.5714285714286</ele><time>2026-04-18T06:02:59.979Z</time></trkpt><trkpt lat="42.1018172" lon="13.530808"><ele>980.1428571428571</ele><time>2026-04-18T06:03:11.983Z</time></trkpt><trkpt lat="42.1018575" lon="13.5307318"><ele>982.7142857142857</ele><time>2026-04-18T06:03:21.983Z</time></trkpt><trkpt lat="42.1018876" lon="13.5306456"><ele>985.2857142857142</ele><time>2026-04-18T06:03:28.978Z</time></trkpt><trkpt lat="42.101932" lon="13.5305793"><ele>987.8571428571429</ele><time>2026-04-18T06:03:36.977Z</time></trkpt><trkpt lat="42.1019782" lon="13.5305039"><ele>990.4285714285713</ele><time>2026-04-18T06:03:46.981Z</time></trkpt><trkpt lat="42.1019885" lon="13.5304201"><ele>993.0</ele><time>2026-04-18T06:03:57.013Z</time></trkpt><trkpt lat="42.1020502" lon="13.5303789"><ele>993.0</ele><time>2026-04-18T06:04:08.912Z</time></trkpt><trkpt lat="42.1021065" lon="13.530446"><ele>993.0</ele><time>2026-04-18T06:04:38.983Z</time></trkpt><trkpt lat="42.1021475" lon="13.5305227"><ele>993.0</ele><time>2026-04-18T06:04:45.011Z</time></trkpt><trkpt lat="42.1022023" lon="13.5305854"><ele>993.0</ele><time>2026-04-18T06:04:52.892Z</time></trkpt><trkpt lat="42.1022676" lon="13.5306053"><ele>993.0</ele><time>2026-04-18T06:05:05.937Z</time></trkpt><trkpt lat="42.1023143" lon="13.5306668"><ele>993.0</ele><time>2026-04-18T06:05:15.014Z</time></trkpt><trkpt lat="42.1023334" lon="13.5307494"><ele>993.0</ele><time>2026-04-18T06:05:22.979Z</time></trkpt><trkpt lat="42.1023986" lon="13.5307776"><ele>997.0</ele><time>2026-04-18T06:05:28.979Z</time></trkpt><trkpt lat="42.102448" lon="13.5308306"><ele>1001.0</ele><time>2026-04-18T06:05:34.995Z</time></trkpt><trkpt lat="42.1025038" lon="13.5308738"><ele>1005.0</ele><time>2026-04-18T06:05:39.018Z</time></trkpt><trkpt lat="42.1024463" lon="13.5309103"><ele>1009.0</ele><time>2026-04-18T06:05:45.978Z</time></trkpt><trkpt lat="42.1024256" lon="13.5310042"><ele>1013.0</ele><time>2026-04-18T06:05:59.978Z</time></trkpt><trkpt lat="42.1024825" lon="13.5310493"><ele>1017.0</ele><time>2026-04-18T06:06:05.909Z</time></trkpt><trkpt lat="42.1025231" lon="13.5311142"><ele>1021.0</ele><time>2026-04-18T06:06:17.036Z</time></trkpt><trkpt lat="42.1025807" lon="13.5311554"><ele>1021.0</ele><time>2026-04-18T06:06:24.981Z</time></trkpt><trkpt lat="42.1025345" lon="13.5312286"><ele>1021.0</ele><time>2026-04-18T06:06:30.981Z</time></trkpt><trkpt lat="42.102594" lon="13.5311727"><ele>1021.0</ele><time>2026-04-18T06:11:15.979Z</time></trkpt><trkpt lat="42.1025557" lon="13.5310875"><ele>1021.0</ele><time>2026-04-18T06:11:23.007Z</time></trkpt><trkpt lat="42.1024801" lon="13.5310546"><ele>1021.0</ele><time>2026-04-18T06:11:40.005Z</time></trkpt><trkpt lat="42.1025368" lon="13.5310083"><ele>1021.0</ele><time>2026-04-18T06:12:01.978Z</time></trkpt><trkpt lat="42.1025959" lon="13.5310445"><ele>1021.0</ele><time>2026-04-18T06:12:07.98Z</time></trkpt><trkpt lat="42.1026601" lon="13.5310783"><ele>1021.0</ele><time>2026-04-18T06:12:15.98Z</time></trkpt><trkpt lat="42.10271" lon="13.531133"><ele>1021.0</ele><time>2026-04-18T06:12:26.981Z</time></trkpt><trkpt lat="42.1027662" lon="13.5311759"><ele>1021.0</ele><time>2026-04-18T06:12:55.899Z</time></trkpt><trkpt lat="42.1028283" lon="13.531209"><ele>1021.0</ele><time>2026-04-18T06:13:03.992Z</time></trkpt><trkpt lat="42.1028984" lon="13.5312111"><ele>1021.0</ele><time>2026-04-18T06:13:25.976Z</time></trkpt><trkpt lat="42.1029654" lon="13.531209"><ele>1021.0</ele><time>2026-04-18T06:13:31.98Z</time></trkpt><trkpt lat="42.103029" lon="13.5312047"><ele>1021.0</ele><time>2026-04-18T06:13:37.988Z</time></trkpt><trkpt lat="42.1030963" lon="13.5312103"><ele>1021.0</ele><time>2026-04-18T06:13:44.978Z</time></trkpt><trkpt lat="42.1031642" lon="13.531194"><ele>1021.0</ele><time>2026-04-18T06:13:52.98Z</time></trkpt><trkpt lat="42.1032263" lon="13.5311776"><ele>1021.0</ele><time>2026-04-18T06:14:00.012Z</time></trkpt><trkpt lat="42.103293" lon="13.5311572"><ele>1021.0</ele><time>2026-04-18T06:14:08.953Z</time></trkpt><trkpt lat="42.1033538" lon="13.5311173"><ele>1021.0</ele><time>2026-04-18T06:14:17.024Z</time></trkpt><trkpt lat="42.1034199" lon="13.5311134"><ele>1021.0</ele><time>2026-04-18T06:14:27.981Z</time></trkpt><trkpt lat="42.1034865" lon="13.5311158"><ele>1021.0</ele><time>2026-04-18T06:14:35.019Z</time></trkpt><trkpt lat="42.1035575" lon="13.5311233"><ele>1024.7142857142858</ele><time>2026-04-18T06:14:44.971Z</time></trkpt><trkpt lat="42.1036221" lon="13.5311492"><ele>1028.4285714285716</ele><time>2026-04-18T06:14:56.976Z</time></trkpt><trkpt lat="42.1036347" lon="13.5312354"><ele>1032.1428571428573</ele><time>2026-04-18T06:15:04.993Z</time></trkpt><trkpt lat="42.1037031" lon="13.5312132"><ele>1035.857142857143</ele><time>2026-04-18T06:16:04.979Z</time></trkpt><trkpt lat="42.103763" lon="13.5312434"><ele>1039.5714285714287</ele><time>2026-04-18T06:16:11.003Z</time></trkpt><trkpt lat="42.1038255" lon="13.5312643"><ele>1043.2857142857144</ele><time>2026-04-18T06:16:16.977Z</time></trkpt><trkpt lat="42.103893" lon="13.5312795"><ele>1047.0</ele><time>2026-04-18T06:16:23.978Z</time></trkpt><trkpt lat="42.1039587" lon="13.5312481"><ele>1047.0000000000002</ele><time>2026-04-18T06:16:31.979Z</time></trkpt><trkpt lat="42.1040246" lon="13.5312224"><ele>1047.0</ele><time>2026-04-18T06:16:38.98Z</time></trkpt><trkpt lat="42.104093" lon="13.531205"><ele>1047.0</ele><time>2026-04-18T06:16:47.046Z</time></trkpt><trkpt lat="42.1041619" lon="13.5312054"><ele>1047.0</ele><time>2026-04-18T06:16:54.995Z</time></trkpt><trkpt lat="42.1042308" lon="13.5311903"><ele>1047.0</ele><time>2026-04-18T06:17:04.977Z</time></trkpt><trkpt lat="42.1042961" lon="13.5311601"><ele>1047.0000000000002</ele><time>2026-04-18T06:17:16.989Z</time></trkpt><trkpt lat="42.1043563" lon="13.5311271"><ele>1047.0</ele><time>2026-04-18T06:17:24.977Z</time></trkpt><trkpt lat="42.1044205" lon="13.5311678"><ele>1048.4285714285716</ele><time>2026-04-18T06:17:34.996Z</time></trkpt><trkpt lat="42.1044867" lon="13.5311427"><ele>1049.857142857143</ele><time>2026-04-18T06:17:43.979Z</time></trkpt><trkpt lat="42.104552" lon="13.5311348"><ele>1051.2857142857142</ele><time>2026-04-18T06:17:53Z</time></trkpt><trkpt lat="42.1046203" lon="13.5311464"><ele>1052.7142857142858</ele><time>2026-04-18T06:18:03.981Z</time></trkpt><trkpt lat="42.1046806" lon="13.5311853"><ele>1054.142857142857</ele><time>2026-04-18T06:18:11.005Z</time></trkpt><trkpt lat="42.1047411" lon="13.5312233"><ele>1055.5714285714287</ele><time>2026-04-18T06:18:17.979Z</time></trkpt><trkpt lat="42.1048049" lon="13.5312264"><ele>1057.0</ele><time>2026-04-18T06:18:25.993Z</time></trkpt><trkpt lat="42.1048597" lon="13.5312711"><ele>1059.4285714285713</ele><time>2026-04-18T06:18:32.979Z</time></trkpt><trkpt lat="42.1049273" lon="13.5312679"><ele>1061.857142857143</ele><time>2026-04-18T06:18:40.981Z</time></trkpt><trkpt lat="42.1049896" lon="13.5313139"><ele>1064.2857142857142</ele><time>2026-04-18T06:18:48.977Z</time></trkpt><trkpt lat="42.1050557" lon="13.5313396"><ele>1066.7142857142858</ele><time>2026-04-18T06:18:57.894Z</time></trkpt><trkpt lat="42.1051076" lon="13.5313881"><ele>1069.142857142857</ele><time>2026-04-18T06:19:09.914Z</time></trkpt><trkpt lat="42.1051434" lon="13.5314583"><ele>1071.5714285714284</ele><time>2026-04-18T06:19:16.976Z</time></trkpt><trkpt lat="42.1051971" lon="13.5315138"><ele>1074.0</ele><time>2026-04-18T06:19:25.981Z</time></trkpt><trkpt lat="42.1052319" lon="13.5316005"><ele>1073.9999999999998</ele><time>2026-04-18T06:20:15.977Z</time></trkpt><trkpt lat="42.1052342" lon="13.5317026"><ele>1074.0</ele><time>2026-04-18T06:20:27.976Z</time></trkpt><trkpt lat="42.1052398" lon="13.5317984"><ele>1074.0</ele><time>2026-04-18T06:20:34.979Z</time></trkpt><trkpt lat="42.1052033" lon="13.5318679"><ele>1074.0</ele><time>2026-04-18T06:20:51.977Z</time></trkpt><trkpt lat="42.105168" lon="13.5319507"><ele>1074.0</ele><time>2026-04-18T06:21:00.978Z</time></trkpt><trkpt lat="42.1051449" lon="13.5320391"><ele>1073.9999999999998</ele><time>2026-04-18T06:21:07.981Z</time></trkpt><trkpt lat="42.1050839" lon="13.5320763"><ele>1074.0</ele><time>2026-04-18T06:23:08.977Z</time></trkpt><trkpt lat="42.1051418" lon="13.5320407"><ele>1073.9999999999998</ele><time>2026-04-18T06:25:00.976Z</time></trkpt><trkpt lat="42.1051464" lon="13.5319484"><ele>1074.0</ele><time>2026-04-18T06:25:07.975Z</time></trkpt><trkpt lat="42.105168" lon="13.5318655"><ele>1074.0</ele><time>2026-04-18T06:25:13.978Z</time></trkpt><trkpt lat="42.1052186" lon="13.5318098"><ele>1074.0</ele><time>2026-04-18T06:25:19.978Z</time></trkpt><trkpt lat="42.1052274" lon="13.531719"><ele>1074.0</ele><time>2026-04-18T06:25:26.978Z</time></trkpt><trkpt lat="42.1052486" lon="13.531632"><ele>1073.9999999999998</ele><time>2026-04-18T06:25:31.979Z</time></trkpt><trkpt lat="42.1052594" lon="13.5315459"><ele>1074.0</ele><time>2026-04-18T06:25:39.973Z</time></trkpt><trkpt lat="42.1052437" lon="13.5314544"><ele>1073.9999999999998</ele><time>2026-04-18T06:25:54.98Z</time></trkpt><trkpt lat="42.1052055" lon="13.5313816"><ele>1074.0</ele><time>2026-04-18T06:26:02.015Z</time></trkpt><trkpt lat="42.1052745" lon="13.531383"><ele>1074.0</ele><time>2026-04-18T06:26:07.981Z</time></trkpt><trkpt lat="42.1053243" lon="13.5313273"><ele>1074.0</ele><time>2026-04-18T06:26:20.02Z</time></trkpt><trkpt lat="42.1053861" lon="13.5313574"><ele>1074.0</ele><time>2026-04-18T06:26:32.924Z</time></trkpt><trkpt lat="42.1054519" lon="13.5313445"><ele>1073.9999999999998</ele><time>2026-04-18T06:26:57.979Z</time></trkpt><trkpt lat="42.1054969" lon="13.5312785"><ele>1074.0</ele><time>2026-04-18T06:27:06.989Z</time></trkpt><trkpt lat="42.1055612" lon="13.5312798"><ele>1073.9999999999998</ele><time>2026-04-18T06:27:34.984Z</time></trkpt><trkpt lat="42.1055915" lon="13.5313602"><ele>1074.0</ele><time>2026-04-18T06:27:58.988Z</time></trkpt><trkpt lat="42.1056549" lon="13.531417"><ele>1074.0</ele><time>2026-04-18T06:28:09.047Z</time></trkpt><trkpt lat="42.1056754" lon="13.5313256"><ele>1074.0</ele><time>2026-04-18T06:28:18.98Z</time></trkpt><trkpt lat="42.1056879" lon="13.5312355"><ele>1074.0</ele><time>2026-04-18T06:28:27.984Z</time></trkpt><trkpt lat="42.1056799" lon="13.5311399"><ele>1073.9999999999998</ele><time>2026-04-18T06:28:36.003Z</time></trkpt><trkpt lat="42.1056647" lon="13.5310506"><ele>1074.0</ele><time>2026-04-18T06:28:44.973Z</time></trkpt><trkpt lat="42.1056318" lon="13.5309736"><ele>1075.9999999999998</ele><time>2026-04-18T06:28:54.008Z</time></trkpt><trkpt lat="42.1056902" lon="13.5309394"><ele>1078.0</ele><time>2026-04-18T06:28:59.978Z</time></trkpt><trkpt lat="42.105746" lon="13.5309991"><ele>1080.0</ele><time>2026-04-18T06:29:06.983Z</time></trkpt><trkpt lat="42.1058118" lon="13.5309886"><ele>1082.0</ele><time>2026-04-18T06:29:43.978Z</time></trkpt><trkpt lat="42.1058705" lon="13.5310382"><ele>1084.0</ele><time>2026-04-18T06:29:53.978Z</time></trkpt><trkpt lat="42.1058938" lon="13.5311246"><ele>1085.9999999999998</ele><time>2026-04-18T06:30:12.981Z</time></trkpt><trkpt lat="42.1059581" lon="13.5310898"><ele>1088.0</ele><time>2026-04-18T06:30:26.038Z</time></trkpt><trkpt lat="42.1059721" lon="13.5309983"><ele>1092.8571428571427</ele><time>2026-04-18T06:30:40.017Z</time></trkpt><trkpt lat="42.1059888" lon="13.5309115"><ele>1097.7142857142858</ele><time>2026-04-18T06:30:51.987Z</time></trkpt><trkpt lat="42.1060134" lon="13.5308294"><ele>1102.5714285714284</ele><time>2026-04-18T06:31:03.98Z</time></trkpt><trkpt lat="42.106004" lon="13.530744"><ele>1107.4285714285713</ele><time>2026-04-18T06:31:17.934Z</time></trkpt><trkpt lat="42.1060528" lon="13.5307997"><ele>1112.2857142857142</ele><time>2026-04-18T06:34:39.981Z</time></trkpt><trkpt lat="42.106121" lon="13.5307931"><ele>1117.142857142857</ele><time>2026-04-18T06:34:48.983Z</time></trkpt><trkpt lat="42.1061851" lon="13.5308173"><ele>1122.0</ele><time>2026-04-18T06:35:00.973Z</time></trkpt><trkpt lat="42.1062489" lon="13.5308501"><ele>1122.0</ele><time>2026-04-18T06:35:14.989Z</time></trkpt><trkpt lat="42.1062621" lon="13.5309369"><ele>1122.0</ele><time>2026-04-18T06:35:26.986Z</time></trkpt><trkpt lat="42.1062631" lon="13.5310258"><ele>1122.0</ele><time>2026-04-18T06:35:40.973Z</time></trkpt><trkpt lat="42.106312" lon="13.5310796"><ele>1122.0</ele><time>2026-04-18T06:35:52.002Z</time></trkpt><trkpt lat="42.106375" lon="13.5310376"><ele>1122.0</ele><time>2026-04-18T06:36:05.027Z</time></trkpt><trkpt lat="42.106433" lon="13.5310006"><ele>1122.0</ele><time>2026-04-18T06:36:15.022Z</time></trkpt><trkpt lat="42.1064942" lon="13.5310223"><ele>1122.0</ele><time>2026-04-18T06:36:24.989Z</time></trkpt><trkpt lat="42.1065571" lon="13.5310128"><ele>1126.142857142857</ele><time>2026-04-18T06:36:34.979Z</time></trkpt><trkpt lat="42.1066243" lon="13.5309721"><ele>1130.2857142857142</ele><time>2026-04-18T06:36:45.004Z</time></trkpt><trkpt lat="42.1066853" lon="13.5309333"><ele>1134.4285714285713</ele><time>2026-04-18T06:36:54.022Z</time></trkpt><trkpt lat="42.1067394" lon="13.5309841"><ele>1138.5714285714284</ele><time>2026-04-18T06:37:04.013Z</time></trkpt><trkpt lat="42.1066696" lon="13.5309747"><ele>1142.7142857142858</ele><time>2026-04-18T06:37:28.959Z</time></trkpt><trkpt lat="42.1066024" lon="13.5309709"><ele>1146.8571428571427</ele><time>2026-04-18T06:37:33.984Z</time></trkpt><trkpt lat="42.1066822" lon="13.5309559"><ele>1151.0</ele><time>2026-04-18T06:39:19.978Z</time></trkpt><trkpt lat="42.1067449" lon="13.530908"><ele>1150.9999999999998</ele><time>2026-04-18T06:39:26.991Z</time></trkpt><trkpt lat="42.1068043" lon="13.530938"><ele>1151.0</ele><time>2026-04-18T06:39:31.98Z</time></trkpt><trkpt lat="42.1068657" lon="13.5309673"><ele>1151.0</ele><time>2026-04-18T06:39:38.995Z</time></trkpt><trkpt lat="42.1069328" lon="13.5309813"><ele>1151.0</ele><time>2026-04-18T06:39:47.007Z</time></trkpt><trkpt lat="42.1069944" lon="13.5310172"><ele>1151.0</ele><time>2026-04-18T06:39:55.978Z</time></trkpt><trkpt lat="42.1070609" lon="13.5310406"><ele>1150.9999999999998</ele><time>2026-04-18T06:40:04.007Z</time></trkpt><trkpt lat="42.107126" lon="13.5310241"><ele>1151.0</ele><time>2026-04-18T06:40:10.933Z</time></trkpt><trkpt lat="42.1071932" lon="13.5310349"><ele>1150.9999999999998</ele><time>2026-04-18T06:40:18.993Z</time></trkpt><trkpt lat="42.1072574" lon="13.5310693"><ele>1151.0</ele><time>2026-04-18T06:40:25.98Z</time></trkpt><trkpt lat="42.1073275" lon="13.531084"><ele>1151.0</ele><time>2026-04-18T06:40:32.901Z</time></trkpt><trkpt lat="42.1073747" lon="13.5311417"><ele>1151.0</ele><time>2026-04-18T06:40:40.044Z</time></trkpt><trkpt lat="42.1074398" lon="13.5311531"><ele>1151.0</ele><time>2026-04-18T06:40:50.978Z</time></trkpt><trkpt lat="42.1075061" lon="13.5311113"><ele>1150.9999999999998</ele><time>2026-04-18T06:40:59.024Z</time></trkpt><trkpt lat="42.1075616" lon="13.5310673"><ele>1151.0</ele><time>2026-04-18T06:41:08.982Z</time></trkpt><trkpt lat="42.1076099" lon="13.5310083"><ele>1153.8571428571427</ele><time>2026-04-18T06:41:45.997Z</time></trkpt><trkpt lat="42.1076739" lon="13.5309623"><ele>1156.7142857142858</ele><time>2026-04-18T06:41:51.979Z</time></trkpt><trkpt lat="42.107734" lon="13.530934"><ele>1159.5714285714284</ele><time>2026-04-18T06:41:58.979Z</time></trkpt><trkpt lat="42.1077981" lon="13.5308965"><ele>1162.4285714285713</ele><time>2026-04-18T06:42:06.973Z</time></trkpt><trkpt lat="42.1078552" lon="13.530842"><ele>1165.2857142857142</ele><time>2026-04-18T06:42:14.977Z</time></trkpt><trkpt lat="42.1079176" lon="13.5308115"><ele>1168.142857142857</ele><time>2026-04-18T06:42:21Z</time></trkpt><trkpt lat="42.1079851" lon="13.5308335"><ele>1171.0</ele><time>2026-04-18T06:42:27.979Z</time></trkpt><trkpt lat="42.10795" lon="13.5309074"><ele>1171.0</ele><time>2026-04-18T06:42:44.979Z</time></trkpt><trkpt lat="42.108001" lon="13.5309594"><ele>1171.0</ele><time>2026-04-18T06:42:53.992Z</time></trkpt><trkpt lat="42.108031" lon="13.530877"><ele>1171.0</ele><time>2026-04-18T06:43:00.978Z</time></trkpt><trkpt lat="42.108041" lon="13.5307841"><ele>1171.0</ele><time>2026-04-18T06:43:09.984Z</time></trkpt><trkpt lat="42.1080988" lon="13.5307391"><ele>1171.0</ele><time>2026-04-18T06:43:16.979Z</time></trkpt><trkpt lat="42.1081655" lon="13.5307456"><ele>1171.0</ele><time>2026-04-18T06:43:24.031Z</time></trkpt><trkpt lat="42.1082321" lon="13.5307714"><ele>1171.0</ele><time>2026-04-18T06:43:48.006Z</time></trkpt><trkpt lat="42.1082135" lon="13.5308548"><ele>1175.4285714285713</ele><time>2026-04-18T06:44:01.987Z</time></trkpt><trkpt lat="42.1082622" lon="13.5309179"><ele>1179.8571428571427</ele><time>2026-04-18T06:45:04.979Z</time></trkpt><trkpt lat="42.1083061" lon="13.5309817"><ele>1184.2857142857142</ele><time>2026-04-18T06:45:13.001Z</time></trkpt><trkpt lat="42.108365" lon="13.53102"><ele>1188.7142857142858</ele><time>2026-04-18T06:45:33.018Z</time></trkpt><trkpt lat="42.108421" lon="13.5310658"><ele>1193.1428571428573</ele><time>2026-04-18T06:45:39.979Z</time></trkpt><trkpt lat="42.108429" lon="13.5311553"><ele>1197.5714285714284</ele><time>2026-04-18T06:45:45.94Z</time></trkpt><trkpt lat="42.1083912" lon="13.5312331"><ele>1202.0</ele><time>2026-04-18T06:46:12.978Z</time></trkpt><trkpt lat="42.1084541" lon="13.531223"><ele>1205.2857142857142</ele><time>2026-04-18T06:46:24.981Z</time></trkpt><trkpt lat="42.108515" lon="13.5312605"><ele>1208.5714285714287</ele><time>2026-04-18T06:46:37.999Z</time></trkpt><trkpt lat="42.1084643" lon="13.5313322"><ele>1211.857142857143</ele><time>2026-04-18T06:46:45.981Z</time></trkpt><trkpt lat="42.1085284" lon="13.531337"><ele>1215.142857142857</ele><time>2026-04-18T06:47:00.979Z</time></trkpt><trkpt lat="42.1085958" lon="13.5313438"><ele>1218.4285714285716</ele><time>2026-04-18T06:47:07.979Z</time></trkpt><trkpt lat="42.1086614" lon="13.5313259"><ele>1221.7142857142858</ele><time>2026-04-18T06:47:18.98Z</time></trkpt><trkpt lat="42.1086967" lon="13.5314016"><ele>1225.0</ele><time>2026-04-18T06:47:28.996Z</time></trkpt><trkpt lat="42.1086689" lon="13.5314791"><ele>1225.0</ele><time>2026-04-18T06:47:39.98Z</time></trkpt><trkpt lat="42.1086168" lon="13.5315323"><ele>1225.0</ele><time>2026-04-18T06:47:46.897Z</time></trkpt><trkpt lat="42.1085752" lon="13.5316005"><ele>1225.0</ele><time>2026-04-18T06:48:30.981Z</time></trkpt><trkpt lat="42.1086248" lon="13.5316652"><ele>1225.0</ele><time>2026-04-18T06:48:49.022Z</time></trkpt><trkpt lat="42.1086852" lon="13.5316279"><ele>1225.0</ele><time>2026-04-18T06:48:55.001Z</time></trkpt><trkpt lat="42.1087455" lon="13.5315846"><ele>1225.0</ele><time>2026-04-18T06:49:01.98Z</time></trkpt><trkpt lat="42.1088096" lon="13.5315669"><ele>1225.0</ele><time>2026-04-18T06:49:10.893Z</time></trkpt><trkpt lat="42.1088354" lon="13.5316581"><ele>1225.0</ele><time>2026-04-18T06:49:17.979Z</time></trkpt><trkpt lat="42.1087863" lon="13.5317267"><ele>1225.0</ele><time>2026-04-18T06:49:27.957Z</time></trkpt><trkpt lat="42.1087463" lon="13.5318033"><ele>1225.0</ele><time>2026-04-18T06:49:36.979Z</time></trkpt><trkpt lat="42.1087796" lon="13.531879"><ele>1225.0</ele><time>2026-04-18T06:49:43.987Z</time></trkpt><trkpt lat="42.1087555" lon="13.5319636"><ele>1225.0</ele><time>2026-04-18T06:49:58.98Z</time></trkpt><trkpt lat="42.1087291" lon="13.5320511"><ele>1225.0</ele><time>2026-04-18T06:50:09.934Z</time></trkpt><trkpt lat="42.1086646" lon="13.5320605"><ele>1225.0</ele><time>2026-04-18T06:50:19.998Z</time></trkpt><trkpt lat="42.1086039" lon="13.5321036"><ele>1229.7142857142858</ele><time>2026-04-18T06:50:29.978Z</time></trkpt><trkpt lat="42.108551" lon="13.5321513"><ele>1234.4285714285716</ele><time>2026-04-18T06:51:22.978Z</time></trkpt><trkpt lat="42.1084937" lon="13.5321951"><ele>1239.142857142857</ele><time>2026-04-18T06:51:31.98Z</time></trkpt><trkpt lat="42.1084381" lon="13.532246"><ele>1243.857142857143</ele><time>2026-04-18T06:51:38.979Z</time></trkpt><trkpt lat="42.1084055" lon="13.5323201"><ele>1248.5714285714287</ele><time>2026-04-18T06:51:49.978Z</time></trkpt><trkpt lat="42.1083649" lon="13.5323888"><ele>1253.2857142857142</ele><time>2026-04-18T06:51:58.98Z</time></trkpt><trkpt lat="42.1083361" lon="13.5324656"><ele>1258.0</ele><time>2026-04-18T06:52:08.979Z</time></trkpt><trkpt lat="42.1083301" lon="13.5325515"><ele>1258.0</ele><time>2026-04-18T06:52:18.953Z</time></trkpt><trkpt lat="42.1082854" lon="13.5326124"><ele>1258.0</ele><time>2026-04-18T06:52:25.98Z</time></trkpt><trkpt lat="42.1082422" lon="13.5326789"><ele>1258.0</ele><time>2026-04-18T06:52:36.999Z</time></trkpt><trkpt lat="42.1081919" lon="13.5327316"><ele>1258.0</ele><time>2026-04-18T06:53:36.978Z</time></trkpt><trkpt lat="42.1081362" lon="13.532779"><ele>1258.0</ele><time>2026-04-18T06:53:46.98Z</time></trkpt><trkpt lat="42.1080942" lon="13.5328538"><ele>1258.0</ele><time>2026-04-18T06:53:59.992Z</time></trkpt><trkpt lat="42.1080288" lon="13.5328869"><ele>1258.0</ele><time>2026-04-18T06:54:09.982Z</time></trkpt><trkpt lat="42.1080729" lon="13.5329491"><ele>1259.142857142857</ele><time>2026-04-18T06:54:25.978Z</time></trkpt><trkpt lat="42.1080567" lon="13.533038"><ele>1260.2857142857144</ele><time>2026-04-18T06:54:59.912Z</time></trkpt><trkpt lat="42.1081026" lon="13.5331015"><ele>1261.4285714285716</ele><time>2026-04-18T06:55:17.938Z</time></trkpt><trkpt lat="42.108166" lon="13.5331198"><ele>1262.5714285714284</ele><time>2026-04-18T06:55:24.995Z</time></trkpt><trkpt lat="42.1082342" lon="13.5331391"><ele>1263.7142857142858</ele><time>2026-04-18T06:55:33.979Z</time></trkpt><trkpt lat="42.1082971" lon="13.5331648"><ele>1264.857142857143</ele><time>2026-04-18T06:55:41.958Z</time></trkpt><trkpt lat="42.1083609" lon="13.5331726"><ele>1266.0</ele><time>2026-04-18T06:55:54.977Z</time></trkpt><trkpt lat="42.1084269" lon="13.533201"><ele>1269.4285714285713</ele><time>2026-04-18T06:56:02.976Z</time></trkpt><trkpt lat="42.1084348" lon="13.5332972"><ele>1272.857142857143</ele><time>2026-04-18T06:56:11.978Z</time></trkpt><trkpt lat="42.1084083" lon="13.5333743"><ele>1276.2857142857142</ele><time>2026-04-18T06:56:18.897Z</time></trkpt><trkpt lat="42.1083406" lon="13.5334002"><ele>1279.7142857142858</ele><time>2026-04-18T06:56:25.979Z</time></trkpt><trkpt lat="42.1082931" lon="13.533457"><ele>1283.142857142857</ele><time>2026-04-18T06:56:36.014Z</time></trkpt><trkpt lat="42.1082844" lon="13.5335447"><ele>1286.5714285714287</ele><time>2026-04-18T06:56:43.98Z</time></trkpt><trkpt lat="42.1083474" lon="13.5335749"><ele>1290.0</ele><time>2026-04-18T06:56:48.989Z</time></trkpt><trkpt lat="42.1084123" lon="13.5335809"><ele>1290.0</ele><time>2026-04-18T06:56:54.977Z</time></trkpt><trkpt lat="42.1084832" lon="13.533599"><ele>1290.0</ele><time>2026-04-18T06:57:03.98Z</time></trkpt><trkpt lat="42.108547" lon="13.5336064"><ele>1290.0</ele><time>2026-04-18T06:57:08.952Z</time></trkpt><trkpt lat="42.1086165" lon="13.5336091"><ele>1290.0</ele><time>2026-04-18T06:57:14.977Z</time></trkpt><trkpt lat="42.1086817" lon="13.5336222"><ele>1290.0</ele><time>2026-04-18T06:57:26.981Z</time></trkpt><trkpt lat="42.1087452" lon="13.5336494"><ele>1290.0</ele><time>2026-04-18T06:57:32.979Z</time></trkpt><trkpt lat="42.1087998" lon="13.5336974"><ele>1290.0</ele><time>2026-04-18T06:57:39.99Z</time></trkpt><trkpt lat="42.1088579" lon="13.5337387"><ele>1290.0</ele><time>2026-04-18T06:57:53.98Z</time></trkpt><trkpt lat="42.1089174" lon="13.5337091"><ele>1290.0</ele><time>2026-04-18T06:58:06.996Z</time></trkpt><trkpt lat="42.1088772" lon="13.5337845"><ele>1290.0</ele><time>2026-04-18T06:58:19.978Z</time></trkpt><trkpt lat="42.108829" lon="13.5338452"><ele>1290.0</ele><time>2026-04-18T06:58:27.98Z</time></trkpt><trkpt lat="42.1087976" lon="13.5339217"><ele>1290.0</ele><time>2026-04-18T06:58:36.021Z</time></trkpt><trkpt lat="42.1088583" lon="13.5339531"><ele>1290.0</ele><time>2026-04-18T06:58:44.874Z</time></trkpt><trkpt lat="42.1089111" lon="13.5339037"><ele>1290.0</ele><time>2026-04-18T06:58:47.992Z</time></trkpt><trkpt lat="42.1089851" lon="13.5338724"><ele>1293.5714285714287</ele><time>2026-04-18T07:00:41.978Z</time></trkpt><trkpt lat="42.1090407" lon="13.5339149"><ele>1297.142857142857</ele><time>2026-04-18T07:00:48.002Z</time></trkpt><trkpt lat="42.1089923" lon="13.5339804"><ele>1300.7142857142858</ele><time>2026-04-18T07:00:54.98Z</time></trkpt><trkpt lat="42.1089436" lon="13.5340415"><ele>1304.2857142857142</ele><time>2026-04-18T07:01:01.985Z</time></trkpt><trkpt lat="42.1089149" lon="13.5341198"><ele>1307.857142857143</ele><time>2026-04-18T07:01:11.979Z</time></trkpt><trkpt lat="42.1089182" lon="13.5342091"><ele>1311.4285714285713</ele><time>2026-04-18T07:01:26.938Z</time></trkpt><trkpt lat="42.1088783" lon="13.5342855"><ele>1315.0</ele><time>2026-04-18T07:01:36.993Z</time></trkpt><trkpt lat="42.1088168" lon="13.5343349"><ele>1315.0</ele><time>2026-04-18T07:01:48.918Z</time></trkpt><trkpt lat="42.1087598" lon="13.5342972"><ele>1315.0</ele><time>2026-04-18T07:02:02.98Z</time></trkpt><trkpt lat="42.1087041" lon="13.5343442"><ele>1315.0</ele><time>2026-04-18T07:02:15.98Z</time></trkpt><trkpt lat="42.1086939" lon="13.5344338"><ele>1315.0</ele><time>2026-04-18T07:02:23.979Z</time></trkpt><trkpt lat="42.1086345" lon="13.5344787"><ele>1315.0</ele><time>2026-04-18T07:02:33.896Z</time></trkpt><trkpt lat="42.1085927" lon="13.5345503"><ele>1315.0</ele><time>2026-04-18T07:02:41.914Z</time></trkpt><trkpt lat="42.1085739" lon="13.534634"><ele>1315.0</ele><time>2026-04-18T07:02:48.982Z</time></trkpt><trkpt lat="42.1085245" lon="13.5346997"><ele>1318.5714285714284</ele><time>2026-04-18T07:02:57.902Z</time></trkpt><trkpt lat="42.1084702" lon="13.5347436"><ele>1322.142857142857</ele><time>2026-04-18T07:03:09.979Z</time></trkpt><trkpt lat="42.1084363" lon="13.534819"><ele>1325.7142857142858</ele><time>2026-04-18T07:03:18.999Z</time></trkpt><trkpt lat="42.1084616" lon="13.5349071"><ele>1329.2857142857142</ele><time>2026-04-18T07:03:32.982Z</time></trkpt><trkpt lat="42.1084772" lon="13.5349917"><ele>1332.857142857143</ele><time>2026-04-18T07:03:54.979Z</time></trkpt><trkpt lat="42.1084467" lon="13.535067"><ele>1336.4285714285713</ele><time>2026-04-18T07:04:04.938Z</time></trkpt><trkpt lat="42.1083938" lon="13.5351335"><ele>1340.0</ele><time>2026-04-18T07:04:12.98Z</time></trkpt><trkpt lat="42.1083482" lon="13.5352072"><ele>1339.9999999999998</ele><time>2026-04-18T07:04:19.98Z</time></trkpt><trkpt lat="42.1083446" lon="13.5352931"><ele>1340.0</ele><time>2026-04-18T07:04:25.932Z</time></trkpt><trkpt lat="42.1083112" lon="13.5353758"><ele>1340.0</ele><time>2026-04-18T07:04:34.978Z</time></trkpt><trkpt lat="42.1082934" lon="13.5354656"><ele>1340.0</ele><time>2026-04-18T07:04:48.962Z</time></trkpt><trkpt lat="42.1083005" lon="13.5355542"><ele>1340.0</ele><time>2026-04-18T07:06:46.981Z</time></trkpt><trkpt lat="42.1082877" lon="13.5356456"><ele>1339.9999999999998</ele><time>2026-04-18T07:06:51.983Z</time></trkpt><trkpt lat="42.1082905" lon="13.5357339"><ele>1340.0</ele><time>2026-04-18T07:06:57.014Z</time></trkpt><trkpt lat="42.1082808" lon="13.5358267"><ele>1340.4285714285713</ele><time>2026-04-18T07:07:04.979Z</time></trkpt><trkpt lat="42.1082254" lon="13.5358932"><ele>1340.857142857143</ele><time>2026-04-18T07:07:10.997Z</time></trkpt><trkpt lat="42.1082073" lon="13.5359748"><ele>1341.2857142857142</ele><time>2026-04-18T07:07:15.98Z</time></trkpt><trkpt lat="42.1082041" lon="13.5360691"><ele>1341.7142857142858</ele><time>2026-04-18T07:07:21.981Z</time></trkpt><trkpt lat="42.1082009" lon="13.5361604"><ele>1342.142857142857</ele><time>2026-04-18T07:07:27.999Z</time></trkpt><trkpt lat="42.1082044" lon="13.5362452"><ele>1342.5714285714284</ele><time>2026-04-18T07:07:33.981Z</time></trkpt><trkpt lat="42.1081786" lon="13.5363323"><ele>1343.0</ele><time>2026-04-18T07:07:39.756Z</time></trkpt><trkpt lat="42.1081805" lon="13.5364268"><ele>1343.0</ele><time>2026-04-18T07:07:47.014Z</time></trkpt><trkpt lat="42.1081565" lon="13.5365225"><ele>1343.0</ele><time>2026-04-18T07:07:54.02Z</time></trkpt><trkpt lat="42.108139" lon="13.536612"><ele>1343.0</ele><time>2026-04-18T07:07:59.956Z</time></trkpt><trkpt lat="42.1081688" lon="13.5367018"><ele>1343.0</ele><time>2026-04-18T07:08:05.98Z</time></trkpt><trkpt lat="42.1082075" lon="13.5367701"><ele>1343.0</ele><time>2026-04-18T07:08:11.055Z</time></trkpt><trkpt lat="42.1081989" lon="13.5368692"><ele>1343.0</ele><time>2026-04-18T07:08:17.998Z</time></trkpt><trkpt lat="42.1081789" lon="13.536952"><ele>1343.0</ele><time>2026-04-18T07:08:23.879Z</time></trkpt><trkpt lat="42.1081771" lon="13.537044"><ele>1345.0</ele><time>2026-04-18T07:08:29.978Z</time></trkpt><trkpt lat="42.108184" lon="13.5371422"><ele>1347.0</ele><time>2026-04-18T07:08:41.981Z</time></trkpt><trkpt lat="42.1081665" lon="13.5372269"><ele>1349.0</ele><time>2026-04-18T07:08:47.981Z</time></trkpt><trkpt lat="42.1081668" lon="13.5373218"><ele>1351.0</ele><time>2026-04-18T07:09:19.88Z</time></trkpt><trkpt lat="42.1081585" lon="13.5374123"><ele>1353.0</ele><time>2026-04-18T07:09:26.017Z</time></trkpt><trkpt lat="42.1081493" lon="13.5374983"><ele>1355.0</ele><time>2026-04-18T07:09:35.981Z</time></trkpt><trkpt lat="42.1081616" lon="13.5375911"><ele>1357.0</ele><time>2026-04-18T07:09:43.002Z</time></trkpt><trkpt lat="42.1081223" lon="13.5376646"><ele>1357.0</ele><time>2026-04-18T07:09:48.892Z</time></trkpt><trkpt lat="42.1080858" lon="13.537741"><ele>1357.0</ele><time>2026-04-18T07:09:55.954Z</time></trkpt><trkpt lat="42.1080412" lon="13.5378115"><ele>1357.0</ele><time>2026-04-18T07:10:04.981Z</time></trkpt><trkpt lat="42.1080035" lon="13.537888"><ele>1357.0</ele><time>2026-04-18T07:10:12.023Z</time></trkpt><trkpt lat="42.1079746" lon="13.5378123"><ele>1357.0</ele><time>2026-04-18T07:10:29.98Z</time></trkpt><trkpt lat="42.1079106" lon="13.5378189"><ele>1357.0</ele><time>2026-04-18T07:10:43.98Z</time></trkpt><trkpt lat="42.1079738" lon="13.5377805"><ele>1357.0</ele><time>2026-04-18T07:11:33.982Z</time></trkpt><trkpt lat="42.1080035" lon="13.5378669"><ele>1357.0</ele><time>2026-04-18T07:11:42.973Z</time></trkpt><trkpt lat="42.1079478" lon="13.5379301"><ele>1357.0</ele><time>2026-04-18T07:11:50.959Z</time></trkpt><trkpt lat="42.107892" lon="13.5379706"><ele>1357.0</ele><time>2026-04-18T07:11:57.982Z</time></trkpt><trkpt lat="42.1078249" lon="13.537963"><ele>1357.0</ele><time>2026-04-18T07:12:36.98Z</time></trkpt><trkpt lat="42.10776" lon="13.5379347"><ele>1357.0</ele><time>2026-04-18T07:12:47.016Z</time></trkpt><trkpt lat="42.1077007" lon="13.5378892"><ele>1357.0</ele><time>2026-04-18T07:12:56.978Z</time></trkpt><trkpt lat="42.1076372" lon="13.5378595"><ele>1357.0</ele><time>2026-04-18T07:13:04.017Z</time></trkpt><trkpt lat="42.10757" lon="13.5378271"><ele>1359.2857142857142</ele><time>2026-04-18T07:13:39.984Z</time></trkpt><trkpt lat="42.107533" lon="13.5379024"><ele>1361.5714285714287</ele><time>2026-04-18T07:13:49.98Z</time></trkpt><trkpt lat="42.1075333" lon="13.5379977"><ele>1363.857142857143</ele><time>2026-04-18T07:13:57.984Z</time></trkpt><trkpt lat="42.1075255" lon="13.538087"><ele>1366.142857142857</ele><time>2026-04-18T07:14:05.981Z</time></trkpt><trkpt lat="42.1075433" lon="13.5381689"><ele>1368.4285714285713</ele><time>2026-04-18T07:14:16.983Z</time></trkpt><trkpt lat="42.1075638" lon="13.5382557"><ele>1370.7142857142858</ele><time>2026-04-18T07:14:27.916Z</time></trkpt><trkpt lat="42.1075654" lon="13.5383504"><ele>1373.0</ele><time>2026-04-18T07:14:36.9Z</time></trkpt><trkpt lat="42.1076205" lon="13.5383922"><ele>1373.0</ele><time>2026-04-18T07:14:46.018Z</time></trkpt><trkpt lat="42.1076838" lon="13.5384236"><ele>1373.0</ele><time>2026-04-18T07:14:54.978Z</time></trkpt><trkpt lat="42.1076839" lon="13.5385099"><ele>1373.0</ele><time>2026-04-18T07:15:02.011Z</time></trkpt><trkpt lat="42.1077215" lon="13.5385869"><ele>1373.0</ele><time>2026-04-18T07:15:10.98Z</time></trkpt><trkpt lat="42.1077244" lon="13.5386743"><ele>1373.0</ele><time>2026-04-18T07:15:20.034Z</time></trkpt><trkpt lat="42.1077659" lon="13.5387545"><ele>1373.0</ele><time>2026-04-18T07:15:38.98Z</time></trkpt><trkpt lat="42.1078183" lon="13.5388017"><ele>1373.0</ele><time>2026-04-18T07:15:45.978Z</time></trkpt><trkpt lat="42.1078462" lon="13.5388874"><ele>1375.5714285714287</ele><time>2026-04-18T07:15:54.017Z</time></trkpt><trkpt lat="42.1078945" lon="13.538943"><ele>1378.142857142857</ele><time>2026-04-18T07:15:59.978Z</time></trkpt><trkpt lat="42.1079614" lon="13.5389773"><ele>1380.7142857142858</ele><time>2026-04-18T07:16:06.993Z</time></trkpt><trkpt lat="42.1080227" lon="13.5390302"><ele>1383.2857142857142</ele><time>2026-04-18T07:16:14.981Z</time></trkpt><trkpt lat="42.1080867" lon="13.5390719"><ele>1385.857142857143</ele><time>2026-04-18T07:16:22.915Z</time></trkpt><trkpt lat="42.1081428" lon="13.5391153"><ele>1388.4285714285713</ele><time>2026-04-18T07:16:29.979Z</time></trkpt><trkpt lat="42.1081998" lon="13.5391654"><ele>1391.0</ele><time>2026-04-18T07:16:36.979Z</time></trkpt><trkpt lat="42.1082657" lon="13.5391848"><ele>1391.0</ele><time>2026-04-18T07:16:43.005Z</time></trkpt><trkpt lat="42.1083378" lon="13.5392035"><ele>1391.0</ele><time>2026-04-18T07:16:50.982Z</time></trkpt><trkpt lat="42.1084075" lon="13.5392484"><ele>1391.0</ele><time>2026-04-18T07:16:56.971Z</time></trkpt><trkpt lat="42.1084676" lon="13.5393004"><ele>1391.0</ele><time>2026-04-18T07:17:17.004Z</time></trkpt><trkpt lat="42.108524" lon="13.5393582"><ele>1391.0</ele><time>2026-04-18T07:17:23.015Z</time></trkpt><trkpt lat="42.10858" lon="13.5394198"><ele>1391.0</ele><time>2026-04-18T07:17:29.98Z</time></trkpt><trkpt lat="42.1086445" lon="13.5394452"><ele>1391.0</ele><time>2026-04-18T07:17:36.979Z</time></trkpt><trkpt lat="42.1087119" lon="13.5394831"><ele>1391.0</ele><time>2026-04-18T07:17:43.978Z</time></trkpt><trkpt lat="42.1087778" lon="13.539506"><ele>1391.0</ele><time>2026-04-18T07:17:51.004Z</time></trkpt><trkpt lat="42.1088335" lon="13.5395629"><ele>1391.0</ele><time>2026-04-18T07:17:58.896Z</time></trkpt><trkpt lat="42.1088681" lon="13.5396513"><ele>1391.0</ele><time>2026-04-18T07:18:07.033Z</time></trkpt><trkpt lat="42.1088867" lon="13.5397453"><ele>1391.0</ele><time>2026-04-18T07:18:15.982Z</time></trkpt><trkpt lat="42.1089052" lon="13.5398331"><ele>1391.0</ele><time>2026-04-18T07:18:23.997Z</time></trkpt><trkpt lat="42.1089434" lon="13.5399035"><ele>1391.0</ele><time>2026-04-18T07:18:32.98Z</time></trkpt><trkpt lat="42.1089654" lon="13.5399831"><ele>1393.5714285714284</ele><time>2026-04-18T07:18:39.991Z</time></trkpt><trkpt lat="42.1089815" lon="13.5400761"><ele>1396.1428571428573</ele><time>2026-04-18T07:18:46.978Z</time></trkpt><trkpt lat="42.1090152" lon="13.5401579"><ele>1398.7142857142858</ele><time>2026-04-18T07:18:53.979Z</time></trkpt><trkpt lat="42.109025" lon="13.540251"><ele>1401.2857142857142</ele><time>2026-04-18T07:19:00.978Z</time></trkpt><trkpt lat="42.1090412" lon="13.5403373"><ele>1403.8571428571427</ele><time>2026-04-18T07:19:08.978Z</time></trkpt><trkpt lat="42.1090707" lon="13.540421"><ele>1406.4285714285716</ele><time>2026-04-18T07:19:17.008Z</time></trkpt><trkpt lat="42.1090744" lon="13.5405114"><ele>1409.0</ele><time>2026-04-18T07:19:25.981Z</time></trkpt><trkpt lat="42.1090725" lon="13.5406017"><ele>1410.7142857142858</ele><time>2026-04-18T07:19:35.025Z</time></trkpt><trkpt lat="42.109082" lon="13.5406857"><ele>1412.4285714285713</ele><time>2026-04-18T07:19:44.871Z</time></trkpt><trkpt lat="42.1090666" lon="13.5407691"><ele>1414.142857142857</ele><time>2026-04-18T07:19:53.98Z</time></trkpt><trkpt lat="42.1090507" lon="13.5408537"><ele>1415.857142857143</ele><time>2026-04-18T07:20:03.983Z</time></trkpt><trkpt lat="42.1090466" lon="13.5409407"><ele>1417.5714285714284</ele><time>2026-04-18T07:20:14.978Z</time></trkpt><trkpt lat="42.1090291" lon="13.5410239"><ele>1419.2857142857142</ele><time>2026-04-18T07:20:23.981Z</time></trkpt><trkpt lat="42.1090165" lon="13.5411084"><ele>1421.0</ele><time>2026-04-18T07:20:33.978Z</time></trkpt><trkpt lat="42.1089918" lon="13.5411919"><ele>1423.7142857142858</ele><time>2026-04-18T07:20:43.013Z</time></trkpt><trkpt lat="42.1089655" lon="13.541271"><ele>1426.4285714285716</ele><time>2026-04-18T07:20:51.98Z</time></trkpt><trkpt lat="42.1089767" lon="13.5413588"><ele>1429.142857142857</ele><time>2026-04-18T07:21:00.979Z</time></trkpt><trkpt lat="42.1089769" lon="13.5414459"><ele>1431.857142857143</ele><time>2026-04-18T07:21:09.98Z</time></trkpt><trkpt lat="42.1089665" lon="13.5415373"><ele>1434.5714285714287</ele><time>2026-04-18T07:21:18.979Z</time></trkpt><trkpt lat="42.1089346" lon="13.5416162"><ele>1437.2857142857142</ele><time>2026-04-18T07:21:27.979Z</time></trkpt><trkpt lat="42.1089124" lon="13.5416985"><ele>1440.0</ele><time>2026-04-18T07:21:34.979Z</time></trkpt><trkpt lat="42.1088863" lon="13.5417892"><ele>1440.0</ele><time>2026-04-18T07:22:35.981Z</time></trkpt><trkpt lat="42.108851" lon="13.5418609"><ele>1440.0</ele><time>2026-04-18T07:22:41.981Z</time></trkpt><trkpt lat="42.1088317" lon="13.5419556"><ele>1440.0</ele><time>2026-04-18T07:22:48.981Z</time></trkpt><trkpt lat="42.1088187" lon="13.5420448"><ele>1440.0</ele><time>2026-04-18T07:22:56.02Z</time></trkpt><trkpt lat="42.1088229" lon="13.54214"><ele>1440.0</ele><time>2026-04-18T07:23:02.979Z</time></trkpt><trkpt lat="42.1088042" lon="13.5422217"><ele>1440.0</ele><time>2026-04-18T07:23:08.972Z</time></trkpt><trkpt lat="42.1087576" lon="13.5422866"><ele>1440.0</ele><time>2026-04-18T07:23:50.981Z</time></trkpt><trkpt lat="42.1087915" lon="13.5423802"><ele>1441.857142857143</ele><time>2026-04-18T07:23:58.933Z</time></trkpt><trkpt lat="42.1087735" lon="13.5424645"><ele>1443.7142857142858</ele><time>2026-04-18T07:24:08.011Z</time></trkpt><trkpt lat="42.1087683" lon="13.5425533"><ele>1445.5714285714287</ele><time>2026-04-18T07:24:17.019Z</time></trkpt><trkpt lat="42.1087461" lon="13.5426401"><ele>1447.4285714285716</ele><time>2026-04-18T07:24:27.98Z</time></trkpt><trkpt lat="42.1087173" lon="13.5427222"><ele>1449.2857142857142</ele><time>2026-04-18T07:24:36.981Z</time></trkpt><trkpt lat="42.1087012" lon="13.5428062"><ele>1451.1428571428573</ele><time>2026-04-18T07:24:45.979Z</time></trkpt><trkpt lat="42.1086615" lon="13.542873"><ele>1453.0</ele><time>2026-04-18T07:24:53.984Z</time></trkpt><trkpt lat="42.1086696" lon="13.5429637"><ele>1455.0000000000002</ele><time>2026-04-18T07:25:03.98Z</time></trkpt><trkpt lat="42.1086903" lon="13.5430517"><ele>1457.0</ele><time>2026-04-18T07:25:16.007Z</time></trkpt><trkpt lat="42.1087067" lon="13.5431367"><ele>1459.0</ele><time>2026-04-18T07:25:31.916Z</time></trkpt><trkpt lat="42.1086965" lon="13.5432259"><ele>1461.0</ele><time>2026-04-18T07:25:41.04Z</time></trkpt><trkpt lat="42.1087023" lon="13.543311"><ele>1463.0</ele><time>2026-04-18T07:25:50.978Z</time></trkpt><trkpt lat="42.1086549" lon="13.5433681"><ele>1465.0000000000002</ele><time>2026-04-18T07:25:59.978Z</time></trkpt><trkpt lat="42.1086277" lon="13.5434534"><ele>1467.0</ele><time>2026-04-18T07:27:01.981Z</time></trkpt><trkpt lat="42.1086155" lon="13.5435483"><ele>1467.0000000000002</ele><time>2026-04-18T07:27:10Z</time></trkpt><trkpt lat="42.1086482" lon="13.5436325"><ele>1467.0</ele><time>2026-04-18T07:27:29.988Z</time></trkpt><trkpt lat="42.1086832" lon="13.5437046"><ele>1467.0</ele><time>2026-04-18T07:27:39.978Z</time></trkpt><trkpt lat="42.1086589" lon="13.5437838"><ele>1467.0</ele><time>2026-04-18T07:27:46.987Z</time></trkpt><trkpt lat="42.1086011" lon="13.5438229"><ele>1467.0</ele><time>2026-04-18T07:27:54.899Z</time></trkpt><trkpt lat="42.1085487" lon="13.5438777"><ele>1467.0000000000002</ele><time>2026-04-18T07:28:07.004Z</time></trkpt><trkpt lat="42.1085262" lon="13.5439638"><ele>1467.0</ele><time>2026-04-18T07:28:16.981Z</time></trkpt><trkpt lat="42.1084633" lon="13.5439927"><ele>1469.4285714285716</ele><time>2026-04-18T07:28:26.002Z</time></trkpt><trkpt lat="42.1084516" lon="13.5440768"><ele>1471.857142857143</ele><time>2026-04-18T07:28:33.981Z</time></trkpt><trkpt lat="42.1084464" lon="13.5441655"><ele>1474.2857142857142</ele><time>2026-04-18T07:28:42.977Z</time></trkpt><trkpt lat="42.1083928" lon="13.5442222"><ele>1476.7142857142858</ele><time>2026-04-18T07:28:52.92Z</time></trkpt><trkpt lat="42.1084262" lon="13.5442992"><ele>1479.142857142857</ele><time>2026-04-18T07:29:03.038Z</time></trkpt><trkpt lat="42.1084568" lon="13.5443758"><ele>1481.5714285714287</ele><time>2026-04-18T07:29:15Z</time></trkpt><trkpt lat="42.1084076" lon="13.5444321"><ele>1484.0</ele><time>2026-04-18T07:29:24.979Z</time></trkpt><trkpt lat="42.1084044" lon="13.5445204"><ele>1486.142857142857</ele><time>2026-04-18T07:29:36.98Z</time></trkpt><trkpt lat="42.108378" lon="13.5446027"><ele>1488.2857142857142</ele><time>2026-04-18T07:29:46.987Z</time></trkpt><trkpt lat="42.1083499" lon="13.5446875"><ele>1490.4285714285716</ele><time>2026-04-18T07:30:32.98Z</time></trkpt><trkpt lat="42.1083364" lon="13.5447766"><ele>1492.5714285714284</ele><time>2026-04-18T07:30:42.977Z</time></trkpt><trkpt lat="42.108317" lon="13.5448615"><ele>1494.7142857142858</ele><time>2026-04-18T07:30:52.981Z</time></trkpt><trkpt lat="42.1083141" lon="13.5449524"><ele>1496.857142857143</ele><time>2026-04-18T07:31:02.98Z</time></trkpt><trkpt lat="42.1083347" lon="13.5450373"><ele>1499.0</ele><time>2026-04-18T07:31:12.988Z</time></trkpt><trkpt lat="42.1082928" lon="13.5451063"><ele>1499.0</ele><time>2026-04-18T07:31:23.917Z</time></trkpt><trkpt lat="42.1082645" lon="13.545188"><ele>1499.0</ele><time>2026-04-18T07:31:33.005Z</time></trkpt><trkpt lat="42.1082216" lon="13.5452663"><ele>1499.0</ele><time>2026-04-18T07:31:42.982Z</time></trkpt><trkpt lat="42.1082368" lon="13.5453622"><ele>1499.0</ele><time>2026-04-18T07:32:34.978Z</time></trkpt><trkpt lat="42.1082005" lon="13.5454358"><ele>1499.0</ele><time>2026-04-18T07:32:42.982Z</time></trkpt><trkpt lat="42.1081994" lon="13.545526"><ele>1499.0</ele><time>2026-04-18T07:32:52.976Z</time></trkpt><trkpt lat="42.1082223" lon="13.5456073"><ele>1499.0</ele><time>2026-04-18T07:33:15.979Z</time></trkpt><trkpt lat="42.108251" lon="13.5456848"><ele>1501.0</ele><time>2026-04-18T07:33:22.978Z</time></trkpt><trkpt lat="42.10828" lon="13.5457632"><ele>1503.0</ele><time>2026-04-18T07:33:34.01Z</time></trkpt><trkpt lat="42.1083038" lon="13.5458521"><ele>1505.0</ele><time>2026-04-18T07:33:44.036Z</time></trkpt><trkpt lat="42.1082876" lon="13.5459422"><ele>1507.0</ele><time>2026-04-18T07:33:54.981Z</time></trkpt><trkpt lat="42.1082175" lon="13.5459435"><ele>1509.0</ele><time>2026-04-18T07:34:03.985Z</time></trkpt><trkpt lat="42.1081568" lon="13.5459829"><ele>1511.0</ele><time>2026-04-18T07:34:14.979Z</time></trkpt><trkpt lat="42.1080966" lon="13.5460125"><ele>1513.0</ele><time>2026-04-18T07:35:50.977Z</time></trkpt><trkpt lat="42.1080751" lon="13.5461063"><ele>1515.857142857143</ele><time>2026-04-18T07:35:59.987Z</time></trkpt><trkpt lat="42.1080742" lon="13.5462029"><ele>1518.7142857142858</ele><time>2026-04-18T07:36:12.981Z</time></trkpt><trkpt lat="42.10809" lon="13.5462895"><ele>1521.5714285714284</ele><time>2026-04-18T07:36:24.937Z</time></trkpt><trkpt lat="42.108063" lon="13.5463724"><ele>1524.4285714285716</ele><time>2026-04-18T07:36:33.985Z</time></trkpt><trkpt lat="42.1080319" lon="13.5464522"><ele>1527.2857142857142</ele><time>2026-04-18T07:36:43.98Z</time></trkpt><trkpt lat="42.1079866" lon="13.5465193"><ele>1530.142857142857</ele><time>2026-04-18T07:36:54.002Z</time></trkpt><trkpt lat="42.1079502" lon="13.5465927"><ele>1533.0</ele><time>2026-04-18T07:37:03.98Z</time></trkpt><trkpt lat="42.1078936" lon="13.5466347"><ele>1535.0</ele><time>2026-04-18T07:37:13.012Z</time></trkpt><trkpt lat="42.1079187" lon="13.5467189"><ele>1537.0</ele><time>2026-04-18T07:37:38.981Z</time></trkpt><trkpt lat="42.107954" lon="13.5467895"><ele>1539.0</ele><time>2026-04-18T07:37:48.978Z</time></trkpt><trkpt lat="42.1079626" lon="13.5468765"><ele>1541.0</ele><time>2026-04-18T07:37:57.982Z</time></trkpt><trkpt lat="42.107947" lon="13.546963"><ele>1543.0</ele><time>2026-04-18T07:38:05.982Z</time></trkpt><trkpt lat="42.1079146" lon="13.5470409"><ele>1545.0</ele><time>2026-04-18T07:38:13.982Z</time></trkpt><trkpt lat="42.1078966" lon="13.5471251"><ele>1547.0</ele><time>2026-04-18T07:38:22.013Z</time></trkpt><trkpt lat="42.1078575" lon="13.5472008"><ele>1549.2857142857142</ele><time>2026-04-18T07:38:32.98Z</time></trkpt><trkpt lat="42.1078507" lon="13.5472927"><ele>1551.5714285714284</ele><time>2026-04-18T07:38:41.025Z</time></trkpt><trkpt lat="42.1078336" lon="13.5473791"><ele>1553.857142857143</ele><time>2026-04-18T07:39:26.978Z</time></trkpt><trkpt lat="42.1078114" lon="13.5474628"><ele>1556.142857142857</ele><time>2026-04-18T07:39:35.982Z</time></trkpt><trkpt lat="42.1077688" lon="13.5475299"><ele>1558.4285714285713</ele><time>2026-04-18T07:39:43.989Z</time></trkpt><trkpt lat="42.1077295" lon="13.5476004"><ele>1560.7142857142858</ele><time>2026-04-18T07:39:53.02Z</time></trkpt><trkpt lat="42.1076947" lon="13.5476789"><ele>1563.0</ele><time>2026-04-18T07:40:02.999Z</time></trkpt><trkpt lat="42.1076518" lon="13.5477451"><ele>1563.0</ele><time>2026-04-18T07:40:13.981Z</time></trkpt><trkpt lat="42.1075924" lon="13.547798"><ele>1563.0</ele><time>2026-04-18T07:40:43.98Z</time></trkpt><trkpt lat="42.1075263" lon="13.5478426"><ele>1563.0</ele><time>2026-04-18T07:41:43.979Z</time></trkpt><trkpt lat="42.1074867" lon="13.547915"><ele>1563.0</ele><time>2026-04-18T07:41:48.958Z</time></trkpt><trkpt lat="42.1074268" lon="13.5479544"><ele>1563.0</ele><time>2026-04-18T07:41:57.011Z</time></trkpt><trkpt lat="42.1073752" lon="13.5480143"><ele>1563.0</ele><time>2026-04-18T07:42:05.976Z</time></trkpt><trkpt lat="42.1073103" lon="13.5480388"><ele>1563.0</ele><time>2026-04-18T07:42:17.979Z</time></trkpt><trkpt lat="42.1072625" lon="13.548097"><ele>1568.4285714285716</ele><time>2026-04-18T07:42:30.005Z</time></trkpt><trkpt lat="42.1071956" lon="13.5481008"><ele>1573.8571428571427</ele><time>2026-04-18T07:42:42.981Z</time></trkpt><trkpt lat="42.1071302" lon="13.5480956"><ele>1579.2857142857142</ele><time>2026-04-18T07:42:50.981Z</time></trkpt><trkpt lat="42.1070886" lon="13.5480207"><ele>1584.7142857142858</ele><time>2026-04-18T07:43:01.991Z</time></trkpt><trkpt lat="42.1070468" lon="13.5479538"><ele>1590.1428571428573</ele><time>2026-04-18T07:43:11.981Z</time></trkpt><trkpt lat="42.1069838" lon="13.5479247"><ele>1595.5714285714284</ele><time>2026-04-18T07:43:17.953Z</time></trkpt><trkpt lat="42.1069341" lon="13.5479858"><ele>1601.0</ele><time>2026-04-18T07:43:24.981Z</time></trkpt><trkpt lat="42.1069185" lon="13.5480685"><ele>1601.0</ele><time>2026-04-18T07:43:31.978Z</time></trkpt><trkpt lat="42.1068848" lon="13.5481428"><ele>1601.0</ele><time>2026-04-18T07:43:39.007Z</time></trkpt><trkpt lat="42.1068297" lon="13.5481888"><ele>1601.0</ele><time>2026-04-18T07:43:44.98Z</time></trkpt><trkpt lat="42.1067816" lon="13.5481339"><ele>1601.0</ele><time>2026-04-18T07:46:24.981Z</time></trkpt><trkpt lat="42.1067311" lon="13.5481874"><ele>1601.0</ele><time>2026-04-18T07:46:34.979Z</time></trkpt><trkpt lat="42.1067025" lon="13.5481117"><ele>1601.0</ele><time>2026-04-18T07:46:42.981Z</time></trkpt><trkpt lat="42.1066722" lon="13.548198"><ele>1601.0</ele><time>2026-04-18T07:46:58.981Z</time></trkpt><trkpt lat="42.1066447" lon="13.5482818"><ele>1601.0</ele><time>2026-04-18T07:47:09.978Z</time></trkpt><trkpt lat="42.1066322" lon="13.5483729"><ele>1601.0</ele><time>2026-04-18T07:47:19.992Z</time></trkpt><trkpt lat="42.1066252" lon="13.5484609"><ele>1601.0</ele><time>2026-04-18T07:47:31.038Z</time></trkpt><trkpt lat="42.1066388" lon="13.5485448"><ele>1601.0</ele><time>2026-04-18T07:47:37.997Z</time></trkpt><trkpt lat="42.1066624" lon="13.5486381"><ele>1601.0</ele><time>2026-04-18T07:47:46.978Z</time></trkpt><trkpt lat="42.1066632" lon="13.5487302"><ele>1601.0</ele><time>2026-04-18T07:47:56.008Z</time></trkpt><trkpt lat="42.1066834" lon="13.5488125"><ele>1601.0</ele><time>2026-04-18T07:48:05.98Z</time></trkpt><trkpt lat="42.1066761" lon="13.5488995"><ele>1603.142857142857</ele><time>2026-04-18T07:48:17.979Z</time></trkpt><trkpt lat="42.1066837" lon="13.5489872"><ele>1605.2857142857144</ele><time>2026-04-18T07:48:26.989Z</time></trkpt><trkpt lat="42.1066671" lon="13.5490785"><ele>1607.4285714285716</ele><time>2026-04-18T07:49:00.98Z</time></trkpt><trkpt lat="42.1066402" lon="13.5491621"><ele>1609.5714285714284</ele><time>2026-04-18T07:49:41.982Z</time></trkpt><trkpt lat="42.1066208" lon="13.5492522"><ele>1611.7142857142858</ele><time>2026-04-18T07:49:48.979Z</time></trkpt><trkpt lat="42.1066199" lon="13.5493384"><ele>1613.857142857143</ele><time>2026-04-18T07:49:55.98Z</time></trkpt><trkpt lat="42.1066154" lon="13.5494294"><ele>1616.0</ele><time>2026-04-18T07:50:03.981Z</time></trkpt><trkpt lat="42.1065887" lon="13.5495101"><ele>1617.7142857142858</ele><time>2026-04-18T07:50:18.982Z</time></trkpt><trkpt lat="42.1065401" lon="13.5495777"><ele>1619.4285714285713</ele><time>2026-04-18T07:50:29Z</time></trkpt><trkpt lat="42.106566" lon="13.5496587"><ele>1621.1428571428573</ele><time>2026-04-18T07:50:39.98Z</time></trkpt><trkpt lat="42.1066007" lon="13.5497326"><ele>1622.857142857143</ele><time>2026-04-18T07:51:16.011Z</time></trkpt><trkpt lat="42.1066247" lon="13.5498173"><ele>1624.5714285714287</ele><time>2026-04-18T07:51:25.984Z</time></trkpt><trkpt lat="42.1065846" lon="13.549885"><ele>1626.2857142857144</ele><time>2026-04-18T07:51:42.9Z</time></trkpt><trkpt lat="42.1065705" lon="13.5499744"><ele>1628.0</ele><time>2026-04-18T07:51:53.998Z</time></trkpt><trkpt lat="42.1065705" lon="13.5500615"><ele>1629.857142857143</ele><time>2026-04-18T07:52:02.957Z</time></trkpt><trkpt lat="42.1065267" lon="13.5501316"><ele>1631.7142857142858</ele><time>2026-04-18T07:52:15.02Z</time></trkpt><trkpt lat="42.1065468" lon="13.5502182"><ele>1633.5714285714284</ele><time>2026-04-18T07:52:23.982Z</time></trkpt><trkpt lat="42.1065549" lon="13.5503089"><ele>1635.4285714285716</ele><time>2026-04-18T07:52:33.98Z</time></trkpt><trkpt lat="42.1065654" lon="13.5503993"><ele>1637.2857142857142</ele><time>2026-04-18T07:52:44.995Z</time></trkpt><trkpt lat="42.1066023" lon="13.5504712"><ele>1639.142857142857</ele><time>2026-04-18T07:53:18.98Z</time></trkpt><trkpt lat="42.1066096" lon="13.5505638"><ele>1641.0</ele><time>2026-04-18T07:53:25.984Z</time></trkpt><trkpt lat="42.106561" lon="13.5506249"><ele>1640.9999999999998</ele><time>2026-04-18T07:53:32.981Z</time></trkpt><trkpt lat="42.1065332" lon="13.5507061"><ele>1641.0</ele><time>2026-04-18T07:53:41.023Z</time></trkpt><trkpt lat="42.1065374" lon="13.5508026"><ele>1641.0</ele><time>2026-04-18T07:53:49.978Z</time></trkpt><trkpt lat="42.1065791" lon="13.5508727"><ele>1641.0</ele><time>2026-04-18T07:53:58.983Z</time></trkpt><trkpt lat="42.106616" lon="13.5509418"><ele>1641.0</ele><time>2026-04-18T07:54:08.017Z</time></trkpt><trkpt lat="42.1066414" lon="13.5510246"><ele>1640.9999999999998</ele><time>2026-04-18T07:54:18.98Z</time></trkpt><trkpt lat="42.1066167" lon="13.5511071"><ele>1641.0</ele><time>2026-04-18T07:54:26.992Z</time></trkpt><trkpt lat="42.1066263" lon="13.5512104"><ele>1643.2857142857142</ele><time>2026-04-18T07:55:55.982Z</time></trkpt><trkpt lat="42.1066019" lon="13.5512933"><ele>1645.5714285714284</ele><time>2026-04-18T07:56:02.018Z</time></trkpt><trkpt lat="42.1065601" lon="13.5513684"><ele>1647.8571428571427</ele><time>2026-04-18T07:56:07.981Z</time></trkpt><trkpt lat="42.1065753" lon="13.551461"><ele>1650.142857142857</ele><time>2026-04-18T07:56:15.999Z</time></trkpt><trkpt lat="42.1066326" lon="13.5515042"><ele>1652.4285714285716</ele><time>2026-04-18T07:56:23.98Z</time></trkpt><trkpt lat="42.1066164" lon="13.5515869"><ele>1654.7142857142856</ele><time>2026-04-18T07:56:30.988Z</time></trkpt><trkpt lat="42.1065944" lon="13.551676"><ele>1657.0</ele><time>2026-04-18T07:56:40.98Z</time></trkpt><trkpt lat="42.1066183" lon="13.5517579"><ele>1659.142857142857</ele><time>2026-04-18T07:56:55.981Z</time></trkpt><trkpt lat="42.1065699" lon="13.5518138"><ele>1661.2857142857144</ele><time>2026-04-18T07:57:05.995Z</time></trkpt><trkpt lat="42.1065155" lon="13.551858"><ele>1663.4285714285716</ele><time>2026-04-18T07:57:16.984Z</time></trkpt><trkpt lat="42.1065216" lon="13.5519459"><ele>1665.5714285714284</ele><time>2026-04-18T07:57:27.981Z</time></trkpt><trkpt lat="42.1065385" lon="13.5520329"><ele>1667.7142857142858</ele><time>2026-04-18T07:57:36.931Z</time></trkpt><trkpt lat="42.106482" lon="13.5520744"><ele>1669.857142857143</ele><time>2026-04-18T07:59:06.979Z</time></trkpt><trkpt lat="42.1064316" lon="13.5521473"><ele>1672.0</ele><time>2026-04-18T08:00:32.981Z</time></trkpt><trkpt lat="42.1064001" lon="13.5522268"><ele>1674.4285714285713</ele><time>2026-04-18T08:00:38.979Z</time></trkpt><trkpt lat="42.1063639" lon="13.5523155"><ele>1676.8571428571427</ele><time>2026-04-18T08:00:43.995Z</time></trkpt><trkpt lat="42.1063561" lon="13.5524081"><ele>1679.2857142857142</ele><time>2026-04-18T08:00:50.982Z</time></trkpt><trkpt lat="42.1063566" lon="13.5525015"><ele>1681.7142857142858</ele><time>2026-04-18T08:00:58.021Z</time></trkpt><trkpt lat="42.1063741" lon="13.5525909"><ele>1684.142857142857</ele><time>2026-04-18T08:01:05.972Z</time></trkpt><trkpt lat="42.1063502" lon="13.5526694"><ele>1686.5714285714287</ele><time>2026-04-18T08:01:14.98Z</time></trkpt><trkpt lat="42.1062908" lon="13.5527016"><ele>1689.0</ele><time>2026-04-18T08:01:24.979Z</time></trkpt><trkpt lat="42.1063095" lon="13.5527827"><ele>1689.0</ele><time>2026-04-18T08:01:32.986Z</time></trkpt><trkpt lat="42.1063573" lon="13.5528401"><ele>1689.0</ele><time>2026-04-18T08:01:41.062Z</time></trkpt><trkpt lat="42.1063523" lon="13.5529276"><ele>1689.0</ele><time>2026-04-18T08:01:49.987Z</time></trkpt><trkpt lat="42.1063658" lon="13.5530129"><ele>1689.0</ele><time>2026-04-18T08:01:58.978Z</time></trkpt><trkpt lat="42.1063678" lon="13.5530992"><ele>1689.0</ele><time>2026-04-18T08:02:06.973Z</time></trkpt><trkpt lat="42.106397" lon="13.5531749"><ele>1689.0</ele><time>2026-04-18T08:02:16.981Z</time></trkpt><trkpt lat="42.1063946" lon="13.5532639"><ele>1689.0</ele><time>2026-04-18T08:02:24.996Z</time></trkpt><trkpt lat="42.1063431" lon="13.5533204"><ele>1691.0</ele><time>2026-04-18T08:02:31.981Z</time></trkpt><trkpt lat="42.1063328" lon="13.5534158"><ele>1693.0</ele><time>2026-04-18T08:03:19.978Z</time></trkpt><trkpt lat="42.1062974" lon="13.5535038"><ele>1695.0</ele><time>2026-04-18T08:04:02.982Z</time></trkpt><trkpt lat="42.1062979" lon="13.5535915"><ele>1697.0</ele><time>2026-04-18T08:04:10.015Z</time></trkpt><trkpt lat="42.1062683" lon="13.5536713"><ele>1699.0</ele><time>2026-04-18T08:04:18.979Z</time></trkpt><trkpt lat="42.1062131" lon="13.5537333"><ele>1701.0</ele><time>2026-04-18T08:04:27.016Z</time></trkpt><trkpt lat="42.1061861" lon="13.5538161"><ele>1703.0</ele><time>2026-04-18T08:04:33.98Z</time></trkpt><trkpt lat="42.1061661" lon="13.5538968"><ele>1704.142857142857</ele><time>2026-04-18T08:04:44.016Z</time></trkpt><trkpt lat="42.1061666" lon="13.5539881"><ele>1705.2857142857142</ele><time>2026-04-18T08:05:19.978Z</time></trkpt><trkpt lat="42.1061778" lon="13.5540744"><ele>1706.4285714285713</ele><time>2026-04-18T08:05:28.979Z</time></trkpt><trkpt lat="42.1061564" lon="13.5541591"><ele>1707.5714285714284</ele><time>2026-04-18T08:05:36.979Z</time></trkpt><trkpt lat="42.1061533" lon="13.5542555"><ele>1708.7142857142858</ele><time>2026-04-18T08:06:59.982Z</time></trkpt><trkpt lat="42.1061364" lon="13.5543375"><ele>1709.8571428571427</ele><time>2026-04-18T08:07:06.983Z</time></trkpt><trkpt lat="42.1061225" lon="13.5544321"><ele>1711.0</ele><time>2026-04-18T08:07:16.041Z</time></trkpt><trkpt lat="42.1060712" lon="13.5544888"><ele>1710.9999999999998</ele><time>2026-04-18T08:07:24.977Z</time></trkpt><trkpt lat="42.1060029" lon="13.5545265"><ele>1711.0</ele><time>2026-04-18T08:07:35.022Z</time></trkpt><trkpt lat="42.1059394" lon="13.5545552"><ele>1711.0</ele><time>2026-04-18T08:07:43.981Z</time></trkpt><trkpt lat="42.1058882" lon="13.5546096"><ele>1711.0</ele><time>2026-04-18T08:07:53.977Z</time></trkpt><trkpt lat="42.1058282" lon="13.5546414"><ele>1711.0</ele><time>2026-04-18T08:08:03.993Z</time></trkpt><trkpt lat="42.1057599" lon="13.5546646"><ele>1710.9999999999998</ele><time>2026-04-18T08:08:35.983Z</time></trkpt><trkpt lat="42.1057416" lon="13.5547476"><ele>1711.0</ele><time>2026-04-18T08:08:44.89Z</time></trkpt><trkpt lat="42.1057406" lon="13.5548339"><ele>1711.9999999999998</ele><time>2026-04-18T08:08:51.89Z</time></trkpt><trkpt lat="42.1057648" lon="13.5549175"><ele>1713.0</ele><time>2026-04-18T08:09:00.98Z</time></trkpt><trkpt lat="42.1057521" lon="13.5550042"><ele>1714.0</ele><time>2026-04-18T08:09:10.988Z</time></trkpt><trkpt lat="42.1057339" lon="13.5550936"><ele>1715.0</ele><time>2026-04-18T08:09:20.912Z</time></trkpt><trkpt lat="42.1056665" lon="13.5551117"><ele>1716.0</ele><time>2026-04-18T08:09:28.994Z</time></trkpt><trkpt lat="42.1056119" lon="13.5551712"><ele>1716.9999999999998</ele><time>2026-04-18T08:09:37.981Z</time></trkpt><trkpt lat="42.1055614" lon="13.5552322"><ele>1718.0</ele><time>2026-04-18T08:09:47.972Z</time></trkpt><trkpt lat="42.1055218" lon="13.5552995"><ele>1720.9999999999998</ele><time>2026-04-18T08:09:58.977Z</time></trkpt><trkpt lat="42.105473" lon="13.5553551"><ele>1724.0</ele><time>2026-04-18T08:10:43.983Z</time></trkpt><trkpt lat="42.1054271" lon="13.5554201"><ele>1727.0</ele><time>2026-04-18T08:10:50.994Z</time></trkpt><trkpt lat="42.1054558" lon="13.5555"><ele>1730.0</ele><time>2026-04-18T08:10:58.02Z</time></trkpt><trkpt lat="42.1054874" lon="13.5555772"><ele>1733.0</ele><time>2026-04-18T08:11:07.981Z</time></trkpt><trkpt lat="42.1054927" lon="13.555671"><ele>1735.9999999999998</ele><time>2026-04-18T08:11:15.021Z</time></trkpt><trkpt lat="42.1055297" lon="13.5557533"><ele>1739.0</ele><time>2026-04-18T08:11:21.981Z</time></trkpt><trkpt lat="42.1055296" lon="13.555844"><ele>1740.7142857142856</ele><time>2026-04-18T08:11:33.981Z</time></trkpt><trkpt lat="42.1055472" lon="13.5559282"><ele>1742.4285714285713</ele><time>2026-04-18T08:11:44.997Z</time></trkpt><trkpt lat="42.1055435" lon="13.556018"><ele>1744.142857142857</ele><time>2026-04-18T08:11:55.897Z</time></trkpt><trkpt lat="42.105503" lon="13.5560932"><ele>1745.8571428571427</ele><time>2026-04-18T08:12:05.016Z</time></trkpt><trkpt lat="42.1054546" lon="13.5561568"><ele>1747.5714285714287</ele><time>2026-04-18T08:12:13.978Z</time></trkpt><trkpt lat="42.1054093" lon="13.556218"><ele>1749.2857142857142</ele><time>2026-04-18T08:12:23.021Z</time></trkpt><trkpt lat="42.1053362" lon="13.5562113"><ele>1751.0</ele><time>2026-04-18T08:13:08.993Z</time></trkpt><trkpt lat="42.1052904" lon="13.5562713"><ele>1753.4285714285716</ele><time>2026-04-18T08:13:17.954Z</time></trkpt><trkpt lat="42.1052637" lon="13.5563534"><ele>1755.857142857143</ele><time>2026-04-18T08:13:28.004Z</time></trkpt><trkpt lat="42.105215" lon="13.5564074"><ele>1758.2857142857142</ele><time>2026-04-18T08:13:50.977Z</time></trkpt><trkpt lat="42.1051866" lon="13.5564833"><ele>1760.7142857142858</ele><time>2026-04-18T08:14:31.978Z</time></trkpt><trkpt lat="42.1051582" lon="13.5565613"><ele>1763.142857142857</ele><time>2026-04-18T08:14:47.979Z</time></trkpt><trkpt lat="42.1050966" lon="13.556614"><ele>1765.5714285714287</ele><time>2026-04-18T08:14:58.982Z</time></trkpt><trkpt lat="42.105058" lon="13.5566847"><ele>1768.0</ele><time>2026-04-18T08:15:08.998Z</time></trkpt><trkpt lat="42.1049927" lon="13.5567055"><ele>1768.0000000000002</ele><time>2026-04-18T08:15:21.899Z</time></trkpt><trkpt lat="42.104953" lon="13.5567778"><ele>1768.0</ele><time>2026-04-18T08:16:09.981Z</time></trkpt><trkpt lat="42.1048845" lon="13.5568038"><ele>1768.0</ele><time>2026-04-18T08:16:22.919Z</time></trkpt><trkpt lat="42.1048286" lon="13.5568544"><ele>1768.0</ele><time>2026-04-18T08:16:33.998Z</time></trkpt><trkpt lat="42.1047867" lon="13.5569228"><ele>1768.0</ele><time>2026-04-18T08:16:43.979Z</time></trkpt><trkpt lat="42.1047328" lon="13.5569806"><ele>1768.0000000000002</ele><time>2026-04-18T08:16:53.01Z</time></trkpt><trkpt lat="42.1046719" lon="13.5570118"><ele>1768.0</ele><time>2026-04-18T08:17:25.979Z</time></trkpt><trkpt lat="42.1046101" lon="13.5570519"><ele>1774.5714285714287</ele><time>2026-04-18T08:17:35.011Z</time></trkpt><trkpt lat="42.1045515" lon="13.5571039"><ele>1781.1428571428573</ele><time>2026-04-18T08:17:48.895Z</time></trkpt><trkpt lat="42.1044878" lon="13.5571096"><ele>1787.7142857142858</ele><time>2026-04-18T08:18:21.982Z</time></trkpt><trkpt lat="42.104422" lon="13.5571285"><ele>1794.2857142857144</ele><time>2026-04-18T08:18:35.009Z</time></trkpt><trkpt lat="42.104359" lon="13.5571358"><ele>1800.857142857143</ele><time>2026-04-18T08:18:53.979Z</time></trkpt><trkpt lat="42.1043009" lon="13.5571706"><ele>1807.4285714285718</ele><time>2026-04-18T08:19:32.978Z</time></trkpt><trkpt lat="42.1042918" lon="13.5572547"><ele>1814.0000000000002</ele><time>2026-04-18T08:19:43.979Z</time></trkpt><trkpt lat="42.1042806" lon="13.5573452"><ele>1814.0000000000002</ele><time>2026-04-18T08:19:54.98Z</time></trkpt><trkpt lat="42.1042322" lon="13.5574203"><ele>1814.0</ele><time>2026-04-18T08:20:50.002Z</time></trkpt><trkpt lat="42.1041659" lon="13.5574155"><ele>1814.0000000000002</ele><time>2026-04-18T08:20:58.981Z</time></trkpt><trkpt lat="42.1041302" lon="13.5574932"><ele>1814.0000000000002</ele><time>2026-04-18T08:21:12.982Z</time></trkpt><trkpt lat="42.1040818" lon="13.5575571"><ele>1814.0</ele><time>2026-04-18T08:21:26.981Z</time></trkpt><trkpt lat="42.1040251" lon="13.5576062"><ele>1814.0000000000002</ele><time>2026-04-18T08:21:41.979Z</time></trkpt><trkpt lat="42.1039712" lon="13.5576652"><ele>1814.0000000000002</ele><time>2026-04-18T08:22:11.984Z</time></trkpt><trkpt lat="42.1039829" lon="13.5577493"><ele>1815.714285714286</ele><time>2026-04-18T08:22:25.98Z</time></trkpt><trkpt lat="42.1040039" lon="13.5578345"><ele>1817.4285714285716</ele><time>2026-04-18T08:22:35.978Z</time></trkpt><trkpt lat="42.1039881" lon="13.5579201"><ele>1819.142857142857</ele><time>2026-04-18T08:22:45.984Z</time></trkpt><trkpt lat="42.1039693" lon="13.558007"><ele>1820.857142857143</ele><time>2026-04-18T08:22:58.98Z</time></trkpt><trkpt lat="42.1039727" lon="13.5580949"><ele>1822.5714285714284</ele><time>2026-04-18T08:23:07.918Z</time></trkpt><trkpt lat="42.1039505" lon="13.5581762"><ele>1824.285714285714</ele><time>2026-04-18T08:23:16.98Z</time></trkpt><trkpt lat="42.1039226" lon="13.5582556"><ele>1825.9999999999998</ele><time>2026-04-18T08:23:25.981Z</time></trkpt><trkpt lat="42.1038926" lon="13.5583327"><ele>1825.9999999999998</ele><time>2026-04-18T08:23:34.981Z</time></trkpt><trkpt lat="42.1038303" lon="13.5583175"><ele>1826.0</ele><time>2026-04-18T08:25:44.979Z</time></trkpt><trkpt lat="42.1037869" lon="13.5583792"><ele>1825.9999999999998</ele><time>2026-04-18T08:25:50.977Z</time></trkpt><trkpt lat="42.103769" lon="13.5582934"><ele>1825.9999999999998</ele><time>2026-04-18T08:27:11.981Z</time></trkpt><trkpt lat="42.1037434" lon="13.5582119"><ele>1826.0</ele><time>2026-04-18T08:27:20.998Z</time></trkpt><trkpt lat="42.103756" lon="13.5581268"><ele>1825.9999999999998</ele><time>2026-04-18T08:27:30.979Z</time></trkpt><trkpt lat="42.1037561" lon="13.5580404"><ele>1825.9999999999998</ele><time>2026-04-18T08:27:41.955Z</time></trkpt><trkpt lat="42.1036926" lon="13.5580339"><ele>1825.9999999999998</ele><time>2026-04-18T08:27:48.986Z</time></trkpt><trkpt lat="42.1036317" lon="13.5580622"><ele>1826.0</ele><time>2026-04-18T08:27:58.954Z</time></trkpt><trkpt lat="42.1035744" lon="13.5580254"><ele>1825.9999999999998</ele><time>2026-04-18T08:28:51.979Z</time></trkpt><trkpt lat="42.1035118" lon="13.5580153"><ele>1825.9999999999998</ele><time>2026-04-18T08:29:05.998Z</time></trkpt><trkpt lat="42.1034486" lon="13.557982"><ele>1826.0</ele><time>2026-04-18T08:29:40.011Z</time></trkpt><trkpt lat="42.1033982" lon="13.557926"><ele>1825.9999999999998</ele><time>2026-04-18T08:29:52.951Z</time></trkpt><trkpt lat="42.1033479" lon="13.5578737"><ele>1825.9999999999998</ele><time>2026-04-18T08:30:04.951Z</time></trkpt><trkpt lat="42.1032859" lon="13.5578396"><ele>1828.7142857142853</ele><time>2026-04-18T08:30:42.979Z</time></trkpt><trkpt lat="42.1032288" lon="13.5577938"><ele>1831.4285714285713</ele><time>2026-04-18T08:30:56.982Z</time></trkpt><trkpt lat="42.1032654" lon="13.5577229"><ele>1834.1428571428569</ele><time>2026-04-18T08:31:07.984Z</time></trkpt><trkpt lat="42.1031971" lon="13.5577217"><ele>1836.8571428571427</ele><time>2026-04-18T08:31:15.899Z</time></trkpt><trkpt lat="42.1031527" lon="13.5576572"><ele>1839.5714285714284</ele><time>2026-04-18T08:32:30.977Z</time></trkpt><trkpt lat="42.1030915" lon="13.5576215"><ele>1842.2857142857142</ele><time>2026-04-18T08:32:42.98Z</time></trkpt><trkpt lat="42.1031316" lon="13.5575535"><ele>1845.0</ele><time>2026-04-18T08:33:05.979Z</time></trkpt><trkpt lat="42.1031801" lon="13.5574919"><ele>1845.0</ele><time>2026-04-18T08:33:18.991Z</time></trkpt><trkpt lat="42.1032441" lon="13.5574693"><ele>1844.9999999999998</ele><time>2026-04-18T08:33:25.979Z</time></trkpt><trkpt lat="42.1032522" lon="13.5573805"><ele>1845.0</ele><time>2026-04-18T08:34:08.032Z</time></trkpt><trkpt lat="42.1031938" lon="13.5573416"><ele>1845.0</ele><time>2026-04-18T08:34:16.04Z</time></trkpt><trkpt lat="42.103208" lon="13.5572515"><ele>1844.9999999999998</ele><time>2026-04-18T08:34:25.977Z</time></trkpt><trkpt lat="42.103141" lon="13.5572153"><ele>1845.0</ele><time>2026-04-18T08:34:56.982Z</time></trkpt><trkpt lat="42.1030886" lon="13.5571614"><ele>1845.0</ele><time>2026-04-18T08:35:06.015Z</time></trkpt><trkpt lat="42.1030649" lon="13.5570794"><ele>1848.0</ele><time>2026-04-18T08:35:24.982Z</time></trkpt><trkpt lat="42.1030332" lon="13.5570037"><ele>1850.9999999999998</ele><time>2026-04-18T08:35:33.018Z</time></trkpt><trkpt lat="42.1030071" lon="13.556918"><ele>1854.0</ele><time>2026-04-18T08:35:41.98Z</time></trkpt><trkpt lat="42.1029832" lon="13.5568341"><ele>1857.0</ele><time>2026-04-18T08:35:51.983Z</time></trkpt><trkpt lat="42.1029607" lon="13.5567548"><ele>1859.9999999999998</ele><time>2026-04-18T08:36:01.98Z</time></trkpt><trkpt lat="42.1029275" lon="13.5566763"><ele>1863.0</ele><time>2026-04-18T08:36:09.988Z</time></trkpt><trkpt lat="42.1029412" lon="13.5565902"><ele>1866.0</ele><time>2026-04-18T08:36:20.997Z</time></trkpt><trkpt lat="42.102906" lon="13.5565123"><ele>1866.0</ele><time>2026-04-18T08:36:32.016Z</time></trkpt><trkpt lat="42.1029142" lon="13.5564172"><ele>1865.9999999999998</ele><time>2026-04-18T08:37:44.981Z</time></trkpt><trkpt lat="42.102907" lon="13.5563295"><ele>1866.0</ele><time>2026-04-18T08:37:50.983Z</time></trkpt><trkpt lat="42.1028605" lon="13.5562705"><ele>1866.0</ele><time>2026-04-18T08:37:58.018Z</time></trkpt><trkpt lat="42.1028503" lon="13.5561781"><ele>1865.9999999999998</ele><time>2026-04-18T08:38:05.879Z</time></trkpt><trkpt lat="42.1028414" lon="13.5560781"><ele>1866.0</ele><time>2026-04-18T08:38:17.029Z</time></trkpt><trkpt lat="42.1027902" lon="13.5560141"><ele>1866.0</ele><time>2026-04-18T08:38:57.994Z</time></trkpt><trkpt lat="42.1027894" lon="13.5559153"><ele>1867.5714285714284</ele><time>2026-04-18T08:39:04.9Z</time></trkpt><trkpt lat="42.1027436" lon="13.5558415"><ele>1869.1428571428569</ele><time>2026-04-18T08:39:13.832Z</time></trkpt><trkpt lat="42.102702" lon="13.5557682"><ele>1870.7142857142858</ele><time>2026-04-18T08:39:23.951Z</time></trkpt><trkpt lat="42.1027" lon="13.5556776"><ele>1872.2857142857142</ele><time>2026-04-18T08:39:31.992Z</time></trkpt><trkpt lat="42.102706" lon="13.5555902"><ele>1873.857142857143</ele><time>2026-04-18T08:42:36.988Z</time></trkpt><trkpt lat="42.1027036" lon="13.5554987"><ele>1875.4285714285716</ele><time>2026-04-18T08:42:42.989Z</time></trkpt><trkpt lat="42.1027056" lon="13.5554103"><ele>1877.0000000000002</ele><time>2026-04-18T08:42:52.981Z</time></trkpt><trkpt lat="42.1027157" lon="13.5553234"><ele>1878.714285714286</ele><time>2026-04-18T08:43:03.938Z</time></trkpt><trkpt lat="42.1027004" lon="13.5552375"><ele>1880.4285714285716</ele><time>2026-04-18T08:43:13.98Z</time></trkpt><trkpt lat="42.1026422" lon="13.5552027"><ele>1882.142857142857</ele><time>2026-04-18T08:43:23.98Z</time></trkpt><trkpt lat="42.1026932" lon="13.5551372"><ele>1883.857142857143</ele><time>2026-04-18T08:43:45.979Z</time></trkpt><trkpt lat="42.1027018" lon="13.5550508"><ele>1885.5714285714284</ele><time>2026-04-18T08:43:55.983Z</time></trkpt><trkpt lat="42.1026919" lon="13.5549643"><ele>1887.285714285714</ele><time>2026-04-18T08:44:03.982Z</time></trkpt><trkpt lat="42.1026863" lon="13.5548795"><ele>1888.9999999999998</ele><time>2026-04-18T08:45:43.979Z</time></trkpt><trkpt lat="42.1027004" lon="13.5547928"><ele>1888.9999999999998</ele><time>2026-04-18T08:45:50.981Z</time></trkpt><trkpt lat="42.1027078" lon="13.5547027"><ele>1889.0</ele><time>2026-04-18T08:45:58.98Z</time></trkpt><trkpt lat="42.1027228" lon="13.5546076"><ele>1888.9999999999998</ele><time>2026-04-18T08:46:06.984Z</time></trkpt><trkpt lat="42.1026984" lon="13.554521"><ele>1888.9999999999998</ele><time>2026-04-18T08:46:15.001Z</time></trkpt><trkpt lat="42.1026644" lon="13.5544378"><ele>1889.0</ele><time>2026-04-18T08:46:22.98Z</time></trkpt><trkpt lat="42.1026317" lon="13.5543533"><ele>1888.9999999999998</ele><time>2026-04-18T08:46:30.992Z</time></trkpt><trkpt lat="42.1026013" lon="13.5542693"><ele>1888.9999999999998</ele><time>2026-04-18T08:46:38.973Z</time></trkpt><trkpt lat="42.1025809" lon="13.5541854"><ele>1889.428571428571</ele><time>2026-04-18T08:46:45.975Z</time></trkpt><trkpt lat="42.1025726" lon="13.5540888"><ele>1889.8571428571427</ele><time>2026-04-18T08:46:53.979Z</time></trkpt><trkpt lat="42.1025859" lon="13.5540036"><ele>1890.2857142857142</ele><time>2026-04-18T08:47:01.039Z</time></trkpt><trkpt lat="42.1025848" lon="13.5539055"><ele>1890.7142857142856</ele><time>2026-04-18T08:47:10.015Z</time></trkpt><trkpt lat="42.102518" lon="13.5538712"><ele>1891.1428571428569</ele><time>2026-04-18T08:48:04.982Z</time></trkpt><trkpt lat="42.1024617" lon="13.5538325"><ele>1891.5714285714287</ele><time>2026-04-18T08:48:15.981Z</time></trkpt><trkpt lat="42.1024519" lon="13.5537448"><ele>1892.0</ele><time>2026-04-18T08:48:26.982Z</time></trkpt><trkpt lat="42.1024204" lon="13.5536674"><ele>1887.2857142857142</ele><time>2026-04-18T08:48:33.937Z</time></trkpt><trkpt lat="42.102409" lon="13.5535756"><ele>1882.5714285714284</ele><time>2026-04-18T08:48:46.996Z</time></trkpt><trkpt lat="42.1023865" lon="13.5534919"><ele>1877.8571428571427</ele><time>2026-04-18T08:48:54.983Z</time></trkpt><trkpt lat="42.1023411" lon="13.5534192"><ele>1873.142857142857</ele><time>2026-04-18T08:49:01.033Z</time></trkpt><trkpt lat="42.1023628" lon="13.5533393"><ele>1868.428571428571</ele><time>2026-04-18T08:49:07.011Z</time></trkpt><trkpt lat="42.1023662" lon="13.5532491"><ele>1863.7142857142856</ele><time>2026-04-18T08:49:15.032Z</time></trkpt><trkpt lat="42.1023747" lon="13.5531629"><ele>1859.0</ele><time>2026-04-18T08:49:21.997Z</time></trkpt><trkpt lat="42.1023818" lon="13.5530766"><ele>1859.0</ele><time>2026-04-18T08:49:30.981Z</time></trkpt><trkpt lat="42.1024032" lon="13.5529957"><ele>1858.9999999999998</ele><time>2026-04-18T08:49:42.011Z</time></trkpt><trkpt lat="42.1024352" lon="13.5529165"><ele>1859.0</ele><time>2026-04-18T08:50:09.983Z</time></trkpt><trkpt lat="42.1024642" lon="13.5528362"><ele>1859.0</ele><time>2026-04-18T08:50:50.98Z</time></trkpt><trkpt lat="42.1024953" lon="13.5527612"><ele>1858.9999999999998</ele><time>2026-04-18T08:51:02.981Z</time></trkpt><trkpt lat="42.1025372" lon="13.5528293"><ele>1859.0</ele><time>2026-04-18T08:55:16.981Z</time></trkpt><trkpt lat="42.1025125" lon="13.5527402"><ele>1859.0</ele><time>2026-04-18T09:05:56.982Z</time></trkpt><trkpt lat="42.1024702" lon="13.5528341"><ele>1863.7142857142856</ele><time>2026-04-18T09:10:07.982Z</time></trkpt><trkpt lat="42.1024523" lon="13.5529255"><ele>1868.428571428571</ele><time>2026-04-18T09:13:59.982Z</time></trkpt><trkpt lat="42.1024629" lon="13.5530156"><ele>1873.142857142857</ele><time>2026-04-18T09:14:05.984Z</time></trkpt><trkpt lat="42.1024567" lon="13.5531047"><ele>1877.8571428571427</ele><time>2026-04-18T09:14:11.91Z</time></trkpt><trkpt lat="42.102491" lon="13.5531832"><ele>1882.5714285714284</ele><time>2026-04-18T09:14:17.981Z</time></trkpt><trkpt lat="42.1024993" lon="13.5532695"><ele>1887.2857142857142</ele><time>2026-04-18T09:14:25.01Z</time></trkpt><trkpt lat="42.1024686" lon="13.5533472"><ele>1892.0</ele><time>2026-04-18T09:14:32.981Z</time></trkpt><trkpt lat="42.1024548" lon="13.5534374"><ele>1892.4285714285716</ele><time>2026-04-18T09:14:43.041Z</time></trkpt><trkpt lat="42.1023958" lon="13.5535024"><ele>1892.8571428571427</ele><time>2026-04-18T09:15:35.008Z</time></trkpt><trkpt lat="42.102391" lon="13.5535977"><ele>1893.2857142857142</ele><time>2026-04-18T09:17:00.982Z</time></trkpt><trkpt lat="42.1023823" lon="13.5536845"><ele>1893.7142857142858</ele><time>2026-04-18T09:17:07.988Z</time></trkpt><trkpt lat="42.102434" lon="13.5537356"><ele>1894.1428571428573</ele><time>2026-04-18T09:17:20.981Z</time></trkpt><trkpt lat="42.1024663" lon="13.5538097"><ele>1894.5714285714284</ele><time>2026-04-18T09:17:28.984Z</time></trkpt><trkpt lat="42.1025241" lon="13.5538475"><ele>1895.0</ele><time>2026-04-18T09:17:43.982Z</time></trkpt><trkpt lat="42.1025403" lon="13.5539298"><ele>1895.0</ele><time>2026-04-18T09:17:52.985Z</time></trkpt><trkpt lat="42.1025352" lon="13.5540172"><ele>1895.0</ele><time>2026-04-18T09:18:02.992Z</time></trkpt><trkpt lat="42.1025303" lon="13.554103"><ele>1895.0</ele><time>2026-04-18T09:18:10.983Z</time></trkpt><trkpt lat="42.1025493" lon="13.5541873"><ele>1895.0</ele><time>2026-04-18T09:18:16.958Z</time></trkpt><trkpt lat="42.1025884" lon="13.554271"><ele>1895.0</ele><time>2026-04-18T09:18:23.982Z</time></trkpt><trkpt lat="42.1026271" lon="13.5543521"><ele>1895.0</ele><time>2026-04-18T09:18:31.021Z</time></trkpt><trkpt lat="42.102661" lon="13.5544359"><ele>1895.0</ele><time>2026-04-18T09:18:41.01Z</time></trkpt><trkpt lat="42.1026841" lon="13.5545192"><ele>1894.142857142857</ele><time>2026-04-18T09:18:50.983Z</time></trkpt><trkpt lat="42.102715" lon="13.5545984"><ele>1893.2857142857142</ele><time>2026-04-18T09:18:58.008Z</time></trkpt><trkpt lat="42.1027114" lon="13.5546951"><ele>1892.4285714285713</ele><time>2026-04-18T09:19:05.98Z</time></trkpt><trkpt lat="42.1026877" lon="13.5547862"><ele>1891.5714285714284</ele><time>2026-04-18T09:19:12.979Z</time></trkpt><trkpt lat="42.1026704" lon="13.554873"><ele>1890.7142857142858</ele><time>2026-04-18T09:19:19.983Z</time></trkpt><trkpt lat="42.1026767" lon="13.5549616"><ele>1889.8571428571427</ele><time>2026-04-18T09:19:26.983Z</time></trkpt><trkpt lat="42.1026803" lon="13.5550492"><ele>1888.9999999999998</ele><time>2026-04-18T09:19:35.981Z</time></trkpt><trkpt lat="42.102656" lon="13.5551332"><ele>1888.9999999999998</ele><time>2026-04-18T09:19:43.87Z</time></trkpt><trkpt lat="42.1026467" lon="13.5552198"><ele>1889.0</ele><time>2026-04-18T09:19:56.984Z</time></trkpt><trkpt lat="42.1026566" lon="13.5553151"><ele>1888.9999999999998</ele><time>2026-04-18T09:20:12.982Z</time></trkpt><trkpt lat="42.1026773" lon="13.5554036"><ele>1888.9999999999998</ele><time>2026-04-18T09:20:20.984Z</time></trkpt><trkpt lat="42.1026659" lon="13.5554999"><ele>1889.0</ele><time>2026-04-18T09:21:48.983Z</time></trkpt><trkpt lat="42.102677" lon="13.5555934"><ele>1888.9999999999998</ele><time>2026-04-18T09:21:56.985Z</time></trkpt><trkpt lat="42.1026958" lon="13.5556813"><ele>1888.9999999999998</ele><time>2026-04-18T09:22:16.982Z</time></trkpt><trkpt lat="42.1026947" lon="13.5557747"><ele>1887.285714285714</ele><time>2026-04-18T09:22:23.983Z</time></trkpt><trkpt lat="42.1027343" lon="13.555841"><ele>1885.5714285714284</ele><time>2026-04-18T09:22:32.988Z</time></trkpt><trkpt lat="42.1027748" lon="13.5559099"><ele>1883.857142857143</ele><time>2026-04-18T09:22:44.989Z</time></trkpt><trkpt lat="42.1027972" lon="13.5559895"><ele>1882.142857142857</ele><time>2026-04-18T09:22:52.982Z</time></trkpt><trkpt lat="42.1028299" lon="13.556071"><ele>1880.4285714285716</ele><time>2026-04-18T09:22:59.989Z</time></trkpt><trkpt lat="42.1028526" lon="13.5561519"><ele>1878.714285714286</ele><time>2026-04-18T09:23:06.983Z</time></trkpt><trkpt lat="42.1028749" lon="13.5562399"><ele>1877.0000000000002</ele><time>2026-04-18T09:23:12.829Z</time></trkpt><trkpt lat="42.1028955" lon="13.5563218"><ele>1875.4285714285716</ele><time>2026-04-18T09:23:18.999Z</time></trkpt><trkpt lat="42.1029062" lon="13.5564067"><ele>1873.857142857143</ele><time>2026-04-18T09:23:25.01Z</time></trkpt><trkpt lat="42.102947" lon="13.5564851"><ele>1872.2857142857142</ele><time>2026-04-18T09:23:32.935Z</time></trkpt><trkpt lat="42.1029743" lon="13.5565701"><ele>1870.7142857142858</ele><time>2026-04-18T09:23:42.05Z</time></trkpt><trkpt lat="42.10298" lon="13.5566588"><ele>1869.1428571428569</ele><time>2026-04-18T09:23:48.982Z</time></trkpt><trkpt lat="42.1029786" lon="13.5567493"><ele>1867.5714285714284</ele><time>2026-04-18T09:23:56.01Z</time></trkpt><trkpt lat="42.1029861" lon="13.5568345"><ele>1866.0</ele><time>2026-04-18T09:24:02.956Z</time></trkpt><trkpt lat="42.1030092" lon="13.5569198"><ele>1866.0</ele><time>2026-04-18T09:24:14.013Z</time></trkpt><trkpt lat="42.1030329" lon="13.5570141"><ele>1865.9999999999998</ele><time>2026-04-18T09:24:51.994Z</time></trkpt><trkpt lat="42.1030468" lon="13.557099"><ele>1866.0</ele><time>2026-04-18T09:24:57.986Z</time></trkpt><trkpt lat="42.1030911" lon="13.557171"><ele>1866.0</ele><time>2026-04-18T09:25:06.009Z</time></trkpt><trkpt lat="42.1031378" lon="13.5572415"><ele>1865.9999999999998</ele><time>2026-04-18T09:25:17.984Z</time></trkpt><trkpt lat="42.1031884" lon="13.5572963"><ele>1866.0</ele><time>2026-04-18T09:25:24.972Z</time></trkpt><trkpt lat="42.1031844" lon="13.5573884"><ele>1866.0</ele><time>2026-04-18T09:25:31.983Z</time></trkpt><trkpt lat="42.1032281" lon="13.5574572"><ele>1863.0</ele><time>2026-04-18T09:25:41.009Z</time></trkpt><trkpt lat="42.1031811" lon="13.5575177"><ele>1859.9999999999998</ele><time>2026-04-18T09:25:50.769Z</time></trkpt><trkpt lat="42.1031221" lon="13.5575544"><ele>1857.0</ele><time>2026-04-18T09:25:59.011Z</time></trkpt><trkpt lat="42.1030665" lon="13.5576087"><ele>1854.0</ele><time>2026-04-18T09:26:07.981Z</time></trkpt><trkpt lat="42.1031158" lon="13.5576721"><ele>1850.9999999999998</ele><time>2026-04-18T09:26:19.025Z</time></trkpt><trkpt lat="42.1031774" lon="13.5577012"><ele>1848.0</ele><time>2026-04-18T09:26:27.981Z</time></trkpt><trkpt lat="42.1032447" lon="13.5577249"><ele>1845.0</ele><time>2026-04-18T09:26:35.981Z</time></trkpt><trkpt lat="42.1032014" lon="13.5577908"><ele>1845.7142857142856</ele><time>2026-04-18T09:26:44.987Z</time></trkpt><trkpt lat="42.1032626" lon="13.557767"><ele>1846.428571428571</ele><time>2026-04-18T09:27:07.985Z</time></trkpt><trkpt lat="42.1032948" lon="13.5578425"><ele>1847.142857142857</ele><time>2026-04-18T09:27:22.989Z</time></trkpt><trkpt lat="42.1033498" lon="13.5578982"><ele>1847.8571428571427</ele><time>2026-04-18T09:27:38.997Z</time></trkpt><trkpt lat="42.1033908" lon="13.5579639"><ele>1848.5714285714284</ele><time>2026-04-18T09:27:47.99Z</time></trkpt><trkpt lat="42.1034536" lon="13.5579844"><ele>1849.2857142857142</ele><time>2026-04-18T09:27:56.985Z</time></trkpt><trkpt lat="42.1035113" lon="13.5580196"><ele>1850.0</ele><time>2026-04-18T09:28:09.986Z</time></trkpt><trkpt lat="42.1035743" lon="13.5580346"><ele>1846.5714285714287</ele><time>2026-04-18T09:28:21.984Z</time></trkpt><trkpt lat="42.1036389" lon="13.5580289"><ele>1843.1428571428569</ele><time>2026-04-18T09:28:48.995Z</time></trkpt><trkpt lat="42.1037117" lon="13.5580604"><ele>1839.7142857142856</ele><time>2026-04-18T09:30:01.995Z</time></trkpt><trkpt lat="42.1037712" lon="13.5580938"><ele>1836.2857142857142</ele><time>2026-04-18T09:30:10.981Z</time></trkpt><trkpt lat="42.1038133" lon="13.5581591"><ele>1832.8571428571427</ele><time>2026-04-18T09:30:28.984Z</time></trkpt><trkpt lat="42.1038461" lon="13.558238"><ele>1829.428571428571</ele><time>2026-04-18T09:30:34.987Z</time></trkpt><trkpt lat="42.1038699" lon="13.5583236"><ele>1825.9999999999998</ele><time>2026-04-18T09:30:42.022Z</time></trkpt><trkpt lat="42.1039358" lon="13.558355"><ele>1825.9999999999998</ele><time>2026-04-18T09:30:47.983Z</time></trkpt><trkpt lat="42.1039998" lon="13.5583901"><ele>1826.0</ele><time>2026-04-18T09:30:53.99Z</time></trkpt><trkpt lat="42.1040568" lon="13.5584375"><ele>1825.9999999999998</ele><time>2026-04-18T09:31:00.024Z</time></trkpt><trkpt lat="42.1041265" lon="13.5584688"><ele>1825.9999999999998</ele><time>2026-04-18T09:31:06.991Z</time></trkpt><trkpt lat="42.1041944" lon="13.5584924"><ele>1826.0</ele><time>2026-04-18T09:31:14.004Z</time></trkpt><trkpt lat="42.1042657" lon="13.5584928"><ele>1825.9999999999998</ele><time>2026-04-18T09:31:21.984Z</time></trkpt><trkpt lat="42.1043151" lon="13.5585544"><ele>1825.9999999999998</ele><time>2026-04-18T09:31:27.985Z</time></trkpt><trkpt lat="42.1043686" lon="13.55861"><ele>1825.428571428571</ele><time>2026-04-18T09:31:38.983Z</time></trkpt><trkpt lat="42.104439" lon="13.558639"><ele>1824.8571428571427</ele><time>2026-04-18T09:31:46.977Z</time></trkpt><trkpt lat="42.1044959" lon="13.5586831"><ele>1824.2857142857142</ele><time>2026-04-18T09:31:53.981Z</time></trkpt><trkpt lat="42.1045626" lon="13.5587128"><ele>1823.7142857142856</ele><time>2026-04-18T09:32:00.983Z</time></trkpt><trkpt lat="42.1045916" lon="13.5587927"><ele>1823.1428571428569</ele><time>2026-04-18T09:32:08.044Z</time></trkpt><trkpt lat="42.1046514" lon="13.5588338"><ele>1822.5714285714287</ele><time>2026-04-18T09:32:17.983Z</time></trkpt><trkpt lat="42.1047346" lon="13.5588746"><ele>1822.0</ele><time>2026-04-18T09:32:48.986Z</time></trkpt><trkpt lat="42.1047964" lon="13.5589254"><ele>1822.4285714285716</ele><time>2026-04-18T09:32:54.988Z</time></trkpt><trkpt lat="42.104853" lon="13.5589754"><ele>1822.8571428571427</ele><time>2026-04-18T09:33:02.983Z</time></trkpt><trkpt lat="42.1049143" lon="13.5589984"><ele>1823.2857142857142</ele><time>2026-04-18T09:33:09.988Z</time></trkpt><trkpt lat="42.1049753" lon="13.5589755"><ele>1823.7142857142858</ele><time>2026-04-18T09:33:16.958Z</time></trkpt><trkpt lat="42.1050412" lon="13.5590179"><ele>1824.1428571428573</ele><time>2026-04-18T09:33:21.982Z</time></trkpt><trkpt lat="42.1050917" lon="13.5590798"><ele>1824.5714285714284</ele><time>2026-04-18T09:33:26.989Z</time></trkpt><trkpt lat="42.1050568" lon="13.5591565"><ele>1825.0</ele><time>2026-04-18T09:33:34.01Z</time></trkpt><trkpt lat="42.1051203" lon="13.5591779"><ele>1825.0</ele><time>2026-04-18T09:34:16.995Z</time></trkpt><trkpt lat="42.10518" lon="13.5592203"><ele>1825.0</ele><time>2026-04-18T09:34:21.99Z</time></trkpt><trkpt lat="42.1052427" lon="13.559251"><ele>1825.0</ele><time>2026-04-18T09:34:26.888Z</time></trkpt><trkpt lat="42.1053083" lon="13.5592637"><ele>1825.0</ele><time>2026-04-18T09:34:32.896Z</time></trkpt><trkpt lat="42.1053746" lon="13.5592714"><ele>1825.0</ele><time>2026-04-18T09:34:39.987Z</time></trkpt><trkpt lat="42.105438" lon="13.5593081"><ele>1825.0</ele><time>2026-04-18T09:34:46.988Z</time></trkpt><trkpt lat="42.1055076" lon="13.5593277"><ele>1825.0</ele><time>2026-04-18T09:34:53.98Z</time></trkpt><trkpt lat="42.1055707" lon="13.5593456"><ele>1825.0</ele><time>2026-04-18T09:35:01.987Z</time></trkpt><trkpt lat="42.1056353" lon="13.5593591"><ele>1825.0</ele><time>2026-04-18T09:35:44.042Z</time></trkpt><trkpt lat="42.105703" lon="13.559358"><ele>1825.0</ele><time>2026-04-18T09:35:49.987Z</time></trkpt><trkpt lat="42.1057702" lon="13.5593667"><ele>1825.0</ele><time>2026-04-18T09:35:56.983Z</time></trkpt><trkpt lat="42.1058359" lon="13.5593764"><ele>1825.0</ele><time>2026-04-18T09:36:04.022Z</time></trkpt><trkpt lat="42.1059087" lon="13.5593747"><ele>1825.0</ele><time>2026-04-18T09:36:16.998Z</time></trkpt><trkpt lat="42.1059814" lon="13.5593735"><ele>1825.0</ele><time>2026-04-18T09:36:33.995Z</time></trkpt><trkpt lat="42.106052" lon="13.5593869"><ele>1825.7142857142858</ele><time>2026-04-18T09:36:42.022Z</time></trkpt><trkpt lat="42.1061176" lon="13.5593782"><ele>1826.4285714285716</ele><time>2026-04-18T09:37:00.989Z</time></trkpt><trkpt lat="42.1061513" lon="13.5594502"><ele>1827.1428571428573</ele><time>2026-04-18T09:37:06.986Z</time></trkpt><trkpt lat="42.1062028" lon="13.5595053"><ele>1827.857142857143</ele><time>2026-04-18T09:37:14.026Z</time></trkpt><trkpt lat="42.1062557" lon="13.5595632"><ele>1828.571428571429</ele><time>2026-04-18T09:37:22.953Z</time></trkpt><trkpt lat="42.1062905" lon="13.5596352"><ele>1829.2857142857144</ele><time>2026-04-18T09:37:31.984Z</time></trkpt><trkpt lat="42.1063263" lon="13.5597196"><ele>1830.0</ele><time>2026-04-18T09:37:41.915Z</time></trkpt><trkpt lat="42.1063645" lon="13.5597995"><ele>1831.1428571428573</ele><time>2026-04-18T09:37:51.989Z</time></trkpt><trkpt lat="42.1063997" lon="13.559874"><ele>1832.2857142857144</ele><time>2026-04-18T09:37:59.895Z</time></trkpt><trkpt lat="42.1064536" lon="13.5599372"><ele>1833.4285714285716</ele><time>2026-04-18T09:38:08.983Z</time></trkpt><trkpt lat="42.1064953" lon="13.5600071"><ele>1834.5714285714284</ele><time>2026-04-18T09:38:17.994Z</time></trkpt><trkpt lat="42.1065246" lon="13.5600927"><ele>1835.7142857142856</ele><time>2026-04-18T09:38:26.985Z</time></trkpt><trkpt lat="42.1065654" lon="13.5601628"><ele>1836.8571428571427</ele><time>2026-04-18T09:38:34.993Z</time></trkpt><trkpt lat="42.1065995" lon="13.5602419"><ele>1838.0</ele><time>2026-04-18T09:38:43.985Z</time></trkpt><trkpt lat="42.1066059" lon="13.5603289"><ele>1839.142857142857</ele><time>2026-04-18T09:38:52.995Z</time></trkpt><trkpt lat="42.1066712" lon="13.5603214"><ele>1840.2857142857142</ele><time>2026-04-18T09:38:59.972Z</time></trkpt><trkpt lat="42.1067363" lon="13.5603459"><ele>1841.4285714285713</ele><time>2026-04-18T09:39:09.993Z</time></trkpt><trkpt lat="42.1067806" lon="13.5604224"><ele>1842.5714285714284</ele><time>2026-04-18T09:39:19.011Z</time></trkpt><trkpt lat="42.1068426" lon="13.5603827"><ele>1843.7142857142858</ele><time>2026-04-18T09:41:21.983Z</time></trkpt><trkpt lat="42.1069064" lon="13.5603944"><ele>1844.8571428571427</ele><time>2026-04-18T09:41:28.99Z</time></trkpt><trkpt lat="42.1069743" lon="13.5604149"><ele>1846.0</ele><time>2026-04-18T09:41:36.016Z</time></trkpt><trkpt lat="42.1070371" lon="13.5603864"><ele>1846.0</ele><time>2026-04-18T09:41:43.984Z</time></trkpt><trkpt lat="42.107101" lon="13.5604085"><ele>1846.0</ele><time>2026-04-18T09:41:53.991Z</time></trkpt><trkpt lat="42.1071403" lon="13.5603383"><ele>1846.0</ele><time>2026-04-18T09:44:58.983Z</time></trkpt><trkpt lat="42.1072073" lon="13.5603103"><ele>1846.0</ele><time>2026-04-18T09:45:05.983Z</time></trkpt><trkpt lat="42.1072692" lon="13.5602753"><ele>1846.0</ele><time>2026-04-18T09:45:12.99Z</time></trkpt><trkpt lat="42.1073369" lon="13.5602516"><ele>1846.0</ele><time>2026-04-18T09:45:19.99Z</time></trkpt><trkpt lat="42.1074041" lon="13.5602371"><ele>1846.0</ele><time>2026-04-18T09:45:26.983Z</time></trkpt><trkpt lat="42.10747" lon="13.5602292"><ele>1844.8571428571427</ele><time>2026-04-18T09:45:33.988Z</time></trkpt><trkpt lat="42.1075361" lon="13.5601843"><ele>1843.7142857142858</ele><time>2026-04-18T09:45:47.995Z</time></trkpt><trkpt lat="42.1075648" lon="13.560104"><ele>1842.5714285714284</ele><time>2026-04-18T09:45:57.984Z</time></trkpt><trkpt lat="42.1075481" lon="13.5600217"><ele>1841.4285714285713</ele><time>2026-04-18T09:46:03.992Z</time></trkpt><trkpt lat="42.1075533" lon="13.5599282"><ele>1840.2857142857142</ele><time>2026-04-18T09:46:10.993Z</time></trkpt><trkpt lat="42.1075931" lon="13.5598597"><ele>1839.142857142857</ele><time>2026-04-18T09:46:17.919Z</time></trkpt><trkpt lat="42.1076503" lon="13.5598103"><ele>1838.0</ele><time>2026-04-18T09:46:25.983Z</time></trkpt><trkpt lat="42.1077026" lon="13.5597486"><ele>1838.0</ele><time>2026-04-18T09:46:32.975Z</time></trkpt><trkpt lat="42.10777" lon="13.5597173"><ele>1837.9999999999998</ele><time>2026-04-18T09:46:40.932Z</time></trkpt><trkpt lat="42.1078303" lon="13.5596705"><ele>1838.0</ele><time>2026-04-18T09:46:49.014Z</time></trkpt><trkpt lat="42.1078744" lon="13.5595969"><ele>1838.0</ele><time>2026-04-18T09:46:56.984Z</time></trkpt><trkpt lat="42.1079251" lon="13.5595355"><ele>1837.9999999999998</ele><time>2026-04-18T09:47:06.013Z</time></trkpt><trkpt lat="42.107993" lon="13.5595536"><ele>1838.0</ele><time>2026-04-18T09:47:44.988Z</time></trkpt><trkpt lat="42.1080575" lon="13.5595299"><ele>1838.0</ele><time>2026-04-18T09:47:51.009Z</time></trkpt><trkpt lat="42.1081205" lon="13.5595149"><ele>1837.7142857142856</ele><time>2026-04-18T09:47:59.988Z</time></trkpt><trkpt lat="42.1081836" lon="13.5594987"><ele>1837.428571428571</ele><time>2026-04-18T09:48:06.998Z</time></trkpt><trkpt lat="42.1082423" lon="13.5595333"><ele>1837.142857142857</ele><time>2026-04-18T09:48:14.008Z</time></trkpt><trkpt lat="42.1082995" lon="13.5594743"><ele>1836.8571428571427</ele><time>2026-04-18T09:49:58.986Z</time></trkpt><trkpt lat="42.1083351" lon="13.5594009"><ele>1836.5714285714284</ele><time>2026-04-18T09:50:04.007Z</time></trkpt><trkpt lat="42.1083768" lon="13.5593262"><ele>1836.2857142857142</ele><time>2026-04-18T09:50:10.874Z</time></trkpt><trkpt lat="42.1084358" lon="13.5592761"><ele>1836.0</ele><time>2026-04-18T09:50:17.819Z</time></trkpt><trkpt lat="42.1084903" lon="13.5592304"><ele>1832.2857142857142</ele><time>2026-04-18T09:50:24.024Z</time></trkpt><trkpt lat="42.1085529" lon="13.5591892"><ele>1828.5714285714284</ele><time>2026-04-18T09:50:31.99Z</time></trkpt><trkpt lat="42.1086248" lon="13.5591891"><ele>1824.8571428571427</ele><time>2026-04-18T09:50:42.028Z</time></trkpt><trkpt lat="42.1086922" lon="13.5591669"><ele>1821.142857142857</ele><time>2026-04-18T09:50:48.985Z</time></trkpt><trkpt lat="42.1087406" lon="13.5591115"><ele>1817.428571428571</ele><time>2026-04-18T09:50:55.003Z</time></trkpt><trkpt lat="42.1087669" lon="13.559032"><ele>1813.7142857142856</ele><time>2026-04-18T09:51:01.897Z</time></trkpt><trkpt lat="42.1088231" lon="13.5589863"><ele>1810.0</ele><time>2026-04-18T09:51:09.989Z</time></trkpt><trkpt lat="42.1088747" lon="13.5589356"><ele>1810.0</ele><time>2026-04-18T09:51:18.988Z</time></trkpt><trkpt lat="42.1089422" lon="13.5589435"><ele>1809.9999999999998</ele><time>2026-04-18T09:51:26.99Z</time></trkpt><trkpt lat="42.1090082" lon="13.5589037"><ele>1810.0</ele><time>2026-04-18T09:51:35.019Z</time></trkpt><trkpt lat="42.1090763" lon="13.5588748"><ele>1810.0</ele><time>2026-04-18T09:51:45.995Z</time></trkpt><trkpt lat="42.1091403" lon="13.5588475"><ele>1809.9999999999998</ele><time>2026-04-18T09:51:57.985Z</time></trkpt><trkpt lat="42.1091846" lon="13.5589189"><ele>1810.0</ele><time>2026-04-18T09:52:08.984Z</time></trkpt><trkpt lat="42.1092456" lon="13.5588952"><ele>1810.0</ele><time>2026-04-18T09:52:16.987Z</time></trkpt><trkpt lat="42.1093155" lon="13.5589021"><ele>1806.0</ele><time>2026-04-18T09:52:27.032Z</time></trkpt><trkpt lat="42.1093795" lon="13.5589348"><ele>1801.9999999999998</ele><time>2026-04-18T09:52:35.982Z</time></trkpt><trkpt lat="42.1094481" lon="13.5589479"><ele>1798.0</ele><time>2026-04-18T09:52:42.977Z</time></trkpt><trkpt lat="42.1095137" lon="13.5589692"><ele>1794.0</ele><time>2026-04-18T09:52:49.983Z</time></trkpt><trkpt lat="42.1095731" lon="13.5590135"><ele>1790.0</ele><time>2026-04-18T09:52:56.897Z</time></trkpt><trkpt lat="42.1096289" lon="13.5590647"><ele>1786.0</ele><time>2026-04-18T09:53:03.99Z</time></trkpt><trkpt lat="42.1096853" lon="13.5591047"><ele>1782.0</ele><time>2026-04-18T09:53:09.984Z</time></trkpt><trkpt lat="42.1097452" lon="13.5591526"><ele>1782.0000000000002</ele><time>2026-04-18T09:53:16.011Z</time></trkpt><trkpt lat="42.1098035" lon="13.5591943"><ele>1782.0</ele><time>2026-04-18T09:53:21.988Z</time></trkpt><trkpt lat="42.1098478" lon="13.5592658"><ele>1782.0</ele><time>2026-04-18T09:53:28.99Z</time></trkpt><trkpt lat="42.1098441" lon="13.559356"><ele>1782.0</ele><time>2026-04-18T09:53:36.996Z</time></trkpt><trkpt lat="42.1098999" lon="13.5592999"><ele>1782.0</ele><time>2026-04-18T09:55:18.987Z</time></trkpt><trkpt lat="42.1099717" lon="13.5592933"><ele>1782.0000000000002</ele><time>2026-04-18T09:55:29.989Z</time></trkpt><trkpt lat="42.1100408" lon="13.5592801"><ele>1782.0</ele><time>2026-04-18T09:55:35.984Z</time></trkpt><trkpt lat="42.1101035" lon="13.559288"><ele>1781.4285714285716</ele><time>2026-04-18T09:55:43.014Z</time></trkpt><trkpt lat="42.1101683" lon="13.5592785"><ele>1780.857142857143</ele><time>2026-04-18T09:56:13.991Z</time></trkpt><trkpt lat="42.1102314" lon="13.5592746"><ele>1780.2857142857142</ele><time>2026-04-18T09:56:19.872Z</time></trkpt><trkpt lat="42.1103041" lon="13.5592793"><ele>1779.7142857142858</ele><time>2026-04-18T09:56:26.83Z</time></trkpt><trkpt lat="42.110373" lon="13.5592515"><ele>1779.142857142857</ele><time>2026-04-18T09:56:34.006Z</time></trkpt><trkpt lat="42.110444" lon="13.5592538"><ele>1778.5714285714287</ele><time>2026-04-18T09:56:41.979Z</time></trkpt><trkpt lat="42.1105049" lon="13.5592047"><ele>1778.0</ele><time>2026-04-18T09:56:48.993Z</time></trkpt><trkpt lat="42.1105665" lon="13.5591796"><ele>1778.0</ele><time>2026-04-18T09:56:55.99Z</time></trkpt><trkpt lat="42.1106339" lon="13.5591672"><ele>1778.0</ele><time>2026-04-18T09:57:02.988Z</time></trkpt><trkpt lat="42.1107001" lon="13.5591519"><ele>1778.0</ele><time>2026-04-18T09:57:09.045Z</time></trkpt><trkpt lat="42.1107588" lon="13.5590938"><ele>1778.0</ele><time>2026-04-18T09:57:15.933Z</time></trkpt><trkpt lat="42.1108193" lon="13.559041"><ele>1778.0</ele><time>2026-04-18T09:57:22.992Z</time></trkpt><trkpt lat="42.1108698" lon="13.5589881"><ele>1778.0</ele><time>2026-04-18T09:57:29.059Z</time></trkpt><trkpt lat="42.1109238" lon="13.558942"><ele>1778.0</ele><time>2026-04-18T09:57:36.061Z</time></trkpt><trkpt lat="42.110986" lon="13.5589053"><ele>1777.0</ele><time>2026-04-18T09:57:43Z</time></trkpt><trkpt lat="42.1110405" lon="13.5588464"><ele>1776.0</ele><time>2026-04-18T09:57:49.988Z</time></trkpt><trkpt lat="42.1111011" lon="13.5587955"><ele>1775.0</ele><time>2026-04-18T09:57:56.989Z</time></trkpt><trkpt lat="42.1111615" lon="13.5587448"><ele>1774.0</ele><time>2026-04-18T09:58:04.021Z</time></trkpt><trkpt lat="42.1112252" lon="13.5587144"><ele>1773.0</ele><time>2026-04-18T09:58:11.984Z</time></trkpt><trkpt lat="42.1112876" lon="13.5586698"><ele>1772.0</ele><time>2026-04-18T09:58:19.006Z</time></trkpt><trkpt lat="42.1113345" lon="13.5586041"><ele>1771.0</ele><time>2026-04-18T09:58:27.986Z</time></trkpt><trkpt lat="42.1113947" lon="13.558577"><ele>1769.2857142857142</ele><time>2026-04-18T09:59:38.99Z</time></trkpt><trkpt lat="42.1114514" lon="13.5585352"><ele>1767.5714285714284</ele><time>2026-04-18T10:01:48.985Z</time></trkpt><trkpt lat="42.1114661" lon="13.5584394"><ele>1765.857142857143</ele><time>2026-04-18T10:01:55.987Z</time></trkpt><trkpt lat="42.1115131" lon="13.5583769"><ele>1764.142857142857</ele><time>2026-04-18T10:02:01.99Z</time></trkpt><trkpt lat="42.111536" lon="13.5582975"><ele>1762.4285714285713</ele><time>2026-04-18T10:02:07.976Z</time></trkpt><trkpt lat="42.1115743" lon="13.5582259"><ele>1760.7142857142858</ele><time>2026-04-18T10:02:14.988Z</time></trkpt><trkpt lat="42.1116117" lon="13.55815"><ele>1759.0</ele><time>2026-04-18T10:02:21.976Z</time></trkpt><trkpt lat="42.1116333" lon="13.5580609"><ele>1757.4285714285716</ele><time>2026-04-18T10:02:28.989Z</time></trkpt><trkpt lat="42.111661" lon="13.557978"><ele>1755.8571428571427</ele><time>2026-04-18T10:02:35.991Z</time></trkpt><trkpt lat="42.1116849" lon="13.5578878"><ele>1754.2857142857142</ele><time>2026-04-18T10:02:43.022Z</time></trkpt><trkpt lat="42.1117044" lon="13.5578056"><ele>1752.7142857142858</ele><time>2026-04-18T10:02:49.987Z</time></trkpt><trkpt lat="42.1117457" lon="13.5577267"><ele>1751.1428571428573</ele><time>2026-04-18T10:02:57.002Z</time></trkpt><trkpt lat="42.1117869" lon="13.5576503"><ele>1749.5714285714284</ele><time>2026-04-18T10:03:23.985Z</time></trkpt><trkpt lat="42.1118026" lon="13.557566"><ele>1748.0</ele><time>2026-04-18T10:03:29.989Z</time></trkpt><trkpt lat="42.1118167" lon="13.5574781"><ele>1745.7142857142856</ele><time>2026-04-18T10:03:36.96Z</time></trkpt><trkpt lat="42.1118513" lon="13.5574013"><ele>1743.4285714285716</ele><time>2026-04-18T10:03:42.985Z</time></trkpt><trkpt lat="42.1118929" lon="13.5573265"><ele>1741.142857142857</ele><time>2026-04-18T10:03:49.918Z</time></trkpt><trkpt lat="42.1119054" lon="13.5572266"><ele>1738.8571428571427</ele><time>2026-04-18T10:03:56.988Z</time></trkpt><trkpt lat="42.1119435" lon="13.5571448"><ele>1736.5714285714284</ele><time>2026-04-18T10:04:03.987Z</time></trkpt><trkpt lat="42.1119681" lon="13.557061"><ele>1734.2857142857142</ele><time>2026-04-18T10:04:10.035Z</time></trkpt><trkpt lat="42.1119953" lon="13.5569808"><ele>1732.0</ele><time>2026-04-18T10:04:16.988Z</time></trkpt><trkpt lat="42.1120162" lon="13.5568864"><ele>1730.5714285714284</ele><time>2026-04-18T10:04:23.957Z</time></trkpt><trkpt lat="42.1120258" lon="13.5567925"><ele>1729.142857142857</ele><time>2026-04-18T10:04:30.984Z</time></trkpt><trkpt lat="42.112057" lon="13.5567173"><ele>1727.7142857142858</ele><time>2026-04-18T10:04:36.986Z</time></trkpt><trkpt lat="42.1121029" lon="13.5566509"><ele>1726.2857142857142</ele><time>2026-04-18T10:04:43.006Z</time></trkpt><trkpt lat="42.1121334" lon="13.5565763"><ele>1724.857142857143</ele><time>2026-04-18T10:04:48.895Z</time></trkpt><trkpt lat="42.1121489" lon="13.5564919"><ele>1723.4285714285713</ele><time>2026-04-18T10:04:54.985Z</time></trkpt><trkpt lat="42.1121587" lon="13.5564026"><ele>1722.0</ele><time>2026-04-18T10:05:01.041Z</time></trkpt><trkpt lat="42.1121386" lon="13.5563092"><ele>1722.0</ele><time>2026-04-18T10:05:14.056Z</time></trkpt><trkpt lat="42.1121745" lon="13.5562351"><ele>1722.0</ele><time>2026-04-18T10:05:18.007Z</time></trkpt><trkpt lat="42.1121763" lon="13.5561365"><ele>1722.0</ele><time>2026-04-18T10:05:24.975Z</time></trkpt><trkpt lat="42.1121716" lon="13.5560426"><ele>1722.0</ele><time>2026-04-18T10:05:31.914Z</time></trkpt><trkpt lat="42.1121673" lon="13.5559522"><ele>1722.0</ele><time>2026-04-18T10:05:39.986Z</time></trkpt><trkpt lat="42.1121734" lon="13.555864"><ele>1722.0</ele><time>2026-04-18T10:05:46.96Z</time></trkpt><trkpt lat="42.1121844" lon="13.5557695"><ele>1722.0</ele><time>2026-04-18T10:05:54.012Z</time></trkpt><trkpt lat="42.1122102" lon="13.555684"><ele>1720.7142857142858</ele><time>2026-04-18T10:06:00.985Z</time></trkpt><trkpt lat="42.1122221" lon="13.5555916"><ele>1719.4285714285716</ele><time>2026-04-18T10:06:07.991Z</time></trkpt><trkpt lat="42.112233" lon="13.555498"><ele>1718.142857142857</ele><time>2026-04-18T10:06:14.962Z</time></trkpt><trkpt lat="42.1122578" lon="13.5554131"><ele>1716.857142857143</ele><time>2026-04-18T10:06:21.985Z</time></trkpt><trkpt lat="42.1123115" lon="13.5553613"><ele>1715.5714285714287</ele><time>2026-04-18T10:06:28.006Z</time></trkpt><trkpt lat="42.1123671" lon="13.5553173"><ele>1714.2857142857142</ele><time>2026-04-18T10:06:33.983Z</time></trkpt><trkpt lat="42.112402" lon="13.5552407"><ele>1713.0</ele><time>2026-04-18T10:06:40.986Z</time></trkpt><trkpt lat="42.1124443" lon="13.5551672"><ele>1710.7142857142856</ele><time>2026-04-18T10:06:48.021Z</time></trkpt><trkpt lat="42.1124883" lon="13.5550916"><ele>1708.4285714285716</ele><time>2026-04-18T10:06:55.016Z</time></trkpt><trkpt lat="42.1125235" lon="13.5550167"><ele>1706.142857142857</ele><time>2026-04-18T10:07:00.994Z</time></trkpt><trkpt lat="42.1125578" lon="13.554935"><ele>1703.8571428571427</ele><time>2026-04-18T10:07:07.983Z</time></trkpt><trkpt lat="42.1125953" lon="13.5548636"><ele>1701.5714285714284</ele><time>2026-04-18T10:07:13.981Z</time></trkpt><trkpt lat="42.112623" lon="13.5547796"><ele>1699.2857142857142</ele><time>2026-04-18T10:07:21.037Z</time></trkpt><trkpt lat="42.1126714" lon="13.5547212"><ele>1697.0</ele><time>2026-04-18T10:07:27.984Z</time></trkpt><trkpt lat="42.1127352" lon="13.5546734"><ele>1696.9999999999998</ele><time>2026-04-18T10:07:34.912Z</time></trkpt><trkpt lat="42.1127494" lon="13.5545788"><ele>1697.0</ele><time>2026-04-18T10:07:41.985Z</time></trkpt><trkpt lat="42.1127597" lon="13.5544835"><ele>1697.0</ele><time>2026-04-18T10:07:48.987Z</time></trkpt><trkpt lat="42.1128053" lon="13.5544114"><ele>1697.0</ele><time>2026-04-18T10:07:55.855Z</time></trkpt><trkpt lat="42.1128484" lon="13.5543385"><ele>1697.0</ele><time>2026-04-18T10:08:03.984Z</time></trkpt><trkpt lat="42.1128494" lon="13.5542433"><ele>1696.9999999999998</ele><time>2026-04-18T10:08:10.993Z</time></trkpt><trkpt lat="42.112875" lon="13.5541501"><ele>1697.0</ele><time>2026-04-18T10:08:27.894Z</time></trkpt><trkpt lat="42.1128673" lon="13.5540447"><ele>1695.4285714285713</ele><time>2026-04-18T10:08:33.985Z</time></trkpt><trkpt lat="42.1128675" lon="13.5539565"><ele>1693.857142857143</ele><time>2026-04-18T10:08:39.988Z</time></trkpt><trkpt lat="42.1128875" lon="13.5538723"><ele>1692.2857142857142</ele><time>2026-04-18T10:08:46.998Z</time></trkpt><trkpt lat="42.112901" lon="13.5537791"><ele>1690.7142857142858</ele><time>2026-04-18T10:08:54.984Z</time></trkpt><trkpt lat="42.112928" lon="13.553686"><ele>1689.142857142857</ele><time>2026-04-18T10:09:02.03Z</time></trkpt><trkpt lat="42.112995" lon="13.5536443"><ele>1687.5714285714284</ele><time>2026-04-18T10:09:10.03Z</time></trkpt><trkpt lat="42.1130568" lon="13.5535916"><ele>1686.0</ele><time>2026-04-18T10:09:15.988Z</time></trkpt><trkpt lat="42.1131245" lon="13.5535887"><ele>1683.857142857143</ele><time>2026-04-18T10:09:33.985Z</time></trkpt><trkpt lat="42.1131696" lon="13.5535173"><ele>1681.7142857142858</ele><time>2026-04-18T10:09:38.996Z</time></trkpt><trkpt lat="42.1131815" lon="13.5534168"><ele>1679.5714285714284</ele><time>2026-04-18T10:09:44.026Z</time></trkpt><trkpt lat="42.1132172" lon="13.5533368"><ele>1677.4285714285716</ele><time>2026-04-18T10:09:50.989Z</time></trkpt><trkpt lat="42.1132451" lon="13.5532435"><ele>1675.2857142857144</ele><time>2026-04-18T10:09:58.005Z</time></trkpt><trkpt lat="42.1133015" lon="13.5531975"><ele>1673.142857142857</ele><time>2026-04-18T10:10:03.986Z</time></trkpt><trkpt lat="42.1133686" lon="13.5531635"><ele>1671.0</ele><time>2026-04-18T10:10:09.986Z</time></trkpt><trkpt lat="42.1134265" lon="13.5531033"><ele>1671.0</ele><time>2026-04-18T10:10:16.007Z</time></trkpt><trkpt lat="42.1134757" lon="13.5530409"><ele>1671.0</ele><time>2026-04-18T10:10:21.986Z</time></trkpt><trkpt lat="42.1135191" lon="13.5529751"><ele>1671.0</ele><time>2026-04-18T10:10:28.988Z</time></trkpt><trkpt lat="42.1135729" lon="13.5529112"><ele>1671.0</ele><time>2026-04-18T10:10:36.022Z</time></trkpt><trkpt lat="42.1136109" lon="13.5528356"><ele>1671.0</ele><time>2026-04-18T10:10:42.795Z</time></trkpt><trkpt lat="42.1136687" lon="13.55278"><ele>1671.0</ele><time>2026-04-18T10:10:49.916Z</time></trkpt><trkpt lat="42.1137357" lon="13.5527573"><ele>1671.0</ele><time>2026-04-18T10:10:56.031Z</time></trkpt><trkpt lat="42.1137964" lon="13.5527206"><ele>1669.0</ele><time>2026-04-18T10:11:01.985Z</time></trkpt><trkpt lat="42.1138512" lon="13.5526532"><ele>1667.0</ele><time>2026-04-18T10:11:08.004Z</time></trkpt><trkpt lat="42.1138867" lon="13.5525814"><ele>1665.0</ele><time>2026-04-18T10:11:13.986Z</time></trkpt><trkpt lat="42.1139535" lon="13.5525571"><ele>1663.0</ele><time>2026-04-18T10:11:19.986Z</time></trkpt><trkpt lat="42.1140133" lon="13.5525026"><ele>1661.0</ele><time>2026-04-18T10:11:26.007Z</time></trkpt><trkpt lat="42.1140646" lon="13.5524504"><ele>1659.0</ele><time>2026-04-18T10:11:31.989Z</time></trkpt><trkpt lat="42.114132" lon="13.5524114"><ele>1657.0</ele><time>2026-04-18T10:11:46.99Z</time></trkpt><trkpt lat="42.1141844" lon="13.5523433"><ele>1656.857142857143</ele><time>2026-04-18T10:11:52.989Z</time></trkpt><trkpt lat="42.1142381" lon="13.5522826"><ele>1656.7142857142858</ele><time>2026-04-18T10:11:58.995Z</time></trkpt><trkpt lat="42.1143019" lon="13.5522425"><ele>1656.5714285714287</ele><time>2026-04-18T10:12:04.895Z</time></trkpt><trkpt lat="42.1143572" lon="13.5521875"><ele>1656.4285714285716</ele><time>2026-04-18T10:12:10.952Z</time></trkpt><trkpt lat="42.1144121" lon="13.552132"><ele>1656.2857142857142</ele><time>2026-04-18T10:12:17.035Z</time></trkpt><trkpt lat="42.1144612" lon="13.5520754"><ele>1656.1428571428573</ele><time>2026-04-18T10:12:23.039Z</time></trkpt><trkpt lat="42.114501" lon="13.5520057"><ele>1656.0</ele><time>2026-04-18T10:12:28.987Z</time></trkpt><trkpt lat="42.1145457" lon="13.5519335"><ele>1654.0000000000002</ele><time>2026-04-18T10:12:35.002Z</time></trkpt><trkpt lat="42.1145832" lon="13.5518623"><ele>1652.0</ele><time>2026-04-18T10:12:40.871Z</time></trkpt><trkpt lat="42.1146457" lon="13.5518395"><ele>1650.0</ele><time>2026-04-18T10:12:46.99Z</time></trkpt><trkpt lat="42.1146983" lon="13.551776"><ele>1648.0</ele><time>2026-04-18T10:13:00.982Z</time></trkpt><trkpt lat="42.1147554" lon="13.5517377"><ele>1646.0</ele><time>2026-04-18T10:13:05.973Z</time></trkpt><trkpt lat="42.1148042" lon="13.5516836"><ele>1644.0000000000002</ele><time>2026-04-18T10:13:12.045Z</time></trkpt><trkpt lat="42.1148695" lon="13.5516587"><ele>1642.0</ele><time>2026-04-18T10:13:18.898Z</time></trkpt><trkpt lat="42.1149374" lon="13.5516608"><ele>1642.0000000000002</ele><time>2026-04-18T10:13:26.039Z</time></trkpt><trkpt lat="42.1150025" lon="13.5516241"><ele>1642.0</ele><time>2026-04-18T10:13:32.988Z</time></trkpt><trkpt lat="42.1150602" lon="13.5515898"><ele>1642.0</ele><time>2026-04-18T10:13:39.986Z</time></trkpt><trkpt lat="42.1151233" lon="13.5515546"><ele>1642.0</ele><time>2026-04-18T10:13:46.958Z</time></trkpt><trkpt lat="42.1151493" lon="13.5514646"><ele>1642.0</ele><time>2026-04-18T10:13:53.958Z</time></trkpt><trkpt lat="42.1151867" lon="13.551384"><ele>1642.0000000000002</ele><time>2026-04-18T10:14:02.036Z</time></trkpt><trkpt lat="42.115227" lon="13.551305"><ele>1642.0</ele><time>2026-04-18T10:14:09.929Z</time></trkpt><trkpt lat="42.1152636" lon="13.5512331"><ele>1639.4285714285716</ele><time>2026-04-18T10:14:17.99Z</time></trkpt><trkpt lat="42.1152761" lon="13.5511358"><ele>1636.857142857143</ele><time>2026-04-18T10:14:27.018Z</time></trkpt><trkpt lat="42.1153136" lon="13.5510562"><ele>1634.2857142857142</ele><time>2026-04-18T10:14:34.989Z</time></trkpt><trkpt lat="42.1153505" lon="13.5509791"><ele>1631.7142857142858</ele><time>2026-04-18T10:14:42.028Z</time></trkpt><trkpt lat="42.1153842" lon="13.5509048"><ele>1629.142857142857</ele><time>2026-04-18T10:14:50.986Z</time></trkpt><trkpt lat="42.1154218" lon="13.5508181"><ele>1626.5714285714287</ele><time>2026-04-18T10:14:59.025Z</time></trkpt><trkpt lat="42.1154481" lon="13.5507288"><ele>1624.0</ele><time>2026-04-18T10:15:06.989Z</time></trkpt><trkpt lat="42.1154599" lon="13.5506391"><ele>1624.0</ele><time>2026-04-18T10:15:14.01Z</time></trkpt><trkpt lat="42.1154889" lon="13.5505567"><ele>1624.0</ele><time>2026-04-18T10:15:20.935Z</time></trkpt><trkpt lat="42.1155379" lon="13.5504845"><ele>1624.0</ele><time>2026-04-18T10:15:27.989Z</time></trkpt><trkpt lat="42.1155608" lon="13.5503944"><ele>1624.0</ele><time>2026-04-18T10:15:35.971Z</time></trkpt><trkpt lat="42.1155811" lon="13.5503087"><ele>1624.0</ele><time>2026-04-18T10:15:41.99Z</time></trkpt><trkpt lat="42.1156065" lon="13.5502267"><ele>1624.0</ele><time>2026-04-18T10:15:48.004Z</time></trkpt><trkpt lat="42.1156287" lon="13.5501437"><ele>1624.0</ele><time>2026-04-18T10:15:54.987Z</time></trkpt><trkpt lat="42.1156047" lon="13.5500543"><ele>1621.142857142857</ele><time>2026-04-18T10:16:01.989Z</time></trkpt><trkpt lat="42.115601" lon="13.5499545"><ele>1618.2857142857142</ele><time>2026-04-18T10:16:08.985Z</time></trkpt><trkpt lat="42.1156152" lon="13.5498622"><ele>1615.4285714285716</ele><time>2026-04-18T10:16:16.051Z</time></trkpt><trkpt lat="42.1156394" lon="13.5497829"><ele>1612.5714285714284</ele><time>2026-04-18T10:16:23.005Z</time></trkpt><trkpt lat="42.115651" lon="13.54969"><ele>1609.7142857142858</ele><time>2026-04-18T10:17:37.987Z</time></trkpt><trkpt lat="42.115668" lon="13.5495902"><ele>1606.857142857143</ele><time>2026-04-18T10:17:45.984Z</time></trkpt><trkpt lat="42.1156415" lon="13.5495081"><ele>1604.0</ele><time>2026-04-18T10:17:53.018Z</time></trkpt><trkpt lat="42.1156204" lon="13.549427"><ele>1601.0</ele><time>2026-04-18T10:18:03.816Z</time></trkpt><trkpt lat="42.11566" lon="13.5493586"><ele>1598.0</ele><time>2026-04-18T10:18:10.976Z</time></trkpt><trkpt lat="42.1156486" lon="13.5492674"><ele>1595.0</ele><time>2026-04-18T10:18:22.989Z</time></trkpt><trkpt lat="42.1155881" lon="13.5492434"><ele>1592.0</ele><time>2026-04-18T10:18:29.934Z</time></trkpt><trkpt lat="42.1155241" lon="13.5492611"><ele>1589.0</ele><time>2026-04-18T10:18:43.915Z</time></trkpt><trkpt lat="42.1154417" lon="13.5492068"><ele>1586.0</ele><time>2026-04-18T10:19:06.935Z</time></trkpt><trkpt lat="42.1154368" lon="13.5491173"><ele>1583.0</ele><time>2026-04-18T10:19:14.986Z</time></trkpt><trkpt lat="42.1153935" lon="13.549054"><ele>1583.0</ele><time>2026-04-18T10:19:21.987Z</time></trkpt><trkpt lat="42.1153282" lon="13.5490282"><ele>1583.0</ele><time>2026-04-18T10:19:29.987Z</time></trkpt><trkpt lat="42.1152766" lon="13.5489738"><ele>1583.0</ele><time>2026-04-18T10:19:40.89Z</time></trkpt><trkpt lat="42.115221" lon="13.5489318"><ele>1583.0</ele><time>2026-04-18T10:20:30.989Z</time></trkpt><trkpt lat="42.1151571" lon="13.5488974"><ele>1583.0</ele><time>2026-04-18T10:20:38.987Z</time></trkpt><trkpt lat="42.1151116" lon="13.5488278"><ele>1583.0</ele><time>2026-04-18T10:20:50.031Z</time></trkpt><trkpt lat="42.1150463" lon="13.5487722"><ele>1583.0</ele><time>2026-04-18T10:21:22.015Z</time></trkpt><trkpt lat="42.1149901" lon="13.548732"><ele>1580.7142857142858</ele><time>2026-04-18T10:21:28.988Z</time></trkpt><trkpt lat="42.1149299" lon="13.5486901"><ele>1578.4285714285716</ele><time>2026-04-18T10:21:37Z</time></trkpt><trkpt lat="42.1148748" lon="13.5486304"><ele>1576.142857142857</ele><time>2026-04-18T10:21:48.039Z</time></trkpt><trkpt lat="42.1148437" lon="13.5485554"><ele>1573.857142857143</ele><time>2026-04-18T10:21:56.987Z</time></trkpt><trkpt lat="42.1147811" lon="13.5485207"><ele>1571.5714285714284</ele><time>2026-04-18T10:22:24.987Z</time></trkpt><trkpt lat="42.1147242" lon="13.5484772"><ele>1569.2857142857142</ele><time>2026-04-18T10:22:31.009Z</time></trkpt><trkpt lat="42.1146631" lon="13.5484381"><ele>1567.0</ele><time>2026-04-18T10:22:38.034Z</time></trkpt><trkpt lat="42.1146021" lon="13.5484617"><ele>1564.857142857143</ele><time>2026-04-18T10:22:43.989Z</time></trkpt><trkpt lat="42.1145368" lon="13.5484535"><ele>1562.7142857142858</ele><time>2026-04-18T10:22:52.029Z</time></trkpt><trkpt lat="42.1144689" lon="13.5484346"><ele>1560.5714285714284</ele><time>2026-04-18T10:22:58.955Z</time></trkpt><trkpt lat="42.1143969" lon="13.5484357"><ele>1558.4285714285716</ele><time>2026-04-18T10:23:05.836Z</time></trkpt><trkpt lat="42.1143287" lon="13.5484228"><ele>1556.2857142857144</ele><time>2026-04-18T10:23:12.854Z</time></trkpt><trkpt lat="42.1142591" lon="13.5484024"><ele>1554.142857142857</ele><time>2026-04-18T10:23:19.816Z</time></trkpt><trkpt lat="42.1141992" lon="13.5483675"><ele>1552.0</ele><time>2026-04-18T10:23:32.012Z</time></trkpt><trkpt lat="42.1141317" lon="13.5483628"><ele>1552.0</ele><time>2026-04-18T10:23:37.992Z</time></trkpt><trkpt lat="42.1140705" lon="13.5483351"><ele>1552.0</ele><time>2026-04-18T10:23:43.988Z</time></trkpt><trkpt lat="42.114076" lon="13.5482502"><ele>1552.0</ele><time>2026-04-18T10:23:53.989Z</time></trkpt><trkpt lat="42.1140069" lon="13.5482472"><ele>1552.0</ele><time>2026-04-18T10:23:59.017Z</time></trkpt><trkpt lat="42.1139333" lon="13.5482721"><ele>1552.0</ele><time>2026-04-18T10:24:03.987Z</time></trkpt><trkpt lat="42.1138666" lon="13.5482676"><ele>1552.0</ele><time>2026-04-18T10:24:10.989Z</time></trkpt><trkpt lat="42.1137935" lon="13.5482516"><ele>1552.0</ele><time>2026-04-18T10:24:18.973Z</time></trkpt><trkpt lat="42.1137315" lon="13.5482249"><ele>1551.5714285714284</ele><time>2026-04-18T10:24:25.015Z</time></trkpt><trkpt lat="42.1136808" lon="13.5481595"><ele>1551.1428571428573</ele><time>2026-04-18T10:24:32.001Z</time></trkpt><trkpt lat="42.1136167" lon="13.5481279"><ele>1550.7142857142858</ele><time>2026-04-18T10:24:48.998Z</time></trkpt><trkpt lat="42.1135651" lon="13.5480765"><ele>1550.2857142857142</ele><time>2026-04-18T10:24:53.913Z</time></trkpt><trkpt lat="42.1134978" lon="13.5480703"><ele>1549.8571428571427</ele><time>2026-04-18T10:24:58.985Z</time></trkpt><trkpt lat="42.1134311" lon="13.5480847"><ele>1549.4285714285716</ele><time>2026-04-18T10:25:03.971Z</time></trkpt><trkpt lat="42.1133649" lon="13.5480387"><ele>1549.0</ele><time>2026-04-18T10:25:10.039Z</time></trkpt><trkpt lat="42.1133233" lon="13.5479617"><ele>1547.2857142857144</ele><time>2026-04-18T10:25:16.995Z</time></trkpt><trkpt lat="42.1133218" lon="13.547866"><ele>1545.5714285714284</ele><time>2026-04-18T10:25:22.898Z</time></trkpt><trkpt lat="42.1133285" lon="13.5477749"><ele>1543.857142857143</ele><time>2026-04-18T10:25:28.874Z</time></trkpt><trkpt lat="42.1133269" lon="13.5476808"><ele>1542.1428571428573</ele><time>2026-04-18T10:25:34.995Z</time></trkpt><trkpt lat="42.1133261" lon="13.5475882"><ele>1540.4285714285716</ele><time>2026-04-18T10:25:40.851Z</time></trkpt><trkpt lat="42.1133386" lon="13.5475045"><ele>1538.7142857142858</ele><time>2026-04-18T10:25:46.985Z</time></trkpt><trkpt lat="42.1133346" lon="13.5474122"><ele>1537.0</ele><time>2026-04-18T10:25:52.987Z</time></trkpt><trkpt lat="42.1133415" lon="13.5473247"><ele>1537.0000000000002</ele><time>2026-04-18T10:25:58.999Z</time></trkpt><trkpt lat="42.1133473" lon="13.5472271"><ele>1537.0</ele><time>2026-04-18T10:26:05.987Z</time></trkpt><trkpt lat="42.1133525" lon="13.5471399"><ele>1537.0</ele><time>2026-04-18T10:26:11.929Z</time></trkpt><trkpt lat="42.1133531" lon="13.5470405"><ele>1537.0</ele><time>2026-04-18T10:26:18.828Z</time></trkpt><trkpt lat="42.1133691" lon="13.5469559"><ele>1537.0</ele><time>2026-04-18T10:26:24.793Z</time></trkpt><trkpt lat="42.1133901" lon="13.5468628"><ele>1537.0000000000002</ele><time>2026-04-18T10:26:31.673Z</time></trkpt><trkpt lat="42.1134145" lon="13.5467825"><ele>1537.0</ele><time>2026-04-18T10:26:37.616Z</time></trkpt><trkpt lat="42.1134539" lon="13.5467071"><ele>1535.0000000000002</ele><time>2026-04-18T10:26:43.985Z</time></trkpt><trkpt lat="42.1134755" lon="13.5466228"><ele>1533.0</ele><time>2026-04-18T10:26:49.993Z</time></trkpt><trkpt lat="42.1134807" lon="13.5465266"><ele>1531.0</ele><time>2026-04-18T10:26:56.986Z</time></trkpt><trkpt lat="42.1135054" lon="13.5464329"><ele>1529.0</ele><time>2026-04-18T10:27:03.993Z</time></trkpt><trkpt lat="42.1134903" lon="13.5463378"><ele>1527.0</ele><time>2026-04-18T10:27:10.008Z</time></trkpt><trkpt lat="42.1134365" lon="13.546292"><ele>1525.0000000000002</ele><time>2026-04-18T10:27:15.937Z</time></trkpt><trkpt lat="42.1133726" lon="13.5462709"><ele>1523.0</ele><time>2026-04-18T10:27:22.017Z</time></trkpt><trkpt lat="42.1133043" lon="13.5462504"><ele>1523.0000000000002</ele><time>2026-04-18T10:27:29.052Z</time></trkpt><trkpt lat="42.1132422" lon="13.5462266"><ele>1523.0</ele><time>2026-04-18T10:27:34.937Z</time></trkpt><trkpt lat="42.1131729" lon="13.5462095"><ele>1523.0</ele><time>2026-04-18T10:27:41.919Z</time></trkpt><trkpt lat="42.1131129" lon="13.5461765"><ele>1523.0</ele><time>2026-04-18T10:27:47.988Z</time></trkpt><trkpt lat="42.1130493" lon="13.5461762"><ele>1523.0</ele><time>2026-04-18T10:27:53.753Z</time></trkpt><trkpt lat="42.1129812" lon="13.5461608"><ele>1523.0000000000002</ele><time>2026-04-18T10:27:59.994Z</time></trkpt><trkpt lat="42.1129163" lon="13.5461645"><ele>1523.0</ele><time>2026-04-18T10:28:06.015Z</time></trkpt><trkpt lat="42.1128496" lon="13.5461574"><ele>1518.857142857143</ele><time>2026-04-18T10:28:12.914Z</time></trkpt><trkpt lat="42.1127878" lon="13.5461294"><ele>1514.7142857142858</ele><time>2026-04-18T10:28:29.986Z</time></trkpt><trkpt lat="42.1127172" lon="13.5461329"><ele>1510.5714285714284</ele><time>2026-04-18T10:28:34.872Z</time></trkpt><trkpt lat="42.1126458" lon="13.5461154"><ele>1506.4285714285716</ele><time>2026-04-18T10:28:41.671Z</time></trkpt><trkpt lat="42.1125852" lon="13.5460836"><ele>1502.2857142857142</ele><time>2026-04-18T10:28:47.697Z</time></trkpt><trkpt lat="42.1125165" lon="13.5460703"><ele>1498.142857142857</ele><time>2026-04-18T10:28:53.537Z</time></trkpt><trkpt lat="42.1124476" lon="13.5460643"><ele>1494.0</ele><time>2026-04-18T10:28:59.431Z</time></trkpt><trkpt lat="42.1123797" lon="13.5460494"><ele>1493.142857142857</ele><time>2026-04-18T10:29:05.336Z</time></trkpt><trkpt lat="42.1123149" lon="13.546037"><ele>1492.2857142857142</ele><time>2026-04-18T10:29:11.233Z</time></trkpt><trkpt lat="42.1122457" lon="13.5460122"><ele>1491.4285714285716</ele><time>2026-04-18T10:29:18.13Z</time></trkpt><trkpt lat="42.1121824" lon="13.5459964"><ele>1490.5714285714284</ele><time>2026-04-18T10:29:23.993Z</time></trkpt><trkpt lat="42.1121176" lon="13.5459862"><ele>1489.7142857142858</ele><time>2026-04-18T10:29:29.818Z</time></trkpt><trkpt lat="42.1120528" lon="13.5459818"><ele>1488.857142857143</ele><time>2026-04-18T10:29:35.771Z</time></trkpt><trkpt lat="42.1119857" lon="13.5459407"><ele>1488.0</ele><time>2026-04-18T10:29:46.004Z</time></trkpt><trkpt lat="42.1119106" lon="13.5459375"><ele>1488.0000000000002</ele><time>2026-04-18T10:29:50.898Z</time></trkpt><trkpt lat="42.1118487" lon="13.5459188"><ele>1488.0</ele><time>2026-04-18T10:29:55.837Z</time></trkpt><trkpt lat="42.1117881" lon="13.5458891"><ele>1488.0</ele><time>2026-04-18T10:30:00.774Z</time></trkpt><trkpt lat="42.111725" lon="13.5458674"><ele>1488.0</ele><time>2026-04-18T10:30:06.578Z</time></trkpt><trkpt lat="42.1116629" lon="13.5458496"><ele>1488.0</ele><time>2026-04-18T10:30:11.638Z</time></trkpt><trkpt lat="42.1115967" lon="13.5458486"><ele>1488.0000000000002</ele><time>2026-04-18T10:30:16.516Z</time></trkpt><trkpt lat="42.1115294" lon="13.5458207"><ele>1488.0</ele><time>2026-04-18T10:30:21.375Z</time></trkpt><trkpt lat="42.1114645" lon="13.5458076"><ele>1487.7142857142858</ele><time>2026-04-18T10:30:27.358Z</time></trkpt><trkpt lat="42.111395" lon="13.5457992"><ele>1487.4285714285716</ele><time>2026-04-18T10:30:33.193Z</time></trkpt><trkpt lat="42.1113278" lon="13.5457814"><ele>1487.1428571428573</ele><time>2026-04-18T10:30:39.139Z</time></trkpt><trkpt lat="42.1112608" lon="13.5457733"><ele>1486.857142857143</ele><time>2026-04-18T10:30:44.919Z</time></trkpt><trkpt lat="42.1111909" lon="13.5457671"><ele>1486.5714285714284</ele><time>2026-04-18T10:30:50.873Z</time></trkpt><trkpt lat="42.111135" lon="13.5457217"><ele>1486.2857142857144</ele><time>2026-04-18T10:30:56.797Z</time></trkpt><trkpt lat="42.1111651" lon="13.5456339"><ele>1486.0</ele><time>2026-04-18T10:31:03.034Z</time></trkpt><trkpt lat="42.1112044" lon="13.5455654"><ele>1486.0</ele><time>2026-04-18T10:31:09.992Z</time></trkpt><trkpt lat="42.1111992" lon="13.545474"><ele>1486.0</ele><time>2026-04-18T10:31:18.989Z</time></trkpt><trkpt lat="42.1111644" lon="13.5454008"><ele>1486.0</ele><time>2026-04-18T10:31:25.935Z</time></trkpt><trkpt lat="42.1111454" lon="13.5453197"><ele>1486.0</ele><time>2026-04-18T10:31:32.934Z</time></trkpt><trkpt lat="42.1111331" lon="13.5452333"><ele>1486.0</ele><time>2026-04-18T10:31:40.932Z</time></trkpt><trkpt lat="42.1111189" lon="13.5451401"><ele>1486.0</ele><time>2026-04-18T10:31:49.012Z</time></trkpt><trkpt lat="42.1111163" lon="13.5450538"><ele>1486.0</ele><time>2026-04-18T10:31:56.99Z</time></trkpt><trkpt lat="42.1111126" lon="13.5449657"><ele>1483.142857142857</ele><time>2026-04-18T10:32:04.035Z</time></trkpt><trkpt lat="42.1111362" lon="13.5448776"><ele>1480.2857142857142</ele><time>2026-04-18T10:32:12.795Z</time></trkpt><trkpt lat="42.1111659" lon="13.5447883"><ele>1477.4285714285713</ele><time>2026-04-18T10:32:20.63Z</time></trkpt><trkpt lat="42.1111759" lon="13.5446984"><ele>1474.5714285714284</ele><time>2026-04-18T10:32:28.978Z</time></trkpt><trkpt lat="42.1111682" lon="13.5446078"><ele>1471.7142857142858</ele><time>2026-04-18T10:32:36.672Z</time></trkpt><trkpt lat="42.1111346" lon="13.5445333"><ele>1468.8571428571427</ele><time>2026-04-18T10:32:43.874Z</time></trkpt><trkpt lat="42.1111112" lon="13.5444442"><ele>1466.0</ele><time>2026-04-18T10:32:50.773Z</time></trkpt><trkpt lat="42.1110819" lon="13.5443686"><ele>1463.5714285714284</ele><time>2026-04-18T10:32:56.664Z</time></trkpt><trkpt lat="42.111058" lon="13.544282"><ele>1461.142857142857</ele><time>2026-04-18T10:33:03.034Z</time></trkpt><trkpt lat="42.1110549" lon="13.5441773"><ele>1458.7142857142858</ele><time>2026-04-18T10:33:09.812Z</time></trkpt><trkpt lat="42.1110408" lon="13.5440715"><ele>1456.2857142857142</ele><time>2026-04-18T10:33:17.019Z</time></trkpt><trkpt lat="42.1110318" lon="13.5439862"><ele>1453.857142857143</ele><time>2026-04-18T10:33:22.988Z</time></trkpt><trkpt lat="42.1110071" lon="13.5439018"><ele>1451.4285714285713</ele><time>2026-04-18T10:33:28.989Z</time></trkpt><trkpt lat="42.1109884" lon="13.5438196"><ele>1449.0</ele><time>2026-04-18T10:33:35.022Z</time></trkpt><trkpt lat="42.1109492" lon="13.5437413"><ele>1447.142857142857</ele><time>2026-04-18T10:33:42.038Z</time></trkpt><trkpt lat="42.1109181" lon="13.5436558"><ele>1445.2857142857142</ele><time>2026-04-18T10:33:48.998Z</time></trkpt><trkpt lat="42.1108924" lon="13.5435673"><ele>1443.4285714285716</ele><time>2026-04-18T10:33:55.988Z</time></trkpt><trkpt lat="42.1108807" lon="13.5434739"><ele>1441.5714285714284</ele><time>2026-04-18T10:34:02.989Z</time></trkpt><trkpt lat="42.1108752" lon="13.543386"><ele>1439.7142857142858</ele><time>2026-04-18T10:34:08.874Z</time></trkpt><trkpt lat="42.1108454" lon="13.5433045"><ele>1437.857142857143</ele><time>2026-04-18T10:34:14.837Z</time></trkpt><trkpt lat="42.1108138" lon="13.5432284"><ele>1436.0</ele><time>2026-04-18T10:34:20.771Z</time></trkpt><trkpt lat="42.1107948" lon="13.5431473"><ele>1436.0</ele><time>2026-04-18T10:34:26.796Z</time></trkpt><trkpt lat="42.1107554" lon="13.543057"><ele>1436.0</ele><time>2026-04-18T10:34:33.756Z</time></trkpt><trkpt lat="42.1107209" lon="13.5429692"><ele>1436.0</ele><time>2026-04-18T10:34:40.736Z</time></trkpt><trkpt lat="42.1106886" lon="13.5428826"><ele>1436.0</ele><time>2026-04-18T10:34:47.574Z</time></trkpt><trkpt lat="42.1106431" lon="13.5427965"><ele>1436.0</ele><time>2026-04-18T10:34:54.496Z</time></trkpt><trkpt lat="42.1105946" lon="13.5427282"><ele>1436.0</ele><time>2026-04-18T10:35:01.395Z</time></trkpt><trkpt lat="42.1105532" lon="13.542646"><ele>1436.0</ele><time>2026-04-18T10:35:08.417Z</time></trkpt><trkpt lat="42.1105132" lon="13.5425765"><ele>1434.4285714285716</ele><time>2026-04-18T10:35:14.43Z</time></trkpt><trkpt lat="42.1104681" lon="13.5425124"><ele>1432.857142857143</ele><time>2026-04-18T10:35:20.274Z</time></trkpt><trkpt lat="42.1104262" lon="13.5424442"><ele>1431.2857142857142</ele><time>2026-04-18T10:35:26.332Z</time></trkpt><trkpt lat="42.1103898" lon="13.5423725"><ele>1429.7142857142858</ele><time>2026-04-18T10:35:32.333Z</time></trkpt><trkpt lat="42.1103885" lon="13.542279"><ele>1428.142857142857</ele><time>2026-04-18T10:35:50.058Z</time></trkpt><trkpt lat="42.1103428" lon="13.5422157"><ele>1426.5714285714287</ele><time>2026-04-18T10:35:53.939Z</time></trkpt><trkpt lat="42.1103079" lon="13.5421413"><ele>1425.0</ele><time>2026-04-18T10:35:59.989Z</time></trkpt><trkpt lat="42.1102652" lon="13.5420693"><ele>1423.857142857143</ele><time>2026-04-18T10:36:05.993Z</time></trkpt><trkpt lat="42.1102354" lon="13.541988"><ele>1422.7142857142858</ele><time>2026-04-18T10:36:12.034Z</time></trkpt><trkpt lat="42.1102015" lon="13.5419114"><ele>1421.5714285714284</ele><time>2026-04-18T10:36:17.988Z</time></trkpt><trkpt lat="42.1101534" lon="13.5418319"><ele>1420.4285714285716</ele><time>2026-04-18T10:36:23.997Z</time></trkpt><trkpt lat="42.1101087" lon="13.5417663"><ele>1419.2857142857142</ele><time>2026-04-18T10:36:29.026Z</time></trkpt><trkpt lat="42.1100741" lon="13.541694"><ele>1418.142857142857</ele><time>2026-04-18T10:36:33.988Z</time></trkpt><trkpt lat="42.1100486" lon="13.5415999"><ele>1417.0</ele><time>2026-04-18T10:36:39.99Z</time></trkpt><trkpt lat="42.1100088" lon="13.5415175"><ele>1416.9999999999998</ele><time>2026-04-18T10:36:46.035Z</time></trkpt><trkpt lat="42.1099738" lon="13.5414359"><ele>1417.0</ele><time>2026-04-18T10:36:51.991Z</time></trkpt><trkpt lat="42.1099242" lon="13.5413835"><ele>1417.0</ele><time>2026-04-18T10:36:56.972Z</time></trkpt><trkpt lat="42.1098825" lon="13.5413039"><ele>1417.0</ele><time>2026-04-18T10:37:03.023Z</time></trkpt><trkpt lat="42.1098532" lon="13.5412161"><ele>1417.0</ele><time>2026-04-18T10:37:18.918Z</time></trkpt><trkpt lat="42.1098262" lon="13.5411243"><ele>1416.9999999999998</ele><time>2026-04-18T10:37:24.958Z</time></trkpt><trkpt lat="42.1098025" lon="13.5410371"><ele>1417.0</ele><time>2026-04-18T10:37:30.918Z</time></trkpt><trkpt lat="42.1097664" lon="13.5409528"><ele>1417.5714285714284</ele><time>2026-04-18T10:37:36.771Z</time></trkpt><trkpt lat="42.1097276" lon="13.5408663"><ele>1418.142857142857</ele><time>2026-04-18T10:37:42.817Z</time></trkpt><trkpt lat="42.1096884" lon="13.5407852"><ele>1418.7142857142858</ele><time>2026-04-18T10:37:48.75Z</time></trkpt><trkpt lat="42.1096376" lon="13.5407288"><ele>1419.2857142857142</ele><time>2026-04-18T10:37:53.709Z</time></trkpt><trkpt lat="42.1095842" lon="13.5406788"><ele>1419.857142857143</ele><time>2026-04-18T10:37:58.657Z</time></trkpt><trkpt lat="42.1095362" lon="13.5406152"><ele>1420.4285714285713</ele><time>2026-04-18T10:38:03.616Z</time></trkpt><trkpt lat="42.1094718" lon="13.5405629"><ele>1421.0</ele><time>2026-04-18T10:38:09.511Z</time></trkpt><trkpt lat="42.1094107" lon="13.5405103"><ele>1421.0</ele><time>2026-04-18T10:38:15.435Z</time></trkpt><trkpt lat="42.109342" lon="13.5404704"><ele>1421.0</ele><time>2026-04-18T10:38:21.429Z</time></trkpt><trkpt lat="42.1092879" lon="13.5404217"><ele>1421.0</ele><time>2026-04-18T10:38:26.438Z</time></trkpt><trkpt lat="42.1092363" lon="13.5403682"><ele>1421.0</ele><time>2026-04-18T10:38:31.359Z</time></trkpt><trkpt lat="42.1091775" lon="13.5403223"><ele>1421.0</ele><time>2026-04-18T10:38:37.332Z</time></trkpt><trkpt lat="42.1091207" lon="13.5402735"><ele>1421.0</ele><time>2026-04-18T10:38:42.732Z</time></trkpt><trkpt lat="42.1090686" lon="13.5402031"><ele>1421.0</ele><time>2026-04-18T10:38:48.696Z</time></trkpt><trkpt lat="42.1090294" lon="13.5401241"><ele>1419.2857142857142</ele><time>2026-04-18T10:38:54.611Z</time></trkpt><trkpt lat="42.1089968" lon="13.5400387"><ele>1417.5714285714284</ele><time>2026-04-18T10:39:00.615Z</time></trkpt><trkpt lat="42.1089686" lon="13.5399567"><ele>1415.857142857143</ele><time>2026-04-18T10:39:06.529Z</time></trkpt><trkpt lat="42.1089446" lon="13.5398688"><ele>1414.142857142857</ele><time>2026-04-18T10:39:12.513Z</time></trkpt><trkpt lat="42.1089263" lon="13.5397787"><ele>1412.4285714285713</ele><time>2026-04-18T10:39:18.337Z</time></trkpt><trkpt lat="42.1089141" lon="13.5396898"><ele>1410.7142857142858</ele><time>2026-04-18T10:39:24.252Z</time></trkpt><trkpt lat="42.1088866" lon="13.5396088"><ele>1409.0</ele><time>2026-04-18T10:39:29.989Z</time></trkpt><trkpt lat="42.1088495" lon="13.5395346"><ele>1406.4285714285716</ele><time>2026-04-18T10:39:36.01Z</time></trkpt><trkpt lat="42.1088137" lon="13.539463"><ele>1403.8571428571427</ele><time>2026-04-18T10:39:41.913Z</time></trkpt><trkpt lat="42.1087623" lon="13.5394058"><ele>1401.2857142857142</ele><time>2026-04-18T10:39:47.717Z</time></trkpt><trkpt lat="42.1087004" lon="13.5393858"><ele>1398.7142857142858</ele><time>2026-04-18T10:39:54.64Z</time></trkpt><trkpt lat="42.1086366" lon="13.5393601"><ele>1396.1428571428573</ele><time>2026-04-18T10:40:00.612Z</time></trkpt><trkpt lat="42.1085722" lon="13.539323"><ele>1393.5714285714284</ele><time>2026-04-18T10:40:07.472Z</time></trkpt><trkpt lat="42.1085117" lon="13.5392983"><ele>1391.0</ele><time>2026-04-18T10:40:13.758Z</time></trkpt><trkpt lat="42.1084503" lon="13.539237"><ele>1391.0</ele><time>2026-04-18T10:40:20.969Z</time></trkpt><trkpt lat="42.1083955" lon="13.5391936"><ele>1391.0</ele><time>2026-04-18T10:40:28.004Z</time></trkpt><trkpt lat="42.1083344" lon="13.5391584"><ele>1391.0</ele><time>2026-04-18T10:42:17.989Z</time></trkpt><trkpt lat="42.1082639" lon="13.5391397"><ele>1391.0</ele><time>2026-04-18T10:42:23.99Z</time></trkpt><trkpt lat="42.1081959" lon="13.5391041"><ele>1391.0</ele><time>2026-04-18T10:42:31.013Z</time></trkpt><trkpt lat="42.1081343" lon="13.5390727"><ele>1391.0</ele><time>2026-04-18T10:42:36.988Z</time></trkpt><trkpt lat="42.1080816" lon="13.5390215"><ele>1391.0</ele><time>2026-04-18T10:42:43.041Z</time></trkpt><trkpt lat="42.1080272" lon="13.5389755"><ele>1391.0</ele><time>2026-04-18T10:42:49.016Z</time></trkpt><trkpt lat="42.1079704" lon="13.5389293"><ele>1391.0</ele><time>2026-04-18T10:42:55.037Z</time></trkpt><trkpt lat="42.1079091" lon="13.5388745"><ele>1391.0</ele><time>2026-04-18T10:43:00.97Z</time></trkpt><trkpt lat="42.1078599" lon="13.5388067"><ele>1391.0</ele><time>2026-04-18T10:43:07.02Z</time></trkpt><trkpt lat="42.1078192" lon="13.5387187"><ele>1391.0</ele><time>2026-04-18T10:43:13.988Z</time></trkpt><trkpt lat="42.1077756" lon="13.5386552"><ele>1391.0</ele><time>2026-04-18T10:43:19.995Z</time></trkpt><trkpt lat="42.1077465" lon="13.5385774"><ele>1391.0</ele><time>2026-04-18T10:43:25.875Z</time></trkpt><trkpt lat="42.1077208" lon="13.5384969"><ele>1388.4285714285713</ele><time>2026-04-18T10:43:31.991Z</time></trkpt><trkpt lat="42.1076914" lon="13.5384069"><ele>1385.857142857143</ele><time>2026-04-18T10:43:39.011Z</time></trkpt><trkpt lat="42.1076674" lon="13.5383169"><ele>1383.2857142857142</ele><time>2026-04-18T10:43:46.051Z</time></trkpt><trkpt lat="42.1076118" lon="13.5382705"><ele>1380.7142857142858</ele><time>2026-04-18T10:43:52.988Z</time></trkpt><trkpt lat="42.1075785" lon="13.5381964"><ele>1378.142857142857</ele><time>2026-04-18T10:43:59.989Z</time></trkpt><trkpt lat="42.1075552" lon="13.5381172"><ele>1375.5714285714287</ele><time>2026-04-18T10:44:07.989Z</time></trkpt><trkpt lat="42.1075314" lon="13.5380281"><ele>1373.0</ele><time>2026-04-18T10:44:20.991Z</time></trkpt><trkpt lat="42.107562" lon="13.5379469"><ele>1373.0</ele><time>2026-04-18T10:44:27.892Z</time></trkpt><trkpt lat="42.1075694" lon="13.5378492"><ele>1373.0</ele><time>2026-04-18T10:44:50.855Z</time></trkpt><trkpt lat="42.1075946" lon="13.5377702"><ele>1373.0</ele><time>2026-04-18T10:45:00.988Z</time></trkpt><trkpt lat="42.1076581" lon="13.5377991"><ele>1373.0</ele><time>2026-04-18T10:45:08.93Z</time></trkpt><trkpt lat="42.1077167" lon="13.5378382"><ele>1373.0</ele><time>2026-04-18T10:45:15.995Z</time></trkpt><trkpt lat="42.1077842" lon="13.5378552"><ele>1373.0</ele><time>2026-04-18T10:45:23.005Z</time></trkpt><trkpt lat="42.1078303" lon="13.537932"><ele>1373.0</ele><time>2026-04-18T10:45:29.993Z</time></trkpt><trkpt lat="42.1078876" lon="13.5379725"><ele>1373.0</ele><time>2026-04-18T10:45:36.041Z</time></trkpt><trkpt lat="42.1079586" lon="13.5379578"><ele>1373.0</ele><time>2026-04-18T10:45:49.991Z</time></trkpt><trkpt lat="42.108009" lon="13.537891"><ele>1373.0</ele><time>2026-04-18T10:45:55.995Z</time></trkpt><trkpt lat="42.1080694" lon="13.5378401"><ele>1373.0</ele><time>2026-04-18T10:46:03.99Z</time></trkpt><trkpt lat="42.1081052" lon="13.5377567"><ele>1373.0</ele><time>2026-04-18T10:46:10.992Z</time></trkpt><trkpt lat="42.1081441" lon="13.5376871"><ele>1373.0</ele><time>2026-04-18T10:46:17.958Z</time></trkpt><trkpt lat="42.108188" lon="13.5376126"><ele>1373.0</ele><time>2026-04-18T10:46:24.898Z</time></trkpt><trkpt lat="42.1081993" lon="13.5375246"><ele>1370.7142857142858</ele><time>2026-04-18T10:46:32.003Z</time></trkpt><trkpt lat="42.1081865" lon="13.5374402"><ele>1368.4285714285713</ele><time>2026-04-18T10:46:38.939Z</time></trkpt><trkpt lat="42.1081929" lon="13.5373555"><ele>1366.142857142857</ele><time>2026-04-18T10:46:45.9Z</time></trkpt><trkpt lat="42.1081906" lon="13.5372692"><ele>1363.857142857143</ele><time>2026-04-18T10:46:52.018Z</time></trkpt><trkpt lat="42.1082" lon="13.537184"><ele>1361.5714285714287</ele><time>2026-04-18T10:46:57.989Z</time></trkpt><trkpt lat="42.1082092" lon="13.5370879"><ele>1359.2857142857142</ele><time>2026-04-18T10:47:04.993Z</time></trkpt><trkpt lat="42.1082134" lon="13.5369952"><ele>1357.0</ele><time>2026-04-18T10:47:28.989Z</time></trkpt><trkpt lat="42.1082272" lon="13.5369113"><ele>1357.4285714285713</ele><time>2026-04-18T10:47:33.987Z</time></trkpt><trkpt lat="42.1082488" lon="13.5368307"><ele>1357.857142857143</ele><time>2026-04-18T10:47:39.056Z</time></trkpt><trkpt lat="42.1082542" lon="13.536732"><ele>1358.2857142857142</ele><time>2026-04-18T10:47:45.024Z</time></trkpt><trkpt lat="42.1082417" lon="13.5366447"><ele>1358.7142857142858</ele><time>2026-04-18T10:47:49.981Z</time></trkpt><trkpt lat="42.1082297" lon="13.5365579"><ele>1359.142857142857</ele><time>2026-04-18T10:47:54.993Z</time></trkpt><trkpt lat="42.1082282" lon="13.5364724"><ele>1359.5714285714287</ele><time>2026-04-18T10:48:00.011Z</time></trkpt><trkpt lat="42.108238" lon="13.5363862"><ele>1360.0</ele><time>2026-04-18T10:48:04.99Z</time></trkpt><trkpt lat="42.1082374" lon="13.5363001"><ele>1359.4285714285716</ele><time>2026-04-18T10:48:09.956Z</time></trkpt><trkpt lat="42.1082473" lon="13.5362005"><ele>1358.8571428571427</ele><time>2026-04-18T10:48:15.971Z</time></trkpt><trkpt lat="42.1082547" lon="13.5361052"><ele>1358.2857142857142</ele><time>2026-04-18T10:48:21.991Z</time></trkpt><trkpt lat="42.1082601" lon="13.5360079"><ele>1357.7142857142858</ele><time>2026-04-18T10:48:27.996Z</time></trkpt><trkpt lat="42.1082835" lon="13.5359198"><ele>1357.1428571428573</ele><time>2026-04-18T10:48:39.99Z</time></trkpt><trkpt lat="42.1083048" lon="13.5358268"><ele>1356.5714285714284</ele><time>2026-04-18T10:48:46.992Z</time></trkpt><trkpt lat="42.1083391" lon="13.5357545"><ele>1356.0</ele><time>2026-04-18T10:48:54.011Z</time></trkpt><trkpt lat="42.1083762" lon="13.5356759"><ele>1356.0</ele><time>2026-04-18T10:49:00.989Z</time></trkpt><trkpt lat="42.108389" lon="13.5355883"><ele>1356.0</ele><time>2026-04-18T10:49:05.993Z</time></trkpt><trkpt lat="42.1083911" lon="13.5354978"><ele>1356.0</ele><time>2026-04-18T10:49:11.022Z</time></trkpt><trkpt lat="42.1083901" lon="13.5354047"><ele>1356.0</ele><time>2026-04-18T10:49:16.989Z</time></trkpt><trkpt lat="42.1083957" lon="13.5353118"><ele>1356.0</ele><time>2026-04-18T10:49:22.992Z</time></trkpt><trkpt lat="42.1084218" lon="13.5352332"><ele>1356.0</ele><time>2026-04-18T10:49:28.021Z</time></trkpt><trkpt lat="42.1084526" lon="13.5351524"><ele>1356.0</ele><time>2026-04-18T10:49:33.989Z</time></trkpt><trkpt lat="42.1085024" lon="13.5350878"><ele>1353.7142857142856</ele><time>2026-04-18T10:49:40.972Z</time></trkpt><trkpt lat="42.10852" lon="13.5349907"><ele>1351.4285714285716</ele><time>2026-04-18T10:49:47.993Z</time></trkpt><trkpt lat="42.1085383" lon="13.5348988"><ele>1349.142857142857</ele><time>2026-04-18T10:49:54.992Z</time></trkpt><trkpt lat="42.1084879" lon="13.5348349"><ele>1346.8571428571427</ele><time>2026-04-18T10:50:04.951Z</time></trkpt><trkpt lat="42.1084854" lon="13.534749"><ele>1344.5714285714284</ele><time>2026-04-18T10:50:11.91Z</time></trkpt><trkpt lat="42.1085344" lon="13.5346902"><ele>1342.2857142857142</ele><time>2026-04-18T10:50:22.976Z</time></trkpt><trkpt lat="42.1085238" lon="13.5345975"><ele>1340.0</ele><time>2026-04-18T10:50:38.026Z</time></trkpt><trkpt lat="42.1085761" lon="13.534532"><ele>1336.4285714285713</ele><time>2026-04-18T10:50:44.871Z</time></trkpt><trkpt lat="42.1086448" lon="13.5345085"><ele>1332.857142857143</ele><time>2026-04-18T10:50:50.978Z</time></trkpt><trkpt lat="42.1086958" lon="13.534448"><ele>1329.2857142857142</ele><time>2026-04-18T10:50:58.854Z</time></trkpt><trkpt lat="42.1087512" lon="13.534407"><ele>1325.7142857142858</ele><time>2026-04-18T10:51:05.99Z</time></trkpt><trkpt lat="42.1088023" lon="13.5343504"><ele>1322.142857142857</ele><time>2026-04-18T10:51:14.989Z</time></trkpt><trkpt lat="42.1088495" lon="13.534285"><ele>1318.5714285714284</ele><time>2026-04-18T10:51:23.92Z</time></trkpt><trkpt lat="42.1089134" lon="13.5342543"><ele>1315.0</ele><time>2026-04-18T10:51:30.993Z</time></trkpt><trkpt lat="42.1089588" lon="13.5341763"><ele>1315.0</ele><time>2026-04-18T10:51:41.999Z</time></trkpt><trkpt lat="42.1090243" lon="13.5341503"><ele>1315.0</ele><time>2026-04-18T10:51:49.014Z</time></trkpt><trkpt lat="42.1090396" lon="13.5340585"><ele>1315.0</ele><time>2026-04-18T10:51:56.76Z</time></trkpt><trkpt lat="42.1089933" lon="13.5339847"><ele>1315.0</ele><time>2026-04-18T10:52:04.025Z</time></trkpt><trkpt lat="42.1089821" lon="13.533897"><ele>1315.0</ele><time>2026-04-18T10:52:08.992Z</time></trkpt><trkpt lat="42.1089786" lon="13.5338029"><ele>1315.0</ele><time>2026-04-18T10:52:14.989Z</time></trkpt><trkpt lat="42.1089081" lon="13.5337977"><ele>1315.0</ele><time>2026-04-18T10:52:28.988Z</time></trkpt><trkpt lat="42.1088426" lon="13.5338157"><ele>1315.0</ele><time>2026-04-18T10:52:36.012Z</time></trkpt><trkpt lat="42.1087979" lon="13.5337457"><ele>1315.0</ele><time>2026-04-18T10:52:44.036Z</time></trkpt><trkpt lat="42.1088345" lon="13.533672"><ele>1315.0</ele><time>2026-04-18T10:52:49.992Z</time></trkpt><trkpt lat="42.1088941" lon="13.5336346"><ele>1315.0</ele><time>2026-04-18T10:52:56.015Z</time></trkpt><trkpt lat="42.1088497" lon="13.5335669"><ele>1315.0</ele><time>2026-04-18T10:53:03.898Z</time></trkpt><trkpt lat="42.1087791" lon="13.5335901"><ele>1315.0</ele><time>2026-04-18T10:53:08.936Z</time></trkpt><trkpt lat="42.1087178" lon="13.5336162"><ele>1315.0</ele><time>2026-04-18T10:53:15.897Z</time></trkpt><trkpt lat="42.1086515" lon="13.5336074"><ele>1311.4285714285713</ele><time>2026-04-18T10:53:25.011Z</time></trkpt><trkpt lat="42.1085804" lon="13.5336133"><ele>1307.857142857143</ele><time>2026-04-18T10:53:33.992Z</time></trkpt><trkpt lat="42.1085343" lon="13.5335482"><ele>1304.2857142857142</ele><time>2026-04-18T10:53:43.971Z</time></trkpt><trkpt lat="42.1084683" lon="13.5335356"><ele>1300.7142857142858</ele><time>2026-04-18T10:53:52.993Z</time></trkpt><trkpt lat="42.1084046" lon="13.5335417"><ele>1297.142857142857</ele><time>2026-04-18T10:53:59.994Z</time></trkpt><trkpt lat="42.1083692" lon="13.5334627"><ele>1293.5714285714287</ele><time>2026-04-18T10:54:07.04Z</time></trkpt><trkpt lat="42.1084218" lon="13.5333812"><ele>1290.0</ele><time>2026-04-18T10:54:13.673Z</time></trkpt><trkpt lat="42.1084423" lon="13.5332915"><ele>1290.0</ele><time>2026-04-18T10:54:20.995Z</time></trkpt><trkpt lat="42.108444" lon="13.5332026"><ele>1290.0</ele><time>2026-04-18T10:54:27.988Z</time></trkpt><trkpt lat="42.1084625" lon="13.5331103"><ele>1290.0</ele><time>2026-04-18T10:54:35.036Z</time></trkpt><trkpt lat="42.1083989" lon="13.5330916"><ele>1290.0</ele><time>2026-04-18T10:54:41.989Z</time></trkpt><trkpt lat="42.1083354" lon="13.533142"><ele>1290.0</ele><time>2026-04-18T10:54:46.991Z</time></trkpt><trkpt lat="42.1082737" lon="13.5331638"><ele>1290.0</ele><time>2026-04-18T10:54:53.006Z</time></trkpt><trkpt lat="42.1082073" lon="13.5331396"><ele>1290.0</ele><time>2026-04-18T10:55:03.053Z</time></trkpt><trkpt lat="42.1081437" lon="13.5331274"><ele>1286.5714285714287</ele><time>2026-04-18T10:55:10.875Z</time></trkpt><trkpt lat="42.1080973" lon="13.5330671"><ele>1283.142857142857</ele><time>2026-04-18T10:55:18.992Z</time></trkpt><trkpt lat="42.1080927" lon="13.532971"><ele>1279.7142857142858</ele><time>2026-04-18T10:55:26.899Z</time></trkpt><trkpt lat="42.1081319" lon="13.5329003"><ele>1276.2857142857142</ele><time>2026-04-18T10:55:33.918Z</time></trkpt><trkpt lat="42.1080624" lon="13.5329011"><ele>1272.857142857143</ele><time>2026-04-18T10:55:40.988Z</time></trkpt><trkpt lat="42.1081112" lon="13.5328366"><ele>1269.4285714285713</ele><time>2026-04-18T10:55:49.032Z</time></trkpt><trkpt lat="42.1081789" lon="13.5328176"><ele>1266.0</ele><time>2026-04-18T10:55:55.836Z</time></trkpt><trkpt lat="42.1082184" lon="13.5327464"><ele>1264.857142857143</ele><time>2026-04-18T10:56:04.939Z</time></trkpt><trkpt lat="42.1082492" lon="13.5326612"><ele>1263.7142857142858</ele><time>2026-04-18T10:56:12.988Z</time></trkpt><trkpt lat="42.1083163" lon="13.5326422"><ele>1262.5714285714284</ele><time>2026-04-18T10:56:19.94Z</time></trkpt><trkpt lat="42.1083687" lon="13.5325768"><ele>1261.4285714285716</ele><time>2026-04-18T10:56:29.989Z</time></trkpt><trkpt lat="42.1083856" lon="13.5324943"><ele>1260.2857142857144</ele><time>2026-04-18T10:56:37.01Z</time></trkpt><trkpt lat="42.1084099" lon="13.5324018"><ele>1259.142857142857</ele><time>2026-04-18T10:56:45.876Z</time></trkpt><trkpt lat="42.108433" lon="13.5323192"><ele>1258.0</ele><time>2026-04-18T10:56:52.717Z</time></trkpt><trkpt lat="42.1084766" lon="13.5322557"><ele>1258.0</ele><time>2026-04-18T10:56:59.475Z</time></trkpt><trkpt lat="42.1085355" lon="13.5322087"><ele>1258.0</ele><time>2026-04-18T10:57:06.797Z</time></trkpt><trkpt lat="42.108604" lon="13.5321795"><ele>1258.0</ele><time>2026-04-18T10:57:15.039Z</time></trkpt><trkpt lat="42.1086667" lon="13.532154"><ele>1258.0</ele><time>2026-04-18T10:57:21.976Z</time></trkpt><trkpt lat="42.108721" lon="13.532107"><ele>1258.0</ele><time>2026-04-18T10:57:28.011Z</time></trkpt><trkpt lat="42.1087836" lon="13.5320511"><ele>1258.0</ele><time>2026-04-18T10:57:36.018Z</time></trkpt><trkpt lat="42.108837" lon="13.5319995"><ele>1258.0</ele><time>2026-04-18T10:57:43.991Z</time></trkpt><trkpt lat="42.1088605" lon="13.5319175"><ele>1253.2857142857142</ele><time>2026-04-18T10:57:51.988Z</time></trkpt><trkpt lat="42.1088487" lon="13.5318273"><ele>1248.5714285714287</ele><time>2026-04-18T10:57:57.794Z</time></trkpt><trkpt lat="42.1088676" lon="13.5317451"><ele>1243.857142857143</ele><time>2026-04-18T10:58:05.558Z</time></trkpt><trkpt lat="42.1088415" lon="13.5316604"><ele>1239.142857142857</ele><time>2026-04-18T10:58:12.871Z</time></trkpt><trkpt lat="42.1088024" lon="13.531585"><ele>1234.4285714285716</ele><time>2026-04-18T10:58:20.007Z</time></trkpt><trkpt lat="42.1087876" lon="13.5314976"><ele>1229.7142857142858</ele><time>2026-04-18T10:58:26.988Z</time></trkpt><trkpt lat="42.1087252" lon="13.5315133"><ele>1225.0</ele><time>2026-04-18T10:58:33.893Z</time></trkpt><trkpt lat="42.1086822" lon="13.5315771"><ele>1225.0</ele><time>2026-04-18T10:58:40.024Z</time></trkpt><trkpt lat="42.1086165" lon="13.5315552"><ele>1225.0</ele><time>2026-04-18T10:58:48.989Z</time></trkpt><trkpt lat="42.1085554" lon="13.5315177"><ele>1225.0</ele><time>2026-04-18T10:58:57.989Z</time></trkpt><trkpt lat="42.1085743" lon="13.5314342"><ele>1225.0</ele><time>2026-04-18T10:59:04.714Z</time></trkpt><trkpt lat="42.1086382" lon="13.5314341"><ele>1225.0</ele><time>2026-04-18T10:59:11.994Z</time></trkpt><trkpt lat="42.1087111" lon="13.5314315"><ele>1225.0</ele><time>2026-04-18T10:59:20.991Z</time></trkpt><trkpt lat="42.1086805" lon="13.5313537"><ele>1225.0</ele><time>2026-04-18T10:59:29.929Z</time></trkpt><trkpt lat="42.1086008" lon="13.5313458"><ele>1225.0</ele><time>2026-04-18T10:59:34.939Z</time></trkpt><trkpt lat="42.1085332" lon="13.5313463"><ele>1225.0</ele><time>2026-04-18T10:59:40.893Z</time></trkpt><trkpt lat="42.1084691" lon="13.5313473"><ele>1225.0</ele><time>2026-04-18T10:59:47.014Z</time></trkpt><trkpt lat="42.1084961" lon="13.531267"><ele>1225.0</ele><time>2026-04-18T10:59:54.991Z</time></trkpt><trkpt lat="42.108551" lon="13.5312216"><ele>1225.0</ele><time>2026-04-18T11:00:00.99Z</time></trkpt><trkpt lat="42.1085011" lon="13.5311482"><ele>1225.0</ele><time>2026-04-18T11:00:06.989Z</time></trkpt><trkpt lat="42.1084274" lon="13.5311358"><ele>1225.0</ele><time>2026-04-18T11:00:13.06Z</time></trkpt><trkpt lat="42.1083683" lon="13.5311842"><ele>1221.7142857142858</ele><time>2026-04-18T11:00:19.951Z</time></trkpt><trkpt lat="42.1083607" lon="13.5310906"><ele>1218.4285714285716</ele><time>2026-04-18T11:00:33.973Z</time></trkpt><trkpt lat="42.1084053" lon="13.5310147"><ele>1215.142857142857</ele><time>2026-04-18T11:00:40.041Z</time></trkpt><trkpt lat="42.1083635" lon="13.5309481"><ele>1211.857142857143</ele><time>2026-04-18T11:00:52.998Z</time></trkpt><trkpt lat="42.1083017" lon="13.5309162"><ele>1208.5714285714287</ele><time>2026-04-18T11:01:01.989Z</time></trkpt><trkpt lat="42.1082947" lon="13.5308275"><ele>1205.2857142857142</ele><time>2026-04-18T11:01:16.017Z</time></trkpt><trkpt lat="42.1083178" lon="13.5309077"><ele>1202.0</ele><time>2026-04-18T11:09:39.989Z</time></trkpt><trkpt lat="42.1082822" lon="13.5308186"><ele>1197.5714285714284</ele><time>2026-04-18T11:10:03.99Z</time></trkpt><trkpt lat="42.1082253" lon="13.5307789"><ele>1193.1428571428573</ele><time>2026-04-18T11:13:49.988Z</time></trkpt><trkpt lat="42.1081549" lon="13.5307505"><ele>1188.7142857142858</ele><time>2026-04-18T11:13:57.993Z</time></trkpt><trkpt lat="42.1080895" lon="13.5307875"><ele>1184.2857142857142</ele><time>2026-04-18T11:14:08.989Z</time></trkpt><trkpt lat="42.1080466" lon="13.5308559"><ele>1179.8571428571427</ele><time>2026-04-18T11:15:26.988Z</time></trkpt><trkpt lat="42.1080105" lon="13.5309283"><ele>1175.4285714285713</ele><time>2026-04-18T11:15:33.995Z</time></trkpt><trkpt lat="42.1079479" lon="13.5309083"><ele>1171.0</ele><time>2026-04-18T11:15:45.991Z</time></trkpt><trkpt lat="42.107947" lon="13.5308156"><ele>1171.0</ele><time>2026-04-18T11:15:53.991Z</time></trkpt><trkpt lat="42.10788" lon="13.5308056"><ele>1171.0</ele><time>2026-04-18T11:16:07.989Z</time></trkpt><trkpt lat="42.1078289" lon="13.5308562"><ele>1171.0</ele><time>2026-04-18T11:16:13.987Z</time></trkpt><trkpt lat="42.1077703" lon="13.5309152"><ele>1171.0</ele><time>2026-04-18T11:16:19.952Z</time></trkpt><trkpt lat="42.1077122" lon="13.5309558"><ele>1171.0</ele><time>2026-04-18T11:16:29.029Z</time></trkpt><trkpt lat="42.1076557" lon="13.5310055"><ele>1171.0</ele><time>2026-04-18T11:16:36.007Z</time></trkpt><trkpt lat="42.1075944" lon="13.5310455"><ele>1171.0</ele><time>2026-04-18T11:16:42.948Z</time></trkpt><trkpt lat="42.107535" lon="13.5310939"><ele>1171.0</ele><time>2026-04-18T11:16:49.971Z</time></trkpt><trkpt lat="42.1074683" lon="13.5311061"><ele>1171.0</ele><time>2026-04-18T11:16:56.99Z</time></trkpt><trkpt lat="42.1073994" lon="13.5311112"><ele>1171.0</ele><time>2026-04-18T11:17:03.933Z</time></trkpt><trkpt lat="42.1073345" lon="13.5311062"><ele>1171.0</ele><time>2026-04-18T11:17:11.006Z</time></trkpt><trkpt lat="42.1072688" lon="13.5310646"><ele>1171.0</ele><time>2026-04-18T11:17:17.908Z</time></trkpt><trkpt lat="42.107198" lon="13.5310558"><ele>1171.0</ele><time>2026-04-18T11:17:24.788Z</time></trkpt><trkpt lat="42.1071343" lon="13.5310223"><ele>1171.0</ele><time>2026-04-18T11:17:31.99Z</time></trkpt><trkpt lat="42.1070672" lon="13.5310176"><ele>1168.142857142857</ele><time>2026-04-18T11:17:38.048Z</time></trkpt><trkpt lat="42.107008" lon="13.5309879"><ele>1165.2857142857142</ele><time>2026-04-18T11:17:43.987Z</time></trkpt><trkpt lat="42.106943" lon="13.5309461"><ele>1162.4285714285713</ele><time>2026-04-18T11:17:51.013Z</time></trkpt><trkpt lat="42.1068811" lon="13.5309268"><ele>1159.5714285714284</ele><time>2026-04-18T11:17:56.827Z</time></trkpt><trkpt lat="42.1068175" lon="13.530935"><ele>1156.7142857142858</ele><time>2026-04-18T11:18:02.773Z</time></trkpt><trkpt lat="42.1067544" lon="13.5309603"><ele>1153.8571428571427</ele><time>2026-04-18T11:18:07.953Z</time></trkpt><trkpt lat="42.1066897" lon="13.5309673"><ele>1151.0</ele><time>2026-04-18T11:18:13.033Z</time></trkpt><trkpt lat="42.1066219" lon="13.530958"><ele>1146.8571428571427</ele><time>2026-04-18T11:18:18.908Z</time></trkpt><trkpt lat="42.1065568" lon="13.5309932"><ele>1142.7142857142858</ele><time>2026-04-18T11:18:25.734Z</time></trkpt><trkpt lat="42.1064972" lon="13.5310258"><ele>1138.5714285714284</ele><time>2026-04-18T11:18:31.988Z</time></trkpt><trkpt lat="42.1064322" lon="13.5310527"><ele>1134.4285714285713</ele><time>2026-04-18T11:18:38.867Z</time></trkpt><trkpt lat="42.1063646" lon="13.5310644"><ele>1130.2857142857142</ele><time>2026-04-18T11:18:46.024Z</time></trkpt><trkpt lat="42.1063029" lon="13.5310919"><ele>1126.142857142857</ele><time>2026-04-18T11:18:52.989Z</time></trkpt><trkpt lat="42.1062525" lon="13.5310388"><ele>1122.0</ele><time>2026-04-18T11:18:58.914Z</time></trkpt><trkpt lat="42.1062794" lon="13.5309538"><ele>1122.0</ele><time>2026-04-18T11:19:04.03Z</time></trkpt><trkpt lat="42.1062539" lon="13.5308658"><ele>1122.0</ele><time>2026-04-18T11:19:10.991Z</time></trkpt><trkpt lat="42.1062236" lon="13.5307866"><ele>1122.0</ele><time>2026-04-18T11:19:19.987Z</time></trkpt><trkpt lat="42.1061734" lon="13.5307329"><ele>1122.0</ele><time>2026-04-18T11:19:26.989Z</time></trkpt><trkpt lat="42.1061155" lon="13.530689"><ele>1122.0</ele><time>2026-04-18T11:19:36.02Z</time></trkpt><trkpt lat="42.106053" lon="13.5307159"><ele>1122.0</ele><time>2026-04-18T11:19:44.989Z</time></trkpt><trkpt lat="42.1059953" lon="13.5306552"><ele>1122.0</ele><time>2026-04-18T11:19:57.049Z</time></trkpt><trkpt lat="42.1059837" lon="13.5307485"><ele>1122.0</ele><time>2026-04-18T11:20:11.069Z</time></trkpt><trkpt lat="42.1060169" lon="13.530829"><ele>1122.0</ele><time>2026-04-18T11:20:17.992Z</time></trkpt><trkpt lat="42.1060017" lon="13.530918"><ele>1122.0</ele><time>2026-04-18T11:20:25.015Z</time></trkpt><trkpt lat="42.1059656" lon="13.531"><ele>1122.0</ele><time>2026-04-18T11:20:31.965Z</time></trkpt><trkpt lat="42.1059147" lon="13.5310593"><ele>1122.0</ele><time>2026-04-18T11:20:41.043Z</time></trkpt><trkpt lat="42.1058688" lon="13.5311301"><ele>1122.0</ele><time>2026-04-18T11:20:51.033Z</time></trkpt><trkpt lat="42.1058036" lon="13.5311376"><ele>1122.0</ele><time>2026-04-18T11:21:00.908Z</time></trkpt><trkpt lat="42.1057938" lon="13.5310476"><ele>1122.0</ele><time>2026-04-18T11:21:09.989Z</time></trkpt><trkpt lat="42.1057455" lon="13.5309793"><ele>1122.0</ele><time>2026-04-18T11:21:18.023Z</time></trkpt><trkpt lat="42.1056957" lon="13.5309031"><ele>1122.0</ele><time>2026-04-18T11:21:28.915Z</time></trkpt><trkpt lat="42.1056332" lon="13.5308641"><ele>1122.0</ele><time>2026-04-18T11:21:36.988Z</time></trkpt><trkpt lat="42.1056056" lon="13.5309478"><ele>1122.0</ele><time>2026-04-18T11:21:43.951Z</time></trkpt><trkpt lat="42.1056408" lon="13.5310224"><ele>1122.0</ele><time>2026-04-18T11:21:48Z</time></trkpt><trkpt lat="42.1056505" lon="13.531119"><ele>1122.0</ele><time>2026-04-18T11:21:54.989Z</time></trkpt><trkpt lat="42.1056329" lon="13.5312117"><ele>1117.142857142857</ele><time>2026-04-18T11:22:01.989Z</time></trkpt><trkpt lat="42.1056366" lon="13.5313065"><ele>1112.2857142857142</ele><time>2026-04-18T11:22:08.988Z</time></trkpt><trkpt lat="42.1056128" lon="13.5313879"><ele>1107.4285714285713</ele><time>2026-04-18T11:22:16.99Z</time></trkpt><trkpt lat="42.1055574" lon="13.5313319"><ele>1102.5714285714284</ele><time>2026-04-18T11:22:26.988Z</time></trkpt><trkpt lat="42.10553" lon="13.5312452"><ele>1097.7142857142858</ele><time>2026-04-18T11:22:33.787Z</time></trkpt><trkpt lat="42.105489" lon="13.5311738"><ele>1092.8571428571427</ele><time>2026-04-18T11:22:40.649Z</time></trkpt><trkpt lat="42.1054663" lon="13.5312593"><ele>1088.0</ele><time>2026-04-18T11:22:46.329Z</time></trkpt><trkpt lat="42.1054056" lon="13.5313052"><ele>1085.9999999999998</ele><time>2026-04-18T11:22:57.009Z</time></trkpt><trkpt lat="42.1053385" lon="13.5312944"><ele>1084.0</ele><time>2026-04-18T11:23:05.992Z</time></trkpt><trkpt lat="42.1052728" lon="13.5313168"><ele>1082.0</ele><time>2026-04-18T11:23:18.995Z</time></trkpt><trkpt lat="42.1052197" lon="13.531368"><ele>1080.0</ele><time>2026-04-18T11:23:27.992Z</time></trkpt><trkpt lat="42.1051594" lon="13.5314007"><ele>1078.0</ele><time>2026-04-18T11:23:34.908Z</time></trkpt><trkpt lat="42.1051101" lon="13.5313439"><ele>1075.9999999999998</ele><time>2026-04-18T11:23:40.989Z</time></trkpt><trkpt lat="42.1050901" lon="13.5312555"><ele>1074.0</ele><time>2026-04-18T11:23:47.006Z</time></trkpt><trkpt lat="42.1050242" lon="13.5312583"><ele>1073.9999999999998</ele><time>2026-04-18T11:23:56.989Z</time></trkpt><trkpt lat="42.1049604" lon="13.5312867"><ele>1074.0</ele><time>2026-04-18T11:24:05.952Z</time></trkpt><trkpt lat="42.104891" lon="13.5312801"><ele>1074.0</ele><time>2026-04-18T11:25:10.97Z</time></trkpt><trkpt lat="42.1048338" lon="13.53124"><ele>1074.0</ele><time>2026-04-18T11:25:30.988Z</time></trkpt><trkpt lat="42.1047697" lon="13.531209"><ele>1074.0</ele><time>2026-04-18T11:25:47.93Z</time></trkpt><trkpt lat="42.1047041" lon="13.5312075"><ele>1073.9999999999998</ele><time>2026-04-18T11:25:54.931Z</time></trkpt><trkpt lat="42.10465" lon="13.5311604"><ele>1074.0</ele><time>2026-04-18T11:26:01.03Z</time></trkpt><trkpt lat="42.1045829" lon="13.5311698"><ele>1072.9999999999998</ele><time>2026-04-18T11:26:08.936Z</time></trkpt><trkpt lat="42.1045242" lon="13.5311316"><ele>1072.0</ele><time>2026-04-18T11:26:43.913Z</time></trkpt><trkpt lat="42.1044595" lon="13.5310926"><ele>1071.0</ele><time>2026-04-18T11:26:49.996Z</time></trkpt><trkpt lat="42.1043971" lon="13.5311333"><ele>1070.0</ele><time>2026-04-18T11:26:56.032Z</time></trkpt><trkpt lat="42.104334" lon="13.5311126"><ele>1069.0</ele><time>2026-04-18T11:27:04.013Z</time></trkpt><trkpt lat="42.1042752" lon="13.5311696"><ele>1067.9999999999998</ele><time>2026-04-18T11:27:12.026Z</time></trkpt><trkpt lat="42.1042158" lon="13.5312166"><ele>1067.0</ele><time>2026-04-18T11:27:18.914Z</time></trkpt><trkpt lat="42.1041488" lon="13.531221"><ele>1064.2857142857142</ele><time>2026-04-18T11:27:26.689Z</time></trkpt><trkpt lat="42.1040791" lon="13.5312196"><ele>1061.5714285714284</ele><time>2026-04-18T11:27:33.509Z</time></trkpt><trkpt lat="42.1040045" lon="13.5312198"><ele>1058.857142857143</ele><time>2026-04-18T11:27:40.392Z</time></trkpt><trkpt lat="42.1039311" lon="13.5312273"><ele>1056.142857142857</ele><time>2026-04-18T11:27:46.71Z</time></trkpt><trkpt lat="42.1038702" lon="13.5312521"><ele>1053.4285714285716</ele><time>2026-04-18T11:27:52.755Z</time></trkpt><trkpt lat="42.1038108" lon="13.5312162"><ele>1050.7142857142858</ele><time>2026-04-18T11:27:58.712Z</time></trkpt><trkpt lat="42.1037479" lon="13.5311838"><ele>1048.0</ele><time>2026-04-18T11:28:04.99Z</time></trkpt><trkpt lat="42.1036838" lon="13.5311486"><ele>1047.857142857143</ele><time>2026-04-18T11:28:11.769Z</time></trkpt><trkpt lat="42.1036206" lon="13.5311113"><ele>1047.7142857142858</ele><time>2026-04-18T11:28:17.774Z</time></trkpt><trkpt lat="42.1035627" lon="13.5310669"><ele>1047.5714285714287</ele><time>2026-04-18T11:28:24.948Z</time></trkpt><trkpt lat="42.1034972" lon="13.5310632"><ele>1047.4285714285716</ele><time>2026-04-18T11:28:33.01Z</time></trkpt><trkpt lat="42.1034274" lon="13.5310848"><ele>1047.2857142857142</ele><time>2026-04-18T11:28:39.986Z</time></trkpt><trkpt lat="42.1033633" lon="13.53108"><ele>1047.1428571428573</ele><time>2026-04-18T11:28:46.927Z</time></trkpt><trkpt lat="42.1032977" lon="13.5310966"><ele>1047.0</ele><time>2026-04-18T11:28:54.987Z</time></trkpt><trkpt lat="42.1032307" lon="13.5311183"><ele>1045.857142857143</ele><time>2026-04-18T11:29:01.967Z</time></trkpt><trkpt lat="42.1031794" lon="13.5311698"><ele>1044.7142857142858</ele><time>2026-04-18T11:29:07.832Z</time></trkpt><trkpt lat="42.1031162" lon="13.5312041"><ele>1043.5714285714284</ele><time>2026-04-18T11:29:15.99Z</time></trkpt><trkpt lat="42.1030543" lon="13.5312247"><ele>1042.4285714285716</ele><time>2026-04-18T11:29:22.772Z</time></trkpt><trkpt lat="42.1029858" lon="13.5312334"><ele>1041.2857142857142</ele><time>2026-04-18T11:29:30.607Z</time></trkpt><trkpt lat="42.1029204" lon="13.5312349"><ele>1040.142857142857</ele><time>2026-04-18T11:29:37.998Z</time></trkpt><trkpt lat="42.1028572" lon="13.5312556"><ele>1039.0</ele><time>2026-04-18T11:29:43.555Z</time></trkpt><trkpt lat="42.1028102" lon="13.5311991"><ele>1036.4285714285713</ele><time>2026-04-18T11:29:49.551Z</time></trkpt><trkpt lat="42.1027543" lon="13.531144"><ele>1033.857142857143</ele><time>2026-04-18T11:29:56.452Z</time></trkpt><trkpt lat="42.1027029" lon="13.5310823"><ele>1031.2857142857142</ele><time>2026-04-18T11:30:04.43Z</time></trkpt><trkpt lat="42.1026416" lon="13.5310324"><ele>1028.7142857142858</ele><time>2026-04-18T11:30:12.387Z</time></trkpt><trkpt lat="42.1025718" lon="13.5310083"><ele>1026.142857142857</ele><time>2026-04-18T11:30:19.271Z</time></trkpt><trkpt lat="42.1025045" lon="13.5309713"><ele>1023.5714285714286</ele><time>2026-04-18T11:30:27.287Z</time></trkpt><trkpt lat="42.1024553" lon="13.530918"><ele>1021.0</ele><time>2026-04-18T11:30:33.251Z</time></trkpt><trkpt lat="42.102411" lon="13.5308576"><ele>1021.0</ele><time>2026-04-18T11:30:40.989Z</time></trkpt><trkpt lat="42.1024232" lon="13.5307623"><ele>1021.0</ele><time>2026-04-18T11:30:49.021Z</time></trkpt><trkpt lat="42.1023754" lon="13.5307003"><ele>1021.0</ele><time>2026-04-18T11:30:57.99Z</time></trkpt><trkpt lat="42.1023154" lon="13.5306727"><ele>1021.0</ele><time>2026-04-18T11:31:06.974Z</time></trkpt><trkpt lat="42.1022765" lon="13.5305912"><ele>1021.0</ele><time>2026-04-18T11:31:14.989Z</time></trkpt><trkpt lat="42.1022123" lon="13.5305974"><ele>1021.0</ele><time>2026-04-18T11:31:22.929Z</time></trkpt><trkpt lat="42.1021768" lon="13.5305207"><ele>1021.0</ele><time>2026-04-18T11:31:29.97Z</time></trkpt><trkpt lat="42.1021198" lon="13.5304756"><ele>1018.4285714285713</ele><time>2026-04-18T11:31:37.928Z</time></trkpt><trkpt lat="42.1020671" lon="13.5304263"><ele>1015.8571428571429</ele><time>2026-04-18T11:31:44.93Z</time></trkpt><trkpt lat="42.1020303" lon="13.5303512"><ele>1013.2857142857142</ele><time>2026-04-18T11:31:51.952Z</time></trkpt><trkpt lat="42.1019689" lon="13.53038"><ele>1010.7142857142857</ele><time>2026-04-18T11:31:59.991Z</time></trkpt><trkpt lat="42.10192" lon="13.530438"><ele>1008.1428571428571</ele><time>2026-04-18T11:32:08.999Z</time></trkpt><trkpt lat="42.1019098" lon="13.5305227"><ele>1005.5714285714286</ele><time>2026-04-18T11:32:16.047Z</time></trkpt><trkpt lat="42.1018728" lon="13.5306024"><ele>1003.0</ele><time>2026-04-18T11:32:26.912Z</time></trkpt><trkpt lat="42.1018429" lon="13.5306773"><ele>1001.5714285714286</ele><time>2026-04-18T11:32:33.989Z</time></trkpt><trkpt lat="42.1018843" lon="13.530742"><ele>1000.1428571428571</ele><time>2026-04-18T11:32:40.992Z</time></trkpt><trkpt lat="42.1018983" lon="13.530832"><ele>998.7142857142857</ele><time>2026-04-18T11:32:48.972Z</time></trkpt><trkpt lat="42.1018224" lon="13.5308212"><ele>997.2857142857142</ele><time>2026-04-18T11:32:55.99Z</time></trkpt><trkpt lat="42.1017666" lon="13.5308873"><ele>995.8571428571429</ele><time>2026-04-18T11:33:03.007Z</time></trkpt><trkpt lat="42.101688" lon="13.5308926"><ele>994.4285714285713</ele><time>2026-04-18T11:33:22.94Z</time></trkpt><trkpt lat="42.1016231" lon="13.5309432"><ele>993.0</ele><time>2026-04-18T11:33:28.005Z</time></trkpt><trkpt lat="42.1015719" lon="13.5309938"><ele>991.5714285714286</ele><time>2026-04-18T11:33:33Z</time></trkpt><trkpt lat="42.1015152" lon="13.5310603"><ele>990.1428571428571</ele><time>2026-04-18T11:33:38.989Z</time></trkpt><trkpt lat="42.1014708" lon="13.5311248"><ele>988.7142857142857</ele><time>2026-04-18T11:33:43.91Z</time></trkpt><trkpt lat="42.1014198" lon="13.5311773"><ele>987.2857142857142</ele><time>2026-04-18T11:33:48.912Z</time></trkpt><trkpt lat="42.1013667" lon="13.531236"><ele>985.8571428571429</ele><time>2026-04-18T11:33:54.991Z</time></trkpt><trkpt lat="42.1013095" lon="13.5312901"><ele>984.4285714285713</ele><time>2026-04-18T11:34:00.989Z</time></trkpt><trkpt lat="42.1012616" lon="13.5313519"><ele>982.9999999999999</ele><time>2026-04-18T11:34:05.998Z</time></trkpt><trkpt lat="42.1011998" lon="13.5313725"><ele>982.9999999999999</ele><time>2026-04-18T11:34:11.934Z</time></trkpt><trkpt lat="42.1011353" lon="13.5313943"><ele>983.0</ele><time>2026-04-18T11:34:18.014Z</time></trkpt><trkpt lat="42.1010883" lon="13.5314508"><ele>982.9999999999999</ele><time>2026-04-18T11:34:24.006Z</time></trkpt><trkpt lat="42.1010208" lon="13.5314699"><ele>982.9999999999999</ele><time>2026-04-18T11:34:31.988Z</time></trkpt><trkpt lat="42.1009528" lon="13.5314402"><ele>983.0</ele><time>2026-04-18T11:34:39.01Z</time></trkpt><trkpt lat="42.1008925" lon="13.5313977"><ele>982.9999999999999</ele><time>2026-04-18T11:34:44.992Z</time></trkpt><trkpt lat="42.1008313" lon="13.5314521"><ele>982.9999999999999</ele><time>2026-04-18T11:34:51.99Z</time></trkpt><trkpt lat="42.1007729" lon="13.5314881"><ele>980.4285714285713</ele><time>2026-04-18T11:34:58.039Z</time></trkpt><trkpt lat="42.1007151" lon="13.5315228"><ele>977.8571428571429</ele><time>2026-04-18T11:35:06.71Z</time></trkpt><trkpt lat="42.1006581" lon="13.5315701"><ele>975.2857142857142</ele><time>2026-04-18T11:35:13.407Z</time></trkpt><trkpt lat="42.1005924" lon="13.5315941"><ele>972.7142857142857</ele><time>2026-04-18T11:35:22.99Z</time></trkpt><trkpt lat="42.1005504" lon="13.531527"><ele>970.1428571428571</ele><time>2026-04-18T11:35:31.009Z</time></trkpt><trkpt lat="42.1005306" lon="13.5314338"><ele>967.5714285714286</ele><time>2026-04-18T11:35:38.992Z</time></trkpt><trkpt lat="42.1004899" lon="13.5313549"><ele>965.0</ele><time>2026-04-18T11:35:45.998Z</time></trkpt><trkpt lat="42.1004342" lon="13.5312919"><ele>965.0</ele><time>2026-04-18T11:35:53.974Z</time></trkpt><trkpt lat="42.1003801" lon="13.5312389"><ele>965.0</ele><time>2026-04-18T11:36:00.854Z</time></trkpt><trkpt lat="42.1003473" lon="13.5311638"><ele>965.0</ele><time>2026-04-18T11:36:08.85Z</time></trkpt><trkpt lat="42.100291" lon="13.5311107"><ele>965.0</ele><time>2026-04-18T11:36:16.868Z</time></trkpt><trkpt lat="42.1002239" lon="13.531136"><ele>965.0</ele><time>2026-04-18T11:36:23.829Z</time></trkpt><trkpt lat="42.1001571" lon="13.53115"><ele>965.0</ele><time>2026-04-18T11:36:30.794Z</time></trkpt><trkpt lat="42.1000911" lon="13.53114"><ele>965.0</ele><time>2026-04-18T11:36:36.767Z</time></trkpt><trkpt lat="42.10002" lon="13.5311296"><ele>963.1428571428571</ele><time>2026-04-18T11:36:43.711Z</time></trkpt><trkpt lat="42.0999521" lon="13.531104"><ele>961.2857142857143</ele><time>2026-04-18T11:36:50.59Z</time></trkpt><trkpt lat="42.0998927" lon="13.5310739"><ele>959.4285714285714</ele><time>2026-04-18T11:36:57.024Z</time></trkpt><trkpt lat="42.0998293" lon="13.531042"><ele>957.5714285714286</ele><time>2026-04-18T11:37:03.992Z</time></trkpt><trkpt lat="42.0997574" lon="13.5310378"><ele>955.7142857142858</ele><time>2026-04-18T11:37:11.007Z</time></trkpt><trkpt lat="42.0997135" lon="13.5309553"><ele>953.8571428571429</ele><time>2026-04-18T11:37:30.892Z</time></trkpt><trkpt lat="42.0996395" lon="13.5309524"><ele>952.0</ele><time>2026-04-18T11:37:35.831Z</time></trkpt><trkpt lat="42.0995727" lon="13.5309602"><ele>949.5714285714286</ele><time>2026-04-18T11:37:41.496Z</time></trkpt><trkpt lat="42.0995003" lon="13.5309584"><ele>947.1428571428571</ele><time>2026-04-18T11:37:47.713Z</time></trkpt><trkpt lat="42.0994378" lon="13.530911"><ele>944.7142857142858</ele><time>2026-04-18T11:37:54.412Z</time></trkpt><trkpt lat="42.0993753" lon="13.5308484"><ele>942.2857142857143</ele><time>2026-04-18T11:38:02.511Z</time></trkpt><trkpt lat="42.0993158" lon="13.5307971"><ele>939.8571428571429</ele><time>2026-04-18T11:38:09.13Z</time></trkpt><trkpt lat="42.0992435" lon="13.5307714"><ele>937.4285714285716</ele><time>2026-04-18T11:38:15.75Z</time></trkpt><trkpt lat="42.099178" lon="13.5307781"><ele>935.0000000000001</ele><time>2026-04-18T11:38:21.907Z</time></trkpt><trkpt lat="42.0991451" lon="13.5308569"><ele>935.0000000000001</ele><time>2026-04-18T11:38:26.993Z</time></trkpt><trkpt lat="42.0991108" lon="13.5309362"><ele>935.0</ele><time>2026-04-18T11:38:32.054Z</time></trkpt><trkpt lat="42.0990641" lon="13.5310065"><ele>935.0000000000001</ele><time>2026-04-18T11:38:36.951Z</time></trkpt><trkpt lat="42.0990196" lon="13.5310724"><ele>935.0000000000001</ele><time>2026-04-18T11:38:41.827Z</time></trkpt><trkpt lat="42.0989813" lon="13.5311573"><ele>935.0</ele><time>2026-04-18T11:38:47.731Z</time></trkpt><trkpt lat="42.0989469" lon="13.5312312"><ele>935.0000000000001</ele><time>2026-04-18T11:38:53.607Z</time></trkpt><trkpt lat="42.0989081" lon="13.531314"><ele>935.0000000000001</ele><time>2026-04-18T11:38:59.896Z</time></trkpt><trkpt lat="42.0988762" lon="13.5313902"><ele>933.7142857142858</ele><time>2026-04-18T11:39:05.79Z</time></trkpt><trkpt lat="42.0988549" lon="13.5314802"><ele>932.4285714285714</ele><time>2026-04-18T11:39:12.033Z</time></trkpt><trkpt lat="42.0988024" lon="13.5315419"><ele>931.1428571428571</ele><time>2026-04-18T11:39:17.832Z</time></trkpt><trkpt lat="42.0987404" lon="13.5316045"><ele>929.8571428571429</ele><time>2026-04-18T11:39:23.767Z</time></trkpt><trkpt lat="42.0986852" lon="13.5316747"><ele>928.5714285714284</ele><time>2026-04-18T11:39:29.633Z</time></trkpt><trkpt lat="42.098636" lon="13.5317484"><ele>927.2857142857142</ele><time>2026-04-18T11:39:35.367Z</time></trkpt><trkpt lat="42.0985937" lon="13.5318209"><ele>926.0</ele><time>2026-04-18T11:39:40.268Z</time></trkpt><trkpt lat="42.098551" lon="13.5319041"><ele>926.0</ele><time>2026-04-18T11:39:45.589Z</time></trkpt><trkpt lat="42.0985151" lon="13.5319792"><ele>925.9999999999999</ele><time>2026-04-18T11:39:50.409Z</time></trkpt><trkpt lat="42.0984715" lon="13.5320566"><ele>926.0</ele><time>2026-04-18T11:39:56.316Z</time></trkpt><trkpt lat="42.0984224" lon="13.5321276"><ele>926.0</ele><time>2026-04-18T11:40:02.108Z</time></trkpt><trkpt lat="42.0983765" lon="13.5321885"><ele>925.9999999999999</ele><time>2026-04-18T11:40:06.969Z</time></trkpt><trkpt lat="42.0983263" lon="13.5322578"><ele>926.0</ele><time>2026-04-18T11:40:12.853Z</time></trkpt><trkpt lat="42.0982694" lon="13.5323196"><ele>926.0</ele><time>2026-04-18T11:40:18.627Z</time></trkpt><trkpt lat="42.098231" lon="13.5324053"><ele>905.0</ele><time>2026-04-18T11:40:24.573Z</time></trkpt><trkpt lat="42.0982196" lon="13.5325023"><ele>905.0</ele><time>2026-04-18T11:40:30.532Z</time></trkpt><trkpt lat="42.0981953" lon="13.532583"><ele>905.0</ele><time>2026-04-18T11:40:36.786Z</time></trkpt></trkseg></trk></gpx>